THA793 KJFK-VTBS
Flight info
| Callsign | THA793 |
|---|---|
| Flight time | N/A |
| Altitude | 31000 |
| Route | CRI DCT JFK Q133 PBERG/N0480F320 DCT IKMOL Q911 TAGET J567 YVO/N0474F310 J567 LIBUT/N0480F330 Q883 TEXEX/N0478F320 DCT 57N079W/N0482F330 59N079W 61N079W 63N079W 65N079W 67N079W 69N081W 71N083W 73N085W 75N087W/N0470F350 77N089W 79N093W 81N099W 85N129W/K0876F340 85N161E/K0882F360 81N129E 79N123E DCT IRMAK M171 PEKUN/K0874F380 M171 LUMIG B155 IKT/K0846F370 A492 OSKEN/K0852F380 A823 LETBI/K0852S1160 B480 MORIT/K0850S1190 B330 NOLOM/K0848S1160 B330 IPDAT/K0852S1190 B330 UBKER/K0885S1160 G212 LUVEN/K0870S1190 G212 BOPTU/K0880S1160 G212 IGEKA/K0876S1220 G212 SGM A581 BIDRU/K0865S1190 A581 SAGAG/N0466F400 B218 LPB B346 NOBER NORTA1C |
| Aircraft | A346/H-SDE2E3FGHIJ3J4J5M1RWXY/LB1D1 |
Departure
| Time | 2026-05-09 05:19 |
|---|---|
| Airport | John F. Kennedy International Airport (KJFK) |
Arrival
| Time | N/A |
|---|---|
| Airport | Suvarnabhumi Airport (VTBS) |
| Time | Latitude | Longitude | Altitude | Speed | Heading |
|---|---|---|---|---|---|
| 2026-05-09 04:35 | 40.64113 | -73.79209 | 32 ft | 0 kts | 327° |
| 2026-05-09 05:01 | 40.64102 | -73.79200 | 30 ft | 4 kts | 326° |
| 2026-05-09 05:01 | 40.64084 | -73.79183 | 32 ft | 3 kts | 325° |
| 2026-05-09 05:02 | 40.64070 | -73.79165 | 32 ft | 4 kts | 297° |
| 2026-05-09 05:02 | 40.64066 | -73.79151 | 32 ft | 4 kts | 252° |
| 2026-05-09 05:02 | 40.64071 | -73.79141 | 29 ft | 0 kts | 224° |
| 2026-05-09 05:02 | 40.64055 | -73.79161 | 31 ft | 4 kts | 224° |
| 2026-05-09 05:03 | 40.64037 | -73.79184 | 32 ft | 2 kts | 224° |
| 2026-05-09 05:03 | 40.64036 | -73.79185 | 32 ft | 0 kts | 224° |
| 2026-05-09 05:04 | 40.64036 | -73.79186 | 32 ft | 0 kts | 224° |
| 2026-05-09 05:06 | 40.64032 | -73.79190 | 32 ft | 2 kts | 224° |
| 2026-05-09 05:06 | 40.64006 | -73.79223 | 32 ft | 9 kts | 224° |
| 2026-05-09 05:06 | 40.63941 | -73.79305 | 28 ft | 7 kts | 224° |
| 2026-05-09 05:07 | 40.63909 | -73.79313 | 28 ft | 6 kts | 149° |
| 2026-05-09 05:07 | 40.63868 | -73.79251 | 29 ft | 14 kts | 124° |
| 2026-05-09 05:07 | 40.63808 | -73.79122 | 31 ft | 16 kts | 121° |
| 2026-05-09 05:07 | 40.63750 | -73.78994 | 31 ft | 16 kts | 121° |
| 2026-05-09 05:08 | 40.63696 | -73.78876 | 34 ft | 14 kts | 121° |
| 2026-05-09 05:08 | 40.63646 | -73.78764 | 35 ft | 14 kts | 121° |
| 2026-05-09 05:08 | 40.63595 | -73.78653 | 35 ft | 14 kts | 121° |
| 2026-05-09 05:08 | 40.63545 | -73.78541 | 36 ft | 14 kts | 121° |
| 2026-05-09 05:09 | 40.63492 | -73.78424 | 34 ft | 16 kts | 121° |
| 2026-05-09 05:09 | 40.63433 | -73.78295 | 33 ft | 16 kts | 121° |
| 2026-05-09 05:09 | 40.63375 | -73.78169 | 33 ft | 16 kts | 121° |
| 2026-05-09 05:09 | 40.63330 | -73.78031 | 32 ft | 16 kts | 99° |
| 2026-05-09 05:10 | 40.63346 | -73.77887 | 33 ft | 16 kts | 66° |
| 2026-05-09 05:10 | 40.63417 | -73.77781 | 34 ft | 16 kts | 36° |
| 2026-05-09 05:10 | 40.63524 | -73.77693 | 30 ft | 19 kts | 31° |
| 2026-05-09 05:10 | 40.63554 | -73.77669 | 29 ft | 19 kts | 31° |
| 2026-05-09 05:11 | 40.63575 | -73.77654 | 28 ft | 19 kts | 31° |
| 2026-05-09 05:12 | 40.63649 | -73.77596 | 28 ft | 19 kts | 30° |
| 2026-05-09 05:13 | 40.63708 | -73.77550 | 27 ft | 19 kts | 31° |
| 2026-05-09 05:13 | 40.63822 | -73.77461 | 27 ft | 18 kts | 31° |
| 2026-05-09 05:13 | 40.63925 | -73.77380 | 29 ft | 16 kts | 31° |
| 2026-05-09 05:13 | 40.63952 | -73.77358 | 28 ft | 16 kts | 31° |
| 2026-05-09 05:14 | 40.63990 | -73.77329 | 29 ft | 16 kts | 30° |
| 2026-05-09 05:14 | 40.64082 | -73.77258 | 32 ft | 14 kts | 30° |
| 2026-05-09 05:14 | 40.64165 | -73.77193 | 33 ft | 14 kts | 30° |
| 2026-05-09 05:14 | 40.64254 | -73.77124 | 31 ft | 16 kts | 31° |
| 2026-05-09 05:15 | 40.64348 | -73.77049 | 31 ft | 16 kts | 30° |
| 2026-05-09 05:15 | 40.64458 | -73.76990 | 28 ft | 18 kts | 12° |
| 2026-05-09 05:15 | 40.64571 | -73.76939 | 27 ft | 17 kts | 31° |
| 2026-05-09 05:15 | 40.64675 | -73.76857 | 28 ft | 17 kts | 31° |
| 2026-05-09 05:16 | 40.64776 | -73.76778 | 27 ft | 16 kts | 30° |
| 2026-05-09 05:16 | 40.64867 | -73.76707 | 30 ft | 14 kts | 30° |
| 2026-05-09 05:16 | 40.64957 | -73.76638 | 29 ft | 15 kts | 30° |
| 2026-05-09 05:16 | 40.65048 | -73.76567 | 29 ft | 15 kts | 31° |
| 2026-05-09 05:17 | 40.65099 | -73.76480 | 30 ft | 12 kts | 105° |
| 2026-05-09 05:17 | 40.65057 | -73.76384 | 31 ft | 12 kts | 127° |
| 2026-05-09 05:17 | 40.64992 | -73.76378 | 31 ft | 0 kts | 210° |
| 2026-05-09 05:17 | 40.64987 | -73.76382 | 31 ft | 6 kts | 210° |
| 2026-05-09 05:18 | 40.64836 | -73.76501 | 30 ft | 54 kts | 211° |
| 2026-05-09 05:18 | 40.64331 | -73.76896 | 29 ft | 112 kts | 210° |
| 2026-05-09 05:18 | 40.63526 | -73.77524 | 32 ft | 160 kts | 210° |
| 2026-05-09 05:18 | 40.62854 | -73.78048 | 36 ft | 185 kts | 211° |
| 2026-05-09 05:19 | 40.61728 | -73.78938 | 391 ft | 192 kts | 210° |
| 2026-05-09 05:19 | 40.60647 | -73.79795 | 870 ft | 194 kts | 214° |
| 2026-05-09 05:19 | 40.59830 | -73.81148 | 1425 ft | 192 kts | 257° |
| 2026-05-09 05:19 | 40.59942 | -73.82978 | 1712 ft | 205 kts | 284° |
| 2026-05-09 05:20 | 40.60366 | -73.84835 | 1969 ft | 219 kts | 284° |
| 2026-05-09 05:20 | 40.60927 | -73.86769 | 2215 ft | 236 kts | 303° |
| 2026-05-09 05:20 | 40.62173 | -73.88268 | 2488 ft | 255 kts | 332° |
| 2026-05-09 05:20 | 40.63946 | -73.88829 | 2772 ft | 275 kts | 0° |
| 2026-05-09 05:21 | 40.65819 | -73.88104 | 3211 ft | 290 kts | 31° |
| 2026-05-09 05:21 | 40.67214 | -73.86172 | 3823 ft | 296 kts | 55° |
| 2026-05-09 05:21 | 40.68307 | -73.83843 | 4357 ft | 302 kts | 56° |
| 2026-05-09 05:21 | 40.69414 | -73.81474 | 4837 ft | 308 kts | 55° |
| 2026-05-09 05:22 | 40.70616 | -73.78946 | 5373 ft | 313 kts | 55° |
| 2026-05-09 05:22 | 40.71789 | -73.76505 | 5937 ft | 316 kts | 54° |
| 2026-05-09 05:22 | 40.73157 | -73.74258 | 6429 ft | 313 kts | 31° |
| 2026-05-09 05:22 | 40.75077 | -73.73061 | 6907 ft | 301 kts | 6° |
| 2026-05-09 05:23 | 40.77121 | -73.72563 | 7488 ft | 298 kts | 1° |
| 2026-05-09 05:23 | 40.79182 | -73.72158 | 8031 ft | 301 kts | 1° |
| 2026-05-09 05:23 | 40.81258 | -73.71703 | 8565 ft | 304 kts | 2° |
| 2026-05-09 05:23 | 40.83344 | -73.71184 | 9135 ft | 306 kts | 2° |
| 2026-05-09 05:24 | 40.85435 | -73.70621 | 9656 ft | 308 kts | 2° |
| 2026-05-09 05:24 | 40.87540 | -73.70038 | 10110 ft | 310 kts | 2° |
| 2026-05-09 05:24 | 40.89686 | -73.69439 | 10372 ft | 320 kts | 3° |
| 2026-05-09 05:24 | 40.91894 | -73.68814 | 10574 ft | 330 kts | 3° |
| 2026-05-09 05:25 | 40.94181 | -73.68156 | 10764 ft | 341 kts | 4° |
| 2026-05-09 05:25 | 40.96541 | -73.67472 | 10989 ft | 353 kts | 4° |
| 2026-05-09 05:25 | 41.01502 | -73.66023 | 11425 ft | 376 kts | 5° |
| 2026-05-09 05:26 | 41.04086 | -73.65264 | 11768 ft | 383 kts | 5° |
| 2026-05-09 05:26 | 41.06699 | -73.64491 | 12246 ft | 386 kts | 5° |
| 2026-05-09 05:26 | 41.09323 | -73.63712 | 12806 ft | 388 kts | 5° |
| 2026-05-09 05:26 | 41.11967 | -73.62930 | 13310 ft | 390 kts | 5° |
| 2026-05-09 05:27 | 41.14630 | -73.62144 | 13815 ft | 393 kts | 5° |
| 2026-05-09 05:27 | 41.17308 | -73.61353 | 14267 ft | 396 kts | 5° |
| 2026-05-09 05:27 | 41.20004 | -73.60556 | 14713 ft | 398 kts | 5° |
| 2026-05-09 05:27 | 41.22714 | -73.59755 | 15181 ft | 400 kts | 5° |
| 2026-05-09 05:28 | 41.25440 | -73.58950 | 15591 ft | 404 kts | 5° |
| 2026-05-09 05:28 | 41.28199 | -73.58222 | 15989 ft | 404 kts | 2° |
| 2026-05-09 05:28 | 41.30985 | -73.57718 | 16449 ft | 403 kts | 359° |
| 2026-05-09 05:28 | 41.33777 | -73.57327 | 16899 ft | 404 kts | 358° |
| 2026-05-09 05:29 | 41.36579 | -73.56955 | 17324 ft | 406 kts | 358° |
| 2026-05-09 05:29 | 41.39401 | -73.56582 | 17761 ft | 408 kts | 358° |
| 2026-05-09 05:29 | 41.42236 | -73.56205 | 18188 ft | 411 kts | 358° |
| 2026-05-09 05:29 | 41.45089 | -73.55821 | 18575 ft | 413 kts | 358° |
| 2026-05-09 05:30 | 41.47962 | -73.55434 | 18919 ft | 416 kts | 358° |
| 2026-05-09 05:30 | 41.50849 | -73.55044 | 19259 ft | 418 kts | 358° |
| 2026-05-09 05:30 | 41.53750 | -73.54651 | 19631 ft | 420 kts | 358° |
| 2026-05-09 05:30 | 41.56668 | -73.54254 | 19986 ft | 422 kts | 357° |
| 2026-05-09 05:31 | 41.59595 | -73.53856 | 20342 ft | 424 kts | 357° |
| 2026-05-09 05:31 | 41.62537 | -73.53456 | 20707 ft | 426 kts | 357° |
| 2026-05-09 05:31 | 41.65500 | -73.53053 | 21068 ft | 428 kts | 357° |
| 2026-05-09 05:31 | 41.68473 | -73.52648 | 21415 ft | 430 kts | 357° |
| 2026-05-09 05:32 | 41.71462 | -73.52241 | 21736 ft | 432 kts | 357° |
| 2026-05-09 05:32 | 41.74423 | -73.51837 | 22082 ft | 434 kts | 356° |
| 2026-05-09 05:32 | 41.77430 | -73.51426 | 22392 ft | 436 kts | 356° |
| 2026-05-09 05:32 | 41.80457 | -73.51013 | 22714 ft | 438 kts | 356° |
| 2026-05-09 05:33 | 41.83495 | -73.50598 | 23086 ft | 439 kts | 357° |
| 2026-05-09 05:33 | 41.86542 | -73.50183 | 23423 ft | 441 kts | 357° |
| 2026-05-09 05:33 | 41.89597 | -73.49763 | 23736 ft | 442 kts | 356° |
| 2026-05-09 05:33 | 41.92664 | -73.49340 | 24004 ft | 443 kts | 356° |
| 2026-05-09 05:34 | 41.95738 | -73.48916 | 24247 ft | 445 kts | 356° |
| 2026-05-09 05:34 | 41.98823 | -73.48490 | 24511 ft | 446 kts | 356° |
| 2026-05-09 05:34 | 42.01913 | -73.48064 | 24805 ft | 447 kts | 356° |
| 2026-05-09 05:34 | 42.05010 | -73.47639 | 25120 ft | 448 kts | 356° |
| 2026-05-09 05:35 | 42.08108 | -73.47207 | 25430 ft | 449 kts | 356° |
| 2026-05-09 05:35 | 42.11222 | -73.46771 | 25695 ft | 450 kts | 356° |
| 2026-05-09 05:35 | 42.14375 | -73.46331 | 25937 ft | 451 kts | 356° |
| 2026-05-09 05:35 | 42.17494 | -73.45897 | 26247 ft | 452 kts | 356° |
| 2026-05-09 05:36 | 42.20628 | -73.45461 | 26511 ft | 453 kts | 356° |
| 2026-05-09 05:36 | 42.23780 | -73.45025 | 26806 ft | 454 kts | 356° |
| 2026-05-09 05:36 | 42.26929 | -73.44588 | 27052 ft | 455 kts | 355° |
| 2026-05-09 05:36 | 42.30088 | -73.44149 | 27312 ft | 456 kts | 355° |
| 2026-05-09 05:37 | 42.33254 | -73.43707 | 27558 ft | 458 kts | 355° |
| 2026-05-09 05:37 | 42.36427 | -73.43265 | 27816 ft | 458 kts | 355° |
| 2026-05-09 05:37 | 42.39597 | -73.42820 | 28150 ft | 457 kts | 355° |
| 2026-05-09 05:37 | 42.42751 | -73.42376 | 28561 ft | 455 kts | 355° |
| 2026-05-09 05:38 | 42.45895 | -73.41936 | 28894 ft | 453 kts | 355° |
| 2026-05-09 05:38 | 42.49030 | -73.41496 | 29236 ft | 452 kts | 354° |
| 2026-05-09 05:38 | 42.52153 | -73.41058 | 29522 ft | 451 kts | 354° |
| 2026-05-09 05:38 | 42.55282 | -73.40621 | 29746 ft | 452 kts | 354° |
| 2026-05-09 05:39 | 42.58407 | -73.40185 | 29973 ft | 453 kts | 354° |
| 2026-05-09 05:39 | 42.61550 | -73.39747 | 30213 ft | 453 kts | 354° |
| 2026-05-09 05:39 | 42.64687 | -73.39313 | 30413 ft | 454 kts | 354° |
| 2026-05-09 05:39 | 42.67840 | -73.38873 | 30575 ft | 456 kts | 354° |
| 2026-05-09 05:40 | 42.71004 | -73.38428 | 30755 ft | 457 kts | 355° |
| 2026-05-09 05:40 | 42.74175 | -73.37981 | 30940 ft | 458 kts | 355° |
| 2026-05-09 05:40 | 42.80540 | -73.37082 | 31014 ft | 461 kts | 355° |
| 2026-05-09 05:41 | 42.86923 | -73.36182 | 31012 ft | 462 kts | 355° |
| 2026-05-09 05:41 | 42.93314 | -73.35270 | 30995 ft | 462 kts | 355° |
| 2026-05-09 05:42 | 42.99683 | -73.34701 | 30997 ft | 454 kts | 350° |
| 2026-05-09 05:42 | 43.05962 | -73.34971 | 31001 ft | 450 kts | 347° |
| 2026-05-09 05:43 | 43.12211 | -73.35527 | 30993 ft | 450 kts | 346° |
| 2026-05-09 05:43 | 43.18420 | -73.36092 | 30987 ft | 450 kts | 346° |
| 2026-05-09 05:44 | 43.24673 | -73.36662 | 30991 ft | 451 kts | 347° |
| 2026-05-09 05:44 | 43.30951 | -73.37226 | 30983 ft | 452 kts | 347° |
| 2026-05-09 05:45 | 43.37218 | -73.37789 | 30985 ft | 452 kts | 347° |
| 2026-05-09 05:45 | 43.43500 | -73.38362 | 30992 ft | 454 kts | 347° |
| 2026-05-09 05:46 | 43.49810 | -73.38932 | 30985 ft | 454 kts | 347° |
| 2026-05-09 05:46 | 43.56127 | -73.39502 | 30981 ft | 454 kts | 347° |
| 2026-05-09 05:47 | 43.62433 | -73.40074 | 30977 ft | 454 kts | 347° |
| 2026-05-09 05:47 | 43.68762 | -73.40652 | 30972 ft | 454 kts | 347° |
| 2026-05-09 05:48 | 43.75096 | -73.41306 | 30975 ft | 453 kts | 346° |
| 2026-05-09 05:48 | 43.81389 | -73.42037 | 30980 ft | 455 kts | 346° |
| 2026-05-09 05:49 | 43.87701 | -73.42762 | 30962 ft | 455 kts | 346° |
| 2026-05-09 05:49 | 43.94020 | -73.43483 | 30962 ft | 455 kts | 346° |
| 2026-05-09 05:50 | 43.99267 | -73.44084 | 30992 ft | 456 kts | 347° |
| 2026-05-09 05:50 | 44.05626 | -73.44816 | 30968 ft | 458 kts | 347° |
| 2026-05-09 05:51 | 44.12000 | -73.45542 | 30962 ft | 458 kts | 347° |
| 2026-05-09 05:51 | 44.18356 | -73.46272 | 30981 ft | 459 kts | 347° |
| 2026-05-09 05:52 | 44.24730 | -73.47007 | 30961 ft | 460 kts | 347° |
| 2026-05-09 05:52 | 44.31108 | -73.47740 | 30959 ft | 460 kts | 347° |
| 2026-05-09 05:53 | 44.37490 | -73.48477 | 30986 ft | 460 kts | 347° |
| 2026-05-09 05:53 | 44.43886 | -73.49224 | 30948 ft | 462 kts | 347° |
| 2026-05-09 05:54 | 44.50302 | -73.49965 | 30956 ft | 462 kts | 347° |
| 2026-05-09 05:54 | 44.56720 | -73.50710 | 30949 ft | 462 kts | 347° |
| 2026-05-09 05:55 | 44.63126 | -73.51563 | 30948 ft | 460 kts | 344° |
| 2026-05-09 05:55 | 44.69275 | -73.53640 | 30960 ft | 451 kts | 334° |
| 2026-05-09 05:56 | 44.74958 | -73.57150 | 30949 ft | 442 kts | 324° |
| 2026-05-09 05:56 | 44.80116 | -73.61779 | 30955 ft | 440 kts | 320° |
| 2026-05-09 05:57 | 44.85188 | -73.66661 | 30941 ft | 441 kts | 320° |
| 2026-05-09 05:57 | 44.90250 | -73.71545 | 30936 ft | 441 kts | 320° |
| 2026-05-09 05:58 | 44.95309 | -73.76433 | 30924 ft | 441 kts | 320° |
| 2026-05-09 05:58 | 45.00372 | -73.81336 | 30922 ft | 441 kts | 320° |
| 2026-05-09 05:59 | 45.05455 | -73.86271 | 30927 ft | 444 kts | 320° |
| 2026-05-09 05:59 | 45.10544 | -73.91215 | 30915 ft | 444 kts | 320° |
| 2026-05-09 06:00 | 45.15636 | -73.96172 | 30914 ft | 444 kts | 320° |
| 2026-05-09 06:00 | 45.20720 | -74.01133 | 30912 ft | 444 kts | 320° |
| 2026-05-09 06:01 | 45.25834 | -74.06137 | 30925 ft | 444 kts | 320° |
| 2026-05-09 06:01 | 45.30925 | -74.11130 | 30911 ft | 445 kts | 320° |
| 2026-05-09 06:02 | 45.36047 | -74.16160 | 30909 ft | 445 kts | 320° |
| 2026-05-09 06:02 | 45.41137 | -74.21173 | 30911 ft | 445 kts | 320° |
| 2026-05-09 06:03 | 45.46224 | -74.26193 | 30917 ft | 444 kts | 320° |
| 2026-05-09 06:03 | 45.51306 | -74.31227 | 30923 ft | 445 kts | 321° |
| 2026-05-09 06:04 | 45.56414 | -74.36291 | 30911 ft | 445 kts | 321° |
| 2026-05-09 06:04 | 45.61502 | -74.41346 | 30910 ft | 445 kts | 320° |
| 2026-05-09 06:05 | 45.66593 | -74.46416 | 30911 ft | 445 kts | 320° |
| 2026-05-09 06:05 | 45.71647 | -74.51461 | 30908 ft | 445 kts | 320° |
| 2026-05-09 06:06 | 45.76780 | -74.56599 | 30908 ft | 446 kts | 320° |
| 2026-05-09 06:06 | 45.81870 | -74.61702 | 30905 ft | 446 kts | 320° |
| 2026-05-09 06:07 | 45.86957 | -74.66815 | 30906 ft | 446 kts | 320° |
| 2026-05-09 06:07 | 45.92064 | -74.71959 | 30904 ft | 446 kts | 320° |
| 2026-05-09 06:08 | 45.97146 | -74.77092 | 30909 ft | 446 kts | 320° |
| 2026-05-09 06:08 | 46.02228 | -74.82236 | 30895 ft | 447 kts | 320° |
| 2026-05-09 06:09 | 46.07335 | -74.87415 | 30896 ft | 447 kts | 320° |
| 2026-05-09 06:09 | 46.12425 | -74.92590 | 30894 ft | 447 kts | 320° |
| 2026-05-09 06:10 | 46.17513 | -74.97774 | 30887 ft | 447 kts | 320° |
| 2026-05-09 06:10 | 46.22557 | -75.02926 | 30890 ft | 447 kts | 320° |
| 2026-05-09 06:11 | 46.27639 | -75.08128 | 30884 ft | 447 kts | 320° |
| 2026-05-09 06:11 | 46.32719 | -75.13342 | 30880 ft | 448 kts | 320° |
| 2026-05-09 06:12 | 46.37848 | -75.18619 | 30879 ft | 448 kts | 320° |
| 2026-05-09 06:12 | 46.42907 | -75.23834 | 30889 ft | 448 kts | 320° |
| 2026-05-09 06:13 | 46.47986 | -75.29080 | 30861 ft | 447 kts | 320° |
| 2026-05-09 06:13 | 46.53043 | -75.34322 | 30867 ft | 447 kts | 320° |
| 2026-05-09 06:14 | 46.58112 | -75.39588 | 30861 ft | 447 kts | 320° |
| 2026-05-09 06:14 | 46.63182 | -75.44866 | 30863 ft | 447 kts | 320° |
| 2026-05-09 06:15 | 46.68084 | -75.50395 | 30874 ft | 444 kts | 315° |
| 2026-05-09 06:15 | 46.72549 | -75.56547 | 30862 ft | 440 kts | 309° |
| 2026-05-09 06:16 | 46.76688 | -75.63111 | 30856 ft | 439 kts | 308° |
| 2026-05-09 06:16 | 46.80785 | -75.69712 | 30849 ft | 438 kts | 308° |
| 2026-05-09 06:17 | 46.84871 | -75.76314 | 30846 ft | 438 kts | 308° |
| 2026-05-09 06:17 | 46.88987 | -75.82885 | 30844 ft | 439 kts | 309° |
| 2026-05-09 06:18 | 46.93256 | -75.89287 | 30876 ft | 439 kts | 310° |
| 2026-05-09 06:18 | 46.97526 | -75.95669 | 30853 ft | 438 kts | 310° |
| 2026-05-09 06:19 | 47.01781 | -76.02050 | 30845 ft | 437 kts | 310° |
| 2026-05-09 06:19 | 47.06028 | -76.08441 | 30835 ft | 437 kts | 310° |
| 2026-05-09 06:20 | 47.10271 | -76.14842 | 30837 ft | 437 kts | 310° |
| 2026-05-09 06:20 | 47.14514 | -76.21259 | 30834 ft | 437 kts | 309° |
| 2026-05-09 06:21 | 47.18752 | -76.27683 | 30866 ft | 437 kts | 309° |
| 2026-05-09 06:21 | 47.22979 | -76.34106 | 30829 ft | 436 kts | 309° |
| 2026-05-09 06:22 | 47.27203 | -76.40542 | 30830 ft | 436 kts | 309° |
| 2026-05-09 06:22 | 47.31420 | -76.46984 | 30825 ft | 436 kts | 309° |
| 2026-05-09 06:23 | 47.35635 | -76.53438 | 30819 ft | 436 kts | 309° |
| 2026-05-09 06:23 | 47.39844 | -76.59897 | 30831 ft | 436 kts | 309° |
| 2026-05-09 06:24 | 47.44050 | -76.66367 | 30827 ft | 436 kts | 309° |
| 2026-05-09 06:24 | 47.48256 | -76.72855 | 30835 ft | 437 kts | 309° |
| 2026-05-09 06:25 | 47.52472 | -76.79375 | 30823 ft | 437 kts | 309° |
| 2026-05-09 06:25 | 47.56648 | -76.85847 | 30818 ft | 437 kts | 309° |
| 2026-05-09 06:26 | 47.60876 | -76.92416 | 30820 ft | 437 kts | 309° |
| 2026-05-09 06:26 | 47.65043 | -76.98907 | 30817 ft | 437 kts | 309° |
| 2026-05-09 06:27 | 47.69235 | -77.05454 | 30818 ft | 437 kts | 309° |
| 2026-05-09 06:27 | 47.73426 | -77.12018 | 30821 ft | 438 kts | 309° |
| 2026-05-09 06:28 | 47.76939 | -77.17530 | 30816 ft | 438 kts | 309° |
| 2026-05-09 06:28 | 47.81131 | -77.24123 | 30824 ft | 438 kts | 309° |
| 2026-05-09 06:29 | 47.85311 | -77.30717 | 30818 ft | 437 kts | 309° |
| 2026-05-09 06:29 | 47.89484 | -77.37313 | 30804 ft | 437 kts | 309° |
| 2026-05-09 06:30 | 47.93670 | -77.43946 | 30789 ft | 437 kts | 309° |
| 2026-05-09 06:30 | 47.97835 | -77.50567 | 30812 ft | 437 kts | 309° |
| 2026-05-09 06:31 | 48.01988 | -77.57186 | 30772 ft | 436 kts | 309° |
| 2026-05-09 06:31 | 48.06133 | -77.63804 | 30757 ft | 435 kts | 309° |
| 2026-05-09 06:32 | 48.10261 | -77.70413 | 30754 ft | 434 kts | 309° |
| 2026-05-09 06:33 | 48.17474 | -77.78782 | 30758 ft | 449 kts | 330° |
| 2026-05-09 06:33 | 48.23541 | -77.81400 | 30797 ft | 463 kts | 347° |
| 2026-05-09 06:34 | 48.33301 | -77.81352 | 30792 ft | 468 kts | 356° |
| 2026-05-09 06:34 | 48.39813 | -77.80994 | 30789 ft | 468 kts | 356° |
| 2026-05-09 06:35 | 48.46324 | -77.80650 | 30802 ft | 469 kts | 355° |
| 2026-05-09 06:35 | 48.52868 | -77.80313 | 30791 ft | 469 kts | 355° |
| 2026-05-09 06:36 | 48.59382 | -77.79977 | 30787 ft | 467 kts | 355° |
| 2026-05-09 06:36 | 48.65873 | -77.79647 | 30806 ft | 467 kts | 355° |
| 2026-05-09 06:37 | 48.72383 | -77.79316 | 30783 ft | 468 kts | 355° |
| 2026-05-09 06:37 | 48.78904 | -77.78982 | 30775 ft | 469 kts | 355° |
| 2026-05-09 06:38 | 48.85414 | -77.78648 | 30774 ft | 468 kts | 355° |
| 2026-05-09 06:38 | 48.91937 | -77.78314 | 30781 ft | 470 kts | 355° |
| 2026-05-09 06:39 | 48.98484 | -77.77976 | 30771 ft | 471 kts | 355° |
| 2026-05-09 06:39 | 49.05026 | -77.77637 | 30767 ft | 471 kts | 355° |
| 2026-05-09 06:40 | 49.11571 | -77.77299 | 30781 ft | 471 kts | 355° |
| 2026-05-09 06:40 | 49.18146 | -77.76962 | 30771 ft | 473 kts | 355° |
| 2026-05-09 06:41 | 49.24720 | -77.76622 | 30761 ft | 473 kts | 355° |
| 2026-05-09 06:41 | 49.31298 | -77.76283 | 30761 ft | 473 kts | 355° |
| 2026-05-09 06:42 | 49.37898 | -77.75949 | 30767 ft | 476 kts | 356° |
| 2026-05-09 06:42 | 49.44522 | -77.75604 | 30752 ft | 476 kts | 356° |
| 2026-05-09 06:43 | 49.51148 | -77.75257 | 30749 ft | 476 kts | 356° |
| 2026-05-09 06:43 | 49.57808 | -77.74915 | 30746 ft | 478 kts | 356° |
| 2026-05-09 06:44 | 49.64469 | -77.74567 | 30731 ft | 479 kts | 356° |
| 2026-05-09 06:44 | 49.71128 | -77.74217 | 30735 ft | 479 kts | 356° |
| 2026-05-09 06:45 | 49.77769 | -77.74036 | 30761 ft | 476 kts | 354° |
| 2026-05-09 06:45 | 49.84431 | -77.74017 | 30734 ft | 478 kts | 355° |
| 2026-05-09 06:46 | 49.91103 | -77.73976 | 30733 ft | 478 kts | 355° |
| 2026-05-09 06:46 | 49.97765 | -77.73923 | 30746 ft | 478 kts | 355° |
| 2026-05-09 06:47 | 50.04428 | -77.73871 | 30755 ft | 480 kts | 355° |
| 2026-05-09 06:47 | 50.11120 | -77.73810 | 30751 ft | 481 kts | 355° |
| 2026-05-09 06:48 | 50.17806 | -77.73748 | 30748 ft | 481 kts | 355° |
| 2026-05-09 06:48 | 50.24495 | -77.73688 | 30763 ft | 481 kts | 355° |
| 2026-05-09 06:49 | 50.31227 | -77.73629 | 30749 ft | 482 kts | 355° |
| 2026-05-09 06:49 | 50.37946 | -77.73565 | 30742 ft | 483 kts | 355° |
| 2026-05-09 06:50 | 50.44655 | -77.73502 | 30742 ft | 482 kts | 355° |
| 2026-05-09 06:50 | 50.51369 | -77.73439 | 30738 ft | 482 kts | 355° |
| 2026-05-09 06:51 | 50.58088 | -77.73377 | 30739 ft | 482 kts | 355° |
| 2026-05-09 06:51 | 50.64799 | -77.73315 | 30741 ft | 482 kts | 355° |
| 2026-05-09 06:52 | 50.71513 | -77.73258 | 30747 ft | 483 kts | 356° |
| 2026-05-09 06:52 | 50.78242 | -77.73197 | 30742 ft | 484 kts | 356° |
| 2026-05-09 06:53 | 50.84972 | -77.73130 | 30737 ft | 482 kts | 356° |
| 2026-05-09 06:53 | 50.91683 | -77.73067 | 30734 ft | 482 kts | 356° |
| 2026-05-09 06:54 | 50.98419 | -77.73011 | 30730 ft | 483 kts | 356° |
| 2026-05-09 06:54 | 51.05141 | -77.72947 | 30733 ft | 484 kts | 356° |
| 2026-05-09 06:55 | 51.11891 | -77.72881 | 30727 ft | 484 kts | 356° |
| 2026-05-09 06:55 | 51.18620 | -77.72820 | 30737 ft | 484 kts | 356° |
| 2026-05-09 06:56 | 51.25367 | -77.72758 | 30720 ft | 485 kts | 356° |
| 2026-05-09 06:56 | 51.32115 | -77.72691 | 30719 ft | 485 kts | 356° |
| 2026-05-09 06:57 | 51.38873 | -77.72625 | 30717 ft | 485 kts | 356° |
| 2026-05-09 06:57 | 51.45663 | -77.72565 | 30723 ft | 486 kts | 357° |
| 2026-05-09 06:58 | 51.52469 | -77.72498 | 30716 ft | 486 kts | 357° |
| 2026-05-09 06:58 | 51.59237 | -77.72432 | 30710 ft | 486 kts | 357° |
| 2026-05-09 06:59 | 51.66001 | -77.72368 | 30725 ft | 486 kts | 357° |
| 2026-05-09 06:59 | 51.72724 | -77.72306 | 30708 ft | 487 kts | 357° |
| 2026-05-09 07:00 | 51.79504 | -77.72237 | 30710 ft | 487 kts | 357° |
| 2026-05-09 07:00 | 51.86273 | -77.72171 | 30706 ft | 487 kts | 357° |
| 2026-05-09 07:01 | 51.93080 | -77.72108 | 30717 ft | 486 kts | 357° |
| 2026-05-09 07:01 | 51.99847 | -77.72041 | 30702 ft | 486 kts | 357° |
| 2026-05-09 07:02 | 52.06655 | -77.71973 | 30708 ft | 486 kts | 357° |
| 2026-05-09 07:02 | 52.13418 | -77.71906 | 30712 ft | 486 kts | 358° |
| 2026-05-09 07:03 | 52.20184 | -77.71842 | 30706 ft | 486 kts | 358° |
| 2026-05-09 07:03 | 52.26955 | -77.71773 | 30703 ft | 486 kts | 358° |
| 2026-05-09 07:04 | 52.33719 | -77.71706 | 30700 ft | 486 kts | 358° |
| 2026-05-09 07:04 | 52.40487 | -77.71639 | 30703 ft | 486 kts | 358° |
| 2026-05-09 07:05 | 52.47250 | -77.71572 | 30701 ft | 486 kts | 358° |
| 2026-05-09 07:05 | 52.52875 | -77.71515 | 30700 ft | 486 kts | 358° |
| 2026-05-09 07:06 | 52.59639 | -77.71447 | 30699 ft | 486 kts | 358° |
| 2026-05-09 07:06 | 52.66403 | -77.71381 | 30698 ft | 486 kts | 358° |
| 2026-05-09 07:07 | 52.73187 | -77.71312 | 30695 ft | 486 kts | 358° |
| 2026-05-09 07:07 | 52.79953 | -77.71243 | 30694 ft | 486 kts | 358° |
| 2026-05-09 07:08 | 52.86720 | -77.71174 | 30695 ft | 486 kts | 358° |
| 2026-05-09 07:08 | 52.93483 | -77.71106 | 30691 ft | 486 kts | 358° |
| 2026-05-09 07:09 | 53.00244 | -77.71037 | 30691 ft | 486 kts | 358° |
| 2026-05-09 07:09 | 53.07009 | -77.70968 | 30700 ft | 486 kts | 358° |
| 2026-05-09 07:10 | 53.13770 | -77.70902 | 30694 ft | 485 kts | 358° |
| 2026-05-09 07:10 | 53.20528 | -77.70831 | 30691 ft | 485 kts | 358° |
| 2026-05-09 07:11 | 53.27284 | -77.70760 | 30687 ft | 485 kts | 358° |
| 2026-05-09 07:11 | 53.34037 | -77.70690 | 30693 ft | 485 kts | 358° |
| 2026-05-09 07:12 | 53.40789 | -77.70624 | 30695 ft | 485 kts | 358° |
| 2026-05-09 07:12 | 53.47578 | -77.70552 | 30669 ft | 485 kts | 358° |
| 2026-05-09 07:13 | 53.54327 | -77.70482 | 30662 ft | 485 kts | 358° |
| 2026-05-09 07:13 | 53.61078 | -77.70412 | 30661 ft | 485 kts | 358° |
| 2026-05-09 07:14 | 53.67813 | -77.70513 | 30664 ft | 483 kts | 356° |
| 2026-05-09 07:14 | 53.74534 | -77.70784 | 30665 ft | 483 kts | 356° |
| 2026-05-09 07:15 | 53.81216 | -77.71044 | 30671 ft | 483 kts | 356° |
| 2026-05-09 07:15 | 53.87945 | -77.71293 | 30686 ft | 483 kts | 357° |
| 2026-05-09 07:16 | 53.94665 | -77.71538 | 30688 ft | 483 kts | 357° |
| 2026-05-09 07:16 | 54.01379 | -77.71779 | 30691 ft | 483 kts | 357° |
| 2026-05-09 07:17 | 54.08098 | -77.72022 | 30687 ft | 483 kts | 357° |
| 2026-05-09 07:17 | 54.14818 | -77.72270 | 30690 ft | 483 kts | 357° |
| 2026-05-09 07:18 | 54.21542 | -77.72517 | 30694 ft | 483 kts | 357° |
| 2026-05-09 07:18 | 54.28257 | -77.72762 | 30685 ft | 483 kts | 357° |
| 2026-05-09 07:19 | 54.34970 | -77.73007 | 30683 ft | 482 kts | 357° |
| 2026-05-09 07:19 | 54.41684 | -77.73256 | 30684 ft | 483 kts | 358° |
| 2026-05-09 07:20 | 54.48399 | -77.73503 | 30675 ft | 483 kts | 358° |
| 2026-05-09 07:20 | 54.55129 | -77.73751 | 30679 ft | 483 kts | 358° |
| 2026-05-09 07:21 | 54.61844 | -77.73999 | 30676 ft | 483 kts | 358° |
| 2026-05-09 07:21 | 54.68566 | -77.74253 | 30667 ft | 483 kts | 358° |
| 2026-05-09 07:22 | 54.75281 | -77.74503 | 30672 ft | 483 kts | 358° |
| 2026-05-09 07:22 | 54.81994 | -77.74754 | 30672 ft | 483 kts | 358° |
| 2026-05-09 07:23 | 54.88706 | -77.75007 | 30664 ft | 483 kts | 358° |
| 2026-05-09 07:23 | 54.95434 | -77.75265 | 30663 ft | 483 kts | 358° |
| 2026-05-09 07:24 | 55.02165 | -77.75519 | 30659 ft | 483 kts | 358° |
| 2026-05-09 07:24 | 55.08842 | -77.75773 | 30658 ft | 483 kts | 358° |
| 2026-05-09 07:25 | 55.15563 | -77.76031 | 30651 ft | 483 kts | 358° |
| 2026-05-09 07:25 | 55.22285 | -77.76487 | 30650 ft | 482 kts | 354° |
| 2026-05-09 07:26 | 55.28913 | -77.78224 | 30659 ft | 482 kts | 347° |
| 2026-05-09 07:26 | 55.35355 | -77.81434 | 30657 ft | 481 kts | 340° |
| 2026-05-09 07:27 | 55.41610 | -77.85650 | 30656 ft | 481 kts | 338° |
| 2026-05-09 07:27 | 55.47839 | -77.89994 | 30664 ft | 481 kts | 338° |
| 2026-05-09 07:28 | 55.54066 | -77.94335 | 30658 ft | 481 kts | 338° |
| 2026-05-09 07:28 | 55.60297 | -77.98678 | 30655 ft | 481 kts | 338° |
| 2026-05-09 07:29 | 55.66522 | -78.03027 | 30660 ft | 481 kts | 338° |
| 2026-05-09 07:29 | 55.72750 | -78.07391 | 30664 ft | 481 kts | 338° |
| 2026-05-09 07:30 | 55.79006 | -78.11793 | 30659 ft | 481 kts | 338° |
| 2026-05-09 07:30 | 55.85228 | -78.16181 | 30663 ft | 481 kts | 338° |
| 2026-05-09 07:31 | 55.91448 | -78.20583 | 30660 ft | 481 kts | 338° |
| 2026-05-09 07:31 | 55.97667 | -78.25001 | 30663 ft | 481 kts | 338° |
| 2026-05-09 07:32 | 56.03874 | -78.29429 | 30660 ft | 481 kts | 338° |
| 2026-05-09 07:32 | 56.10083 | -78.33872 | 30665 ft | 481 kts | 338° |
| 2026-05-09 07:33 | 56.19400 | -78.40563 | 30667 ft | 481 kts | 338° |
| 2026-05-09 07:34 | 56.25612 | -78.45044 | 30663 ft | 480 kts | 338° |
| 2026-05-09 07:34 | 56.31819 | -78.49543 | 30658 ft | 481 kts | 338° |
| 2026-05-09 07:35 | 56.38026 | -78.54055 | 30666 ft | 481 kts | 338° |
| 2026-05-09 07:35 | 56.44241 | -78.58584 | 30662 ft | 481 kts | 338° |
| 2026-05-09 07:36 | 56.50449 | -78.63127 | 30657 ft | 481 kts | 338° |
| 2026-05-09 07:36 | 56.56655 | -78.67685 | 30658 ft | 481 kts | 338° |
| 2026-05-09 07:37 | 56.62864 | -78.72264 | 30651 ft | 481 kts | 338° |
| 2026-05-09 07:37 | 56.69081 | -78.76863 | 30650 ft | 481 kts | 338° |
| 2026-05-09 07:38 | 56.75288 | -78.81470 | 30655 ft | 481 kts | 338° |
| 2026-05-09 07:38 | 56.81487 | -78.86091 | 30658 ft | 481 kts | 338° |
| 2026-05-09 07:39 | 56.87682 | -78.90726 | 30658 ft | 481 kts | 338° |
| 2026-05-09 07:39 | 56.93900 | -78.95243 | 30648 ft | 481 kts | 341° |
| 2026-05-09 07:40 | 57.00347 | -78.98431 | 30649 ft | 480 kts | 350° |
| 2026-05-09 07:40 | 57.06963 | -78.99920 | 30652 ft | 479 kts | 358° |
| 2026-05-09 07:41 | 57.13630 | -79.00081 | 30654 ft | 479 kts | 1° |
| 2026-05-09 07:41 | 57.20322 | -79.00050 | 30652 ft | 478 kts | 1° |
| 2026-05-09 07:42 | 57.26980 | -79.00014 | 30649 ft | 478 kts | 1° |
| 2026-05-09 07:42 | 57.33632 | -79.00023 | 30651 ft | 478 kts | 1° |
| 2026-05-09 07:43 | 57.40282 | -79.00005 | 30650 ft | 478 kts | 1° |
| 2026-05-09 07:43 | 57.46938 | -79.00023 | 30646 ft | 478 kts | 1° |
| 2026-05-09 07:44 | 57.52465 | -79.00005 | 30647 ft | 478 kts | 1° |
| 2026-05-09 07:44 | 57.59117 | -79.00018 | 30647 ft | 478 kts | 1° |
| 2026-05-09 07:45 | 57.65765 | -79.00000 | 30650 ft | 478 kts | 1° |
| 2026-05-09 07:45 | 57.72422 | -79.00009 | 30641 ft | 478 kts | 1° |
| 2026-05-09 07:46 | 57.79070 | -79.00011 | 30647 ft | 478 kts | 1° |
| 2026-05-09 07:46 | 57.85720 | -79.00000 | 30649 ft | 478 kts | 1° |
| 2026-05-09 07:47 | 57.92363 | -79.00008 | 30650 ft | 477 kts | 1° |
| 2026-05-09 07:47 | 57.99004 | -79.00010 | 30651 ft | 477 kts | 1° |
| 2026-05-09 07:48 | 58.05646 | -78.99999 | 30646 ft | 477 kts | 2° |
| 2026-05-09 07:48 | 58.12297 | -79.00003 | 30649 ft | 477 kts | 2° |
| 2026-05-09 07:49 | 58.18934 | -79.00005 | 30651 ft | 477 kts | 2° |
| 2026-05-09 07:49 | 58.25574 | -79.00005 | 30648 ft | 477 kts | 2° |
| 2026-05-09 07:50 | 58.32218 | -79.00004 | 30650 ft | 477 kts | 2° |
| 2026-05-09 07:50 | 58.38855 | -79.00003 | 30653 ft | 477 kts | 2° |
| 2026-05-09 07:51 | 58.45494 | -79.00002 | 30648 ft | 477 kts | 2° |
| 2026-05-09 07:51 | 58.52134 | -78.99999 | 30647 ft | 477 kts | 2° |
| 2026-05-09 07:52 | 58.58735 | -79.00004 | 30637 ft | 477 kts | 2° |
| 2026-05-09 07:52 | 58.65418 | -79.00001 | 30648 ft | 477 kts | 2° |
| 2026-05-09 07:53 | 58.72057 | -78.99998 | 30652 ft | 477 kts | 2° |
| 2026-05-09 07:53 | 58.78701 | -79.00000 | 30653 ft | 477 kts | 2° |
| 2026-05-09 07:54 | 58.85334 | -78.99999 | 30634 ft | 477 kts | 2° |
| 2026-05-09 07:54 | 58.91963 | -78.99997 | 30649 ft | 476 kts | 3° |
| 2026-05-09 07:55 | 58.98594 | -78.99995 | 30652 ft | 476 kts | 3° |
| 2026-05-09 07:55 | 59.05217 | -78.99994 | 30650 ft | 476 kts | 3° |
| 2026-05-09 07:56 | 59.11845 | -78.99999 | 30653 ft | 476 kts | 3° |
| 2026-05-09 07:56 | 59.18464 | -78.99971 | 30646 ft | 475 kts | 3° |
| 2026-05-09 07:57 | 59.25071 | -78.99976 | 30653 ft | 474 kts | 3° |
| 2026-05-09 07:57 | 59.31632 | -78.99982 | 30656 ft | 475 kts | 3° |
| 2026-05-09 07:58 | 59.38237 | -78.99988 | 30653 ft | 475 kts | 3° |
| 2026-05-09 07:58 | 59.44841 | -78.99991 | 30646 ft | 474 kts | 3° |
| 2026-05-09 07:59 | 59.51429 | -78.99995 | 30659 ft | 473 kts | 3° |
| 2026-05-09 07:59 | 59.58059 | -78.99998 | 30651 ft | 473 kts | 3° |
| 2026-05-09 08:00 | 59.64637 | -78.99986 | 30663 ft | 473 kts | 3° |
| 2026-05-09 08:00 | 59.71226 | -78.99983 | 30643 ft | 473 kts | 3° |
| 2026-05-09 08:01 | 59.77797 | -78.99979 | 30648 ft | 471 kts | 2° |
| 2026-05-09 08:01 | 59.84356 | -78.99980 | 30646 ft | 471 kts | 2° |
| 2026-05-09 08:02 | 59.90922 | -78.99981 | 30650 ft | 471 kts | 2° |
| 2026-05-09 08:02 | 59.97476 | -78.99982 | 30651 ft | 471 kts | 2° |
| 2026-05-09 08:03 | 60.04023 | -78.99979 | 30645 ft | 470 kts | 2° |
| 2026-05-09 08:03 | 60.10586 | -78.99978 | 30654 ft | 470 kts | 2° |
| 2026-05-09 08:04 | 60.17125 | -78.99977 | 30655 ft | 470 kts | 2° |
| 2026-05-09 08:04 | 60.23672 | -78.99977 | 30652 ft | 470 kts | 2° |
| 2026-05-09 08:05 | 60.30215 | -78.99977 | 30633 ft | 470 kts | 2° |
| 2026-05-09 08:05 | 60.36757 | -78.99976 | 30648 ft | 470 kts | 2° |
| 2026-05-09 08:06 | 60.43299 | -78.99975 | 30652 ft | 470 kts | 2° |
| 2026-05-09 08:06 | 60.49840 | -78.99973 | 30653 ft | 470 kts | 2° |
| 2026-05-09 08:07 | 60.56381 | -78.99971 | 30653 ft | 470 kts | 2° |
| 2026-05-09 08:07 | 60.62922 | -78.99977 | 30646 ft | 470 kts | 3° |
| 2026-05-09 08:08 | 60.69467 | -78.99976 | 30654 ft | 470 kts | 3° |
| 2026-05-09 08:08 | 60.76004 | -78.99975 | 30655 ft | 470 kts | 3° |
| 2026-05-09 08:09 | 60.82563 | -78.99975 | 30657 ft | 470 kts | 3° |
| 2026-05-09 08:09 | 60.89099 | -78.99979 | 30635 ft | 470 kts | 3° |
| 2026-05-09 08:10 | 60.95664 | -78.99993 | 30653 ft | 469 kts | 3° |
| 2026-05-09 08:10 | 61.02184 | -78.99994 | 30655 ft | 468 kts | 3° |
| 2026-05-09 08:11 | 61.08698 | -78.99995 | 30653 ft | 468 kts | 4° |
| 2026-05-09 08:11 | 61.15220 | -78.99967 | 30661 ft | 468 kts | 3° |
| 2026-05-09 08:12 | 61.25012 | -78.99974 | 30649 ft | 468 kts | 3° |
| 2026-05-09 08:12 | 61.31522 | -78.99978 | 30661 ft | 468 kts | 3° |
| 2026-05-09 08:13 | 61.38047 | -78.99982 | 30652 ft | 468 kts | 3° |
| 2026-05-09 08:13 | 61.44561 | -78.99985 | 30667 ft | 468 kts | 3° |
| 2026-05-09 08:14 | 61.51076 | -78.99988 | 30654 ft | 467 kts | 3° |
| 2026-05-09 08:14 | 61.57522 | -78.99991 | 30658 ft | 466 kts | 3° |
| 2026-05-09 08:15 | 61.64054 | -78.99993 | 30652 ft | 466 kts | 3° |
| 2026-05-09 08:15 | 61.70546 | -78.99993 | 30654 ft | 466 kts | 3° |
| 2026-05-09 08:16 | 61.77033 | -78.99993 | 30650 ft | 466 kts | 3° |
| 2026-05-09 08:16 | 61.83514 | -78.99996 | 30645 ft | 466 kts | 3° |
| 2026-05-09 08:17 | 61.89996 | -78.99996 | 30648 ft | 466 kts | 3° |
| 2026-05-09 08:17 | 61.96482 | -78.99995 | 30650 ft | 466 kts | 3° |
| 2026-05-09 08:18 | 62.02964 | -78.99993 | 30650 ft | 466 kts | 3° |
| 2026-05-09 08:18 | 62.09444 | -78.99992 | 30626 ft | 465 kts | 3° |
| 2026-05-09 08:19 | 62.15920 | -78.99992 | 30644 ft | 465 kts | 3° |
| 2026-05-09 08:19 | 62.22391 | -78.99990 | 30643 ft | 465 kts | 3° |
| 2026-05-09 08:20 | 62.28855 | -78.99987 | 30645 ft | 465 kts | 3° |
| 2026-05-09 08:20 | 62.34229 | -78.99985 | 30637 ft | 465 kts | 3° |
| 2026-05-09 08:21 | 62.40701 | -78.99987 | 30620 ft | 465 kts | 3° |
| 2026-05-09 08:21 | 62.47175 | -78.99980 | 30630 ft | 464 kts | 3° |
| 2026-05-09 08:22 | 62.53638 | -78.99978 | 30633 ft | 464 kts | 3° |
| 2026-05-09 08:22 | 62.60095 | -78.99976 | 30631 ft | 464 kts | 3° |
| 2026-05-09 08:23 | 62.66553 | -78.99974 | 30631 ft | 464 kts | 3° |
| 2026-05-09 08:23 | 62.73019 | -78.99972 | 30619 ft | 464 kts | 3° |
| 2026-05-09 08:24 | 62.79485 | -78.99973 | 30625 ft | 464 kts | 3° |
| 2026-05-09 08:24 | 62.85940 | -78.99976 | 30622 ft | 464 kts | 3° |
| 2026-05-09 08:25 | 62.92403 | -78.99981 | 30623 ft | 464 kts | 3° |
| 2026-05-09 08:25 | 62.98867 | -78.99987 | 30621 ft | 464 kts | 3° |
| 2026-05-09 08:26 | 63.05324 | -78.99989 | 30611 ft | 464 kts | 3° |
| 2026-05-09 08:26 | 63.11785 | -78.99993 | 30613 ft | 464 kts | 3° |
| 2026-05-09 08:27 | 63.18249 | -78.99997 | 30615 ft | 465 kts | 3° |
| 2026-05-09 08:27 | 63.24755 | -78.99977 | 30616 ft | 464 kts | 3° |
| 2026-05-09 08:28 | 63.31218 | -78.99975 | 30627 ft | 464 kts | 3° |
| 2026-05-09 08:28 | 63.37680 | -78.99977 | 30616 ft | 464 kts | 3° |
| 2026-05-09 08:29 | 63.44188 | -78.99980 | 30620 ft | 464 kts | 3° |
| 2026-05-09 08:29 | 63.50647 | -78.99982 | 30624 ft | 464 kts | 3° |
| 2026-05-09 08:30 | 63.57113 | -78.99984 | 30613 ft | 464 kts | 3° |
| 2026-05-09 08:30 | 63.63578 | -78.99986 | 30600 ft | 464 kts | 3° |
| 2026-05-09 08:31 | 63.70039 | -78.99989 | 30618 ft | 464 kts | 3° |
| 2026-05-09 08:31 | 63.76499 | -78.99988 | 30622 ft | 464 kts | 3° |
| 2026-05-09 08:32 | 63.82966 | -78.99985 | 30617 ft | 464 kts | 3° |
| 2026-05-09 08:33 | 63.92658 | -78.99980 | 30619 ft | 464 kts | 3° |
| 2026-05-09 08:33 | 63.99110 | -78.99983 | 30616 ft | 463 kts | 3° |
| 2026-05-09 08:34 | 64.05543 | -78.99978 | 30622 ft | 463 kts | 3° |
| 2026-05-09 08:34 | 64.11982 | -78.99973 | 30620 ft | 463 kts | 3° |
| 2026-05-09 08:35 | 64.18424 | -78.99969 | 30620 ft | 463 kts | 3° |
| 2026-05-09 08:35 | 64.24823 | -78.99966 | 30617 ft | 463 kts | 3° |
| 2026-05-09 08:36 | 64.31259 | -78.99964 | 30620 ft | 463 kts | 3° |
| 2026-05-09 08:36 | 64.37710 | -78.99963 | 30611 ft | 463 kts | 3° |
| 2026-05-09 08:37 | 64.44174 | -78.99963 | 30614 ft | 463 kts | 3° |
| 2026-05-09 08:37 | 64.50611 | -78.99963 | 30614 ft | 463 kts | 3° |
| 2026-05-09 08:38 | 64.57046 | -78.99964 | 30595 ft | 463 kts | 3° |
| 2026-05-09 08:38 | 64.63479 | -78.99965 | 30615 ft | 462 kts | 3° |
| 2026-05-09 08:39 | 64.69907 | -78.99966 | 30619 ft | 462 kts | 3° |
| 2026-05-09 08:39 | 64.76337 | -78.99969 | 30617 ft | 462 kts | 3° |
| 2026-05-09 08:40 | 64.82763 | -78.99971 | 30614 ft | 462 kts | 3° |
| 2026-05-09 08:40 | 64.89196 | -78.99976 | 30595 ft | 462 kts | 3° |
| 2026-05-09 08:41 | 64.95618 | -78.99981 | 30604 ft | 461 kts | 3° |
| 2026-05-09 08:41 | 65.02023 | -78.99987 | 30607 ft | 461 kts | 3° |
| 2026-05-09 08:42 | 65.08438 | -78.99984 | 30608 ft | 461 kts | 3° |
| 2026-05-09 08:42 | 65.14856 | -78.99980 | 30609 ft | 461 kts | 3° |
| 2026-05-09 08:43 | 65.21255 | -79.00002 | 30581 ft | 461 kts | 3° |
| 2026-05-09 08:43 | 65.27661 | -78.99979 | 30611 ft | 460 kts | 3° |
| 2026-05-09 08:44 | 65.34109 | -79.00007 | 30613 ft | 460 kts | 3° |
| 2026-05-09 08:44 | 65.40512 | -78.99981 | 30615 ft | 460 kts | 3° |
| 2026-05-09 08:45 | 65.46942 | -79.00000 | 30616 ft | 460 kts | 3° |
| 2026-05-09 08:45 | 65.53305 | -78.99994 | 30606 ft | 460 kts | 2° |
| 2026-05-09 08:46 | 65.59707 | -78.99995 | 30598 ft | 461 kts | 3° |
| 2026-05-09 08:46 | 65.66124 | -78.99992 | 30606 ft | 461 kts | 2° |
| 2026-05-09 08:47 | 65.72568 | -79.00000 | 30612 ft | 461 kts | 3° |
| 2026-05-09 08:47 | 65.78986 | -78.99980 | 30614 ft | 461 kts | 3° |
| 2026-05-09 08:48 | 65.85418 | -78.99998 | 30614 ft | 461 kts | 3° |
| 2026-05-09 08:48 | 65.91832 | -78.99979 | 30617 ft | 461 kts | 3° |
| 2026-05-09 08:49 | 65.98241 | -78.99989 | 30625 ft | 461 kts | 3° |
| 2026-05-09 08:49 | 66.04650 | -78.99991 | 30629 ft | 461 kts | 3° |
| 2026-05-09 08:50 | 66.11061 | -78.99991 | 30626 ft | 460 kts | 3° |
| 2026-05-09 08:50 | 66.17466 | -78.99979 | 30628 ft | 460 kts | 2° |
| 2026-05-09 08:51 | 66.23872 | -78.99979 | 30622 ft | 460 kts | 3° |
| 2026-05-09 08:51 | 66.30252 | -78.99979 | 30632 ft | 460 kts | 3° |
| 2026-05-09 08:52 | 66.36700 | -78.99978 | 30631 ft | 460 kts | 3° |
| 2026-05-09 08:52 | 66.43075 | -78.99978 | 30633 ft | 460 kts | 2° |
| 2026-05-09 08:53 | 66.49468 | -78.99982 | 30633 ft | 460 kts | 3° |
| 2026-05-09 08:53 | 66.55867 | -78.99982 | 30631 ft | 459 kts | 3° |
| 2026-05-09 08:54 | 66.62257 | -78.99978 | 30649 ft | 459 kts | 3° |
| 2026-05-09 08:54 | 66.68647 | -78.99981 | 30657 ft | 459 kts | 3° |
| 2026-05-09 08:55 | 66.75037 | -78.99978 | 30660 ft | 459 kts | 3° |
| 2026-05-09 08:55 | 66.81423 | -78.99978 | 30664 ft | 459 kts | 3° |
| 2026-05-09 08:56 | 66.87815 | -78.99976 | 30657 ft | 459 kts | 3° |
| 2026-05-09 08:56 | 66.94205 | -79.00169 | 30666 ft | 460 kts | 359° |
| 2026-05-09 08:57 | 67.00571 | -79.02140 | 30666 ft | 463 kts | 352° |
| 2026-05-09 08:57 | 67.06828 | -79.06235 | 30676 ft | 466 kts | 345° |
| 2026-05-09 08:58 | 67.12955 | -79.11743 | 30686 ft | 468 kts | 343° |
| 2026-05-09 08:58 | 67.19083 | -79.17459 | 30672 ft | 469 kts | 343° |
| 2026-05-09 08:59 | 67.25226 | -79.23196 | 30692 ft | 470 kts | 343° |
| 2026-05-09 08:59 | 67.30377 | -79.28021 | 30696 ft | 470 kts | 343° |
| 2026-05-09 09:00 | 67.36525 | -79.33799 | 30716 ft | 470 kts | 343° |
| 2026-05-09 09:00 | 67.42676 | -79.39608 | 30717 ft | 470 kts | 343° |
| 2026-05-09 09:01 | 67.48818 | -79.45442 | 30723 ft | 470 kts | 343° |
| 2026-05-09 09:01 | 67.54959 | -79.51307 | 30723 ft | 470 kts | 343° |
| 2026-05-09 09:02 | 67.61095 | -79.57200 | 30741 ft | 470 kts | 343° |
| 2026-05-09 09:02 | 67.67233 | -79.63126 | 30741 ft | 469 kts | 343° |
| 2026-05-09 09:03 | 67.73361 | -79.69078 | 30742 ft | 469 kts | 343° |
| 2026-05-09 09:03 | 67.79491 | -79.75064 | 30743 ft | 469 kts | 342° |
| 2026-05-09 09:04 | 67.85618 | -79.81078 | 30754 ft | 469 kts | 342° |
| 2026-05-09 09:04 | 67.91743 | -79.87123 | 30749 ft | 470 kts | 342° |
| 2026-05-09 09:05 | 67.97879 | -79.93217 | 30758 ft | 470 kts | 342° |
| 2026-05-09 09:05 | 68.04005 | -79.99336 | 30763 ft | 470 kts | 342° |
| 2026-05-09 09:06 | 68.10131 | -80.05488 | 30762 ft | 470 kts | 342° |
| 2026-05-09 09:06 | 68.16256 | -80.11674 | 30763 ft | 470 kts | 342° |
| 2026-05-09 09:07 | 68.22377 | -80.17892 | 30768 ft | 470 kts | 342° |
| 2026-05-09 09:07 | 68.28501 | -80.24142 | 30756 ft | 471 kts | 342° |
| 2026-05-09 09:08 | 68.34630 | -80.30442 | 30770 ft | 471 kts | 342° |
| 2026-05-09 09:08 | 68.40771 | -80.36781 | 30780 ft | 473 kts | 341° |
| 2026-05-09 09:09 | 68.46884 | -80.43142 | 30781 ft | 473 kts | 341° |
| 2026-05-09 09:09 | 68.53035 | -80.49578 | 30782 ft | 473 kts | 341° |
| 2026-05-09 09:10 | 68.59178 | -80.56040 | 30781 ft | 473 kts | 341° |
| 2026-05-09 09:10 | 68.65323 | -80.62530 | 30795 ft | 473 kts | 341° |
| 2026-05-09 09:11 | 68.71463 | -80.69072 | 30809 ft | 473 kts | 341° |
| 2026-05-09 09:11 | 68.77619 | -80.75667 | 30813 ft | 473 kts | 340° |
| 2026-05-09 09:12 | 68.83762 | -80.82286 | 30810 ft | 473 kts | 340° |
| 2026-05-09 09:12 | 68.89895 | -80.88933 | 30814 ft | 473 kts | 340° |
| 2026-05-09 09:13 | 68.96024 | -80.95619 | 30782 ft | 473 kts | 340° |
| 2026-05-09 09:13 | 69.02186 | -81.01985 | 30799 ft | 474 kts | 343° |
| 2026-05-09 09:14 | 69.08500 | -81.07738 | 30809 ft | 477 kts | 343° |
| 2026-05-09 09:14 | 69.14817 | -81.13463 | 30801 ft | 477 kts | 343° |
| 2026-05-09 09:15 | 69.21128 | -81.19246 | 30835 ft | 477 kts | 343° |
| 2026-05-09 09:15 | 69.27435 | -81.25081 | 30823 ft | 477 kts | 343° |
| 2026-05-09 09:16 | 69.33785 | -81.30986 | 30824 ft | 477 kts | 342° |
| 2026-05-09 09:16 | 69.43199 | -81.39813 | 30826 ft | 478 kts | 342° |
| 2026-05-09 09:17 | 69.49547 | -81.45811 | 30837 ft | 477 kts | 342° |
| 2026-05-09 09:17 | 69.55847 | -81.51803 | 30840 ft | 477 kts | 342° |
| 2026-05-09 09:18 | 69.62144 | -81.57829 | 30840 ft | 477 kts | 342° |
| 2026-05-09 09:18 | 69.68438 | -81.63895 | 30833 ft | 476 kts | 342° |
| 2026-05-09 09:19 | 69.74713 | -81.69979 | 30856 ft | 476 kts | 343° |
| 2026-05-09 09:19 | 69.80981 | -81.76093 | 30853 ft | 475 kts | 343° |
| 2026-05-09 09:20 | 69.87239 | -81.82224 | 30851 ft | 474 kts | 343° |
| 2026-05-09 09:20 | 69.93496 | -81.88397 | 30853 ft | 474 kts | 342° |
| 2026-05-09 09:21 | 69.99703 | -81.94564 | 30853 ft | 475 kts | 342° |
| 2026-05-09 09:21 | 70.05936 | -82.00819 | 30862 ft | 473 kts | 343° |
| 2026-05-09 09:22 | 70.12156 | -82.07073 | 30869 ft | 472 kts | 343° |
| 2026-05-09 09:22 | 70.18380 | -82.13368 | 30878 ft | 472 kts | 343° |
| 2026-05-09 09:23 | 70.24606 | -82.19711 | 30875 ft | 472 kts | 343° |
| 2026-05-09 09:23 | 70.30824 | -82.26089 | 30880 ft | 472 kts | 343° |
| 2026-05-09 09:24 | 70.37030 | -82.32497 | 30893 ft | 472 kts | 343° |
| 2026-05-09 09:24 | 70.43240 | -82.38954 | 30889 ft | 473 kts | 343° |
| 2026-05-09 09:25 | 70.49448 | -82.45443 | 30895 ft | 473 kts | 343° |
| 2026-05-09 09:25 | 70.55656 | -82.51976 | 30891 ft | 473 kts | 343° |
| 2026-05-09 09:26 | 70.61857 | -82.58548 | 30895 ft | 473 kts | 343° |
| 2026-05-09 09:26 | 70.68056 | -82.65161 | 30901 ft | 473 kts | 342° |
| 2026-05-09 09:27 | 70.74253 | -82.71815 | 30888 ft | 473 kts | 342° |
| 2026-05-09 09:27 | 70.80452 | -82.78520 | 30900 ft | 472 kts | 342° |
| 2026-05-09 09:28 | 70.86641 | -82.85259 | 30903 ft | 472 kts | 342° |
| 2026-05-09 09:28 | 70.92831 | -82.92048 | 30914 ft | 472 kts | 342° |
| 2026-05-09 09:29 | 70.99017 | -82.98850 | 30912 ft | 472 kts | 343° |
| 2026-05-09 09:29 | 71.05323 | -83.04818 | 30912 ft | 471 kts | 346° |
| 2026-05-09 09:30 | 71.11628 | -83.10450 | 30911 ft | 471 kts | 346° |
| 2026-05-09 09:30 | 71.17925 | -83.16128 | 30914 ft | 471 kts | 346° |
| 2026-05-09 09:31 | 71.24220 | -83.21865 | 30912 ft | 471 kts | 346° |
| 2026-05-09 09:32 | 71.33620 | -83.30532 | 30915 ft | 472 kts | 346° |
| 2026-05-09 09:32 | 71.39957 | -83.36410 | 30916 ft | 472 kts | 346° |
| 2026-05-09 09:33 | 71.46248 | -83.42312 | 30898 ft | 472 kts | 347° |
| 2026-05-09 09:33 | 71.52533 | -83.48243 | 30915 ft | 471 kts | 347° |
| 2026-05-09 09:34 | 71.58814 | -83.54184 | 30916 ft | 471 kts | 347° |
| 2026-05-09 09:34 | 71.65100 | -83.60181 | 30922 ft | 471 kts | 347° |
| 2026-05-09 09:36 | 71.89150 | -83.83541 | 30923 ft | 471 kts | 347° |
| 2026-05-09 09:37 | 71.95418 | -83.89724 | 30926 ft | 471 kts | 347° |
| 2026-05-09 09:37 | 72.01684 | -83.95947 | 30928 ft | 471 kts | 347° |
| 2026-05-09 09:38 | 72.07942 | -84.02208 | 30934 ft | 471 kts | 347° |
| 2026-05-09 09:38 | 72.14203 | -84.08517 | 30928 ft | 471 kts | 347° |
| 2026-05-09 09:39 | 72.20464 | -84.14867 | 30928 ft | 471 kts | 347° |
| 2026-05-09 09:39 | 72.26720 | -84.21260 | 30933 ft | 471 kts | 347° |
| 2026-05-09 09:40 | 72.32973 | -84.27698 | 30938 ft | 471 kts | 347° |
| 2026-05-09 09:40 | 72.39225 | -84.34180 | 30945 ft | 471 kts | 346° |
| 2026-05-09 09:41 | 72.45475 | -84.40707 | 30954 ft | 471 kts | 346° |
| 2026-05-09 09:41 | 72.51719 | -84.47275 | 30945 ft | 471 kts | 346° |
| 2026-05-09 09:42 | 72.57966 | -84.53882 | 30943 ft | 471 kts | 346° |
| 2026-05-09 09:42 | 72.64205 | -84.60598 | 30958 ft | 471 kts | 345° |
| 2026-05-09 09:43 | 72.70442 | -84.67383 | 30954 ft | 471 kts | 345° |
| 2026-05-09 09:43 | 72.76697 | -84.74205 | 30967 ft | 471 kts | 345° |
| 2026-05-09 09:44 | 72.82934 | -84.81034 | 30973 ft | 471 kts | 345° |
| 2026-05-09 09:44 | 72.89168 | -84.87906 | 30958 ft | 471 kts | 345° |
| 2026-05-09 09:45 | 72.95478 | -84.94898 | 30975 ft | 472 kts | 344° |
| 2026-05-09 09:45 | 73.01745 | -85.01527 | 30971 ft | 472 kts | 347° |
| 2026-05-09 09:46 | 73.08103 | -85.07210 | 30984 ft | 472 kts | 348° |
| 2026-05-09 09:46 | 73.14436 | -85.12813 | 30984 ft | 472 kts | 348° |
| 2026-05-09 09:47 | 73.20805 | -85.18519 | 30985 ft | 473 kts | 348° |
| 2026-05-09 09:47 | 73.27168 | -85.24261 | 30980 ft | 473 kts | 347° |
| 2026-05-09 09:48 | 73.33539 | -85.30075 | 30994 ft | 474 kts | 346° |
| 2026-05-09 09:48 | 73.39912 | -85.35957 | 30996 ft | 474 kts | 346° |
| 2026-05-09 09:49 | 73.46327 | -85.41918 | 31001 ft | 474 kts | 346° |
| 2026-05-09 09:49 | 73.52664 | -85.47847 | 30999 ft | 474 kts | 346° |
| 2026-05-09 09:50 | 73.59036 | -85.53853 | 30998 ft | 474 kts | 346° |
| 2026-05-09 09:50 | 73.65403 | -85.59872 | 31004 ft | 474 kts | 345° |
| 2026-05-09 09:51 | 73.71772 | -85.65981 | 31005 ft | 474 kts | 345° |
| 2026-05-09 09:51 | 73.78143 | -85.72141 | 31005 ft | 474 kts | 345° |
| 2026-05-09 09:52 | 73.84511 | -85.78338 | 31003 ft | 474 kts | 345° |
| 2026-05-09 09:52 | 73.90876 | -85.84579 | 31010 ft | 474 kts | 345° |
| 2026-05-09 09:53 | 73.97238 | -85.90864 | 31016 ft | 474 kts | 345° |
| 2026-05-09 09:53 | 74.03615 | -85.97198 | 31011 ft | 475 kts | 344° |
| 2026-05-09 09:54 | 74.10015 | -86.03647 | 31020 ft | 477 kts | 343° |
| 2026-05-09 09:54 | 74.16415 | -86.10148 | 31021 ft | 478 kts | 343° |
| 2026-05-09 09:55 | 74.22820 | -86.16697 | 31017 ft | 478 kts | 343° |
| 2026-05-09 09:55 | 74.29221 | -86.23291 | 31017 ft | 478 kts | 343° |
| 2026-05-09 09:56 | 74.35622 | -86.29912 | 31030 ft | 477 kts | 342° |
| 2026-05-09 09:56 | 74.42013 | -86.36603 | 31031 ft | 477 kts | 342° |
| 2026-05-09 09:57 | 74.48429 | -86.43392 | 31029 ft | 477 kts | 342° |
| 2026-05-09 09:57 | 74.54824 | -86.50205 | 31030 ft | 477 kts | 342° |
| 2026-05-09 09:58 | 74.61210 | -86.57061 | 31027 ft | 477 kts | 342° |
| 2026-05-09 09:58 | 74.67597 | -86.63974 | 31034 ft | 477 kts | 342° |
| 2026-05-09 09:59 | 74.73982 | -86.70944 | 31039 ft | 477 kts | 342° |
| 2026-05-09 09:59 | 74.80363 | -86.77970 | 31044 ft | 477 kts | 342° |
| 2026-05-09 10:00 | 74.86750 | -86.85064 | 31043 ft | 477 kts | 342° |
| 2026-05-09 10:00 | 74.93123 | -86.92207 | 31042 ft | 477 kts | 342° |
| 2026-05-09 10:01 | 74.99504 | -86.99343 | 31044 ft | 478 kts | 343° |
| 2026-05-09 10:01 | 75.05974 | -87.05281 | 31053 ft | 478 kts | 345° |
| 2026-05-09 10:02 | 75.12472 | -87.10902 | 31050 ft | 479 kts | 345° |
| 2026-05-09 10:02 | 75.18994 | -87.16618 | 31046 ft | 482 kts | 344° |
| 2026-05-09 10:03 | 75.25553 | -87.22469 | 31045 ft | 483 kts | 344° |
| 2026-05-09 10:03 | 75.32103 | -87.28370 | 31047 ft | 483 kts | 344° |
| 2026-05-09 10:04 | 75.38650 | -87.34319 | 31050 ft | 483 kts | 344° |
| 2026-05-09 10:04 | 75.45197 | -87.40296 | 31056 ft | 483 kts | 343° |
| 2026-05-09 10:05 | 75.51755 | -87.46368 | 31049 ft | 484 kts | 343° |
| 2026-05-09 10:05 | 75.58320 | -87.52504 | 31051 ft | 484 kts | 343° |
| 2026-05-09 10:06 | 75.64875 | -87.58683 | 31054 ft | 484 kts | 343° |
| 2026-05-09 10:06 | 75.71469 | -87.64952 | 31053 ft | 484 kts | 343° |
| 2026-05-09 10:07 | 75.78027 | -87.71242 | 31084 ft | 484 kts | 342° |
| 2026-05-09 10:07 | 75.84584 | -87.77563 | 31061 ft | 485 kts | 342° |
| 2026-05-09 10:08 | 75.91144 | -87.83992 | 31053 ft | 485 kts | 342° |
| 2026-05-09 10:08 | 75.97706 | -87.90475 | 31053 ft | 485 kts | 342° |
| 2026-05-09 10:09 | 76.04260 | -87.97008 | 31053 ft | 485 kts | 342° |
| 2026-05-09 10:09 | 76.10812 | -88.03596 | 31053 ft | 485 kts | 342° |
| 2026-05-09 10:10 | 76.17373 | -88.10232 | 31067 ft | 485 kts | 341° |
| 2026-05-09 10:10 | 76.23937 | -88.16966 | 31058 ft | 486 kts | 341° |
| 2026-05-09 10:11 | 76.30501 | -88.23770 | 31056 ft | 486 kts | 341° |
| 2026-05-09 10:11 | 76.37061 | -88.30629 | 31053 ft | 486 kts | 341° |
| 2026-05-09 10:12 | 76.42512 | -88.36378 | 31051 ft | 486 kts | 341° |
| 2026-05-09 10:12 | 76.49068 | -88.43351 | 31051 ft | 486 kts | 341° |
| 2026-05-09 10:13 | 76.55629 | -88.50373 | 31057 ft | 486 kts | 340° |
| 2026-05-09 10:13 | 76.62182 | -88.57497 | 31047 ft | 486 kts | 340° |
| 2026-05-09 10:14 | 76.68732 | -88.64685 | 31041 ft | 486 kts | 340° |
| 2026-05-09 10:14 | 76.75292 | -88.71951 | 31045 ft | 486 kts | 340° |
| 2026-05-09 10:15 | 76.81838 | -88.79269 | 31037 ft | 486 kts | 340° |
| 2026-05-09 10:15 | 76.88388 | -88.86655 | 31069 ft | 486 kts | 339° |
| 2026-05-09 10:16 | 76.94938 | -88.94137 | 31045 ft | 486 kts | 339° |
| 2026-05-09 10:16 | 77.01416 | -89.02444 | 31040 ft | 483 kts | 334° |
| 2026-05-09 10:17 | 77.07726 | -89.12808 | 31041 ft | 481 kts | 332° |
| 2026-05-09 10:17 | 77.13975 | -89.23540 | 31040 ft | 481 kts | 332° |
| 2026-05-09 10:18 | 77.20269 | -89.34425 | 31038 ft | 481 kts | 332° |
| 2026-05-09 10:18 | 77.26472 | -89.45211 | 31054 ft | 481 kts | 332° |
| 2026-05-09 10:19 | 77.32713 | -89.56183 | 31049 ft | 481 kts | 332° |
| 2026-05-09 10:19 | 77.38952 | -89.67267 | 31045 ft | 481 kts | 331° |
| 2026-05-09 10:20 | 77.45185 | -89.78452 | 31038 ft | 481 kts | 331° |
| 2026-05-09 10:20 | 77.51406 | -89.89729 | 31042 ft | 481 kts | 331° |
| 2026-05-09 10:21 | 77.57633 | -90.01130 | 31062 ft | 484 kts | 331° |
| 2026-05-09 10:21 | 77.63916 | -90.12758 | 31052 ft | 487 kts | 330° |
| 2026-05-09 10:22 | 77.70208 | -90.24542 | 31045 ft | 487 kts | 330° |
| 2026-05-09 10:22 | 77.76495 | -90.36444 | 31042 ft | 487 kts | 330° |
| 2026-05-09 10:23 | 77.82779 | -90.48472 | 31042 ft | 487 kts | 330° |
| 2026-05-09 10:23 | 77.89055 | -90.60614 | 31044 ft | 487 kts | 330° |
| 2026-05-09 10:24 | 77.95318 | -90.72867 | 31044 ft | 486 kts | 330° |
| 2026-05-09 10:24 | 78.01575 | -90.85244 | 31052 ft | 486 kts | 329° |
| 2026-05-09 10:25 | 78.07828 | -90.97750 | 31044 ft | 486 kts | 329° |
| 2026-05-09 10:25 | 78.14090 | -91.10415 | 31043 ft | 486 kts | 329° |
| 2026-05-09 10:26 | 78.20328 | -91.23175 | 31041 ft | 486 kts | 329° |
| 2026-05-09 10:26 | 78.26562 | -91.36073 | 31048 ft | 486 kts | 329° |
| 2026-05-09 10:27 | 78.32790 | -91.49107 | 31041 ft | 486 kts | 329° |
| 2026-05-09 10:27 | 78.39010 | -91.62273 | 31041 ft | 486 kts | 329° |
| 2026-05-09 10:28 | 78.45218 | -91.75567 | 31041 ft | 486 kts | 329° |
| 2026-05-09 10:28 | 78.51461 | -91.89093 | 31088 ft | 486 kts | 329° |
| 2026-05-09 10:29 | 78.57688 | -92.02763 | 31048 ft | 490 kts | 329° |
| 2026-05-09 10:29 | 78.63939 | -92.16599 | 31039 ft | 490 kts | 329° |
| 2026-05-09 10:30 | 78.70173 | -92.30599 | 31054 ft | 490 kts | 329° |
| 2026-05-09 10:30 | 78.76369 | -92.44660 | 31042 ft | 490 kts | 329° |
| 2026-05-09 10:31 | 78.82634 | -92.59057 | 31039 ft | 490 kts | 329° |
| 2026-05-09 10:31 | 78.88849 | -92.73527 | 31040 ft | 490 kts | 328° |
| 2026-05-09 10:32 | 78.95054 | -92.88159 | 31033 ft | 490 kts | 328° |
| 2026-05-09 10:32 | 79.01247 | -93.02942 | 31037 ft | 489 kts | 328° |
| 2026-05-09 10:33 | 79.07437 | -93.17914 | 31054 ft | 488 kts | 329° |
| 2026-05-09 10:33 | 79.13555 | -93.32826 | 31048 ft | 487 kts | 329° |
| 2026-05-09 10:34 | 79.19713 | -93.48031 | 31044 ft | 487 kts | 329° |
| 2026-05-09 10:34 | 79.28914 | -93.71171 | 31043 ft | 487 kts | 329° |
| 2026-05-09 10:35 | 79.35036 | -93.86824 | 31041 ft | 487 kts | 328° |
| 2026-05-09 10:35 | 79.41143 | -94.02650 | 31062 ft | 486 kts | 329° |
| 2026-05-09 10:36 | 79.47236 | -94.18711 | 31058 ft | 486 kts | 330° |
| 2026-05-09 10:36 | 79.53332 | -94.34901 | 31046 ft | 486 kts | 330° |
| 2026-05-09 10:37 | 79.59431 | -94.51295 | 31036 ft | 486 kts | 329° |
| 2026-05-09 10:37 | 79.65507 | -94.67854 | 31034 ft | 486 kts | 329° |
| 2026-05-09 10:38 | 79.71578 | -94.84621 | 31034 ft | 486 kts | 329° |
| 2026-05-09 10:38 | 79.77633 | -95.01581 | 31056 ft | 486 kts | 329° |
| 2026-05-09 10:39 | 79.83682 | -95.18748 | 31045 ft | 485 kts | 329° |
| 2026-05-09 10:39 | 79.89698 | -95.36018 | 31038 ft | 484 kts | 329° |
| 2026-05-09 10:40 | 79.95706 | -95.53505 | 31037 ft | 484 kts | 329° |
| 2026-05-09 10:40 | 80.01699 | -95.71193 | 31040 ft | 484 kts | 329° |
| 2026-05-09 10:41 | 80.07685 | -95.89131 | 31039 ft | 484 kts | 329° |
| 2026-05-09 10:41 | 80.13656 | -96.07270 | 31045 ft | 483 kts | 329° |
| 2026-05-09 10:42 | 80.19601 | -96.25551 | 31044 ft | 483 kts | 329° |
| 2026-05-09 10:42 | 80.25541 | -96.44049 | 31042 ft | 483 kts | 328° |
| 2026-05-09 10:43 | 80.31465 | -96.62758 | 31044 ft | 482 kts | 328° |
| 2026-05-09 10:43 | 80.37378 | -96.81718 | 31060 ft | 482 kts | 329° |
| 2026-05-09 10:44 | 80.43274 | -97.00881 | 31046 ft | 482 kts | 329° |
| 2026-05-09 10:44 | 80.49162 | -97.20270 | 31053 ft | 481 kts | 329° |
| 2026-05-09 10:46 | 80.63777 | -97.69595 | 31048 ft | 480 kts | 328° |
| 2026-05-09 10:46 | 80.69599 | -97.89744 | 31053 ft | 480 kts | 328° |
| 2026-05-09 10:47 | 80.75410 | -98.10152 | 31054 ft | 480 kts | 328° |
| 2026-05-09 10:47 | 80.81214 | -98.30829 | 31054 ft | 480 kts | 328° |
| 2026-05-09 10:48 | 80.87020 | -98.51837 | 31065 ft | 478 kts | 328° |
| 2026-05-09 10:48 | 80.92780 | -98.72978 | 31070 ft | 478 kts | 327° |
| 2026-05-09 10:49 | 80.98519 | -98.94379 | 31078 ft | 478 kts | 327° |
| 2026-05-09 10:49 | 81.04335 | -99.15061 | 31078 ft | 479 kts | 329° |
| 2026-05-09 10:50 | 81.10219 | -99.35471 | 31086 ft | 479 kts | 329° |
| 2026-05-09 10:50 | 81.16069 | -99.56108 | 31086 ft | 478 kts | 329° |
| 2026-05-09 10:51 | 81.20916 | -99.73492 | 31091 ft | 478 kts | 329° |
| 2026-05-09 10:51 | 81.26730 | -99.94669 | 31103 ft | 478 kts | 328° |
| 2026-05-09 10:52 | 81.32540 | -100.16185 | 31110 ft | 479 kts | 329° |
| 2026-05-09 10:52 | 81.38346 | -100.37984 | 31113 ft | 479 kts | 328° |
| 2026-05-09 10:53 | 81.44142 | -100.60099 | 31115 ft | 479 kts | 328° |
| 2026-05-09 10:53 | 81.49918 | -100.82466 | 31114 ft | 478 kts | 328° |
| 2026-05-09 10:54 | 81.55670 | -101.05110 | 31129 ft | 477 kts | 328° |
| 2026-05-09 10:54 | 81.61402 | -101.28033 | 31128 ft | 477 kts | 327° |
| 2026-05-09 10:55 | 81.67118 | -101.51250 | 31133 ft | 477 kts | 327° |
| 2026-05-09 10:55 | 81.72828 | -101.74818 | 31142 ft | 477 kts | 327° |
| 2026-05-09 10:56 | 81.78537 | -101.98787 | 31147 ft | 477 kts | 327° |
| 2026-05-09 10:56 | 81.84210 | -102.22969 | 31149 ft | 477 kts | 326° |
| 2026-05-09 10:57 | 81.89875 | -102.47539 | 31150 ft | 477 kts | 326° |
| 2026-05-09 10:57 | 81.95514 | -102.72393 | 31156 ft | 477 kts | 326° |
| 2026-05-09 10:58 | 82.01145 | -102.97609 | 31159 ft | 477 kts | 326° |
| 2026-05-09 10:58 | 82.06755 | -103.23183 | 31156 ft | 477 kts | 325° |
| 2026-05-09 10:59 | 82.12354 | -103.49116 | 31164 ft | 477 kts | 325° |
| 2026-05-09 10:59 | 82.17933 | -103.75438 | 31177 ft | 476 kts | 325° |
| 2026-05-09 11:00 | 82.23477 | -104.02003 | 31178 ft | 475 kts | 324° |
| 2026-05-09 11:00 | 82.28996 | -104.28941 | 31185 ft | 475 kts | 325° |
| 2026-05-09 11:01 | 82.34524 | -104.56392 | 31184 ft | 475 kts | 324° |
| 2026-05-09 11:01 | 82.40027 | -104.84153 | 31184 ft | 476 kts | 324° |
| 2026-05-09 11:02 | 82.45503 | -105.12312 | 31198 ft | 475 kts | 324° |
| 2026-05-09 11:02 | 82.50961 | -105.40880 | 31201 ft | 475 kts | 323° |
| 2026-05-09 11:03 | 82.56385 | -105.69779 | 31204 ft | 473 kts | 323° |
| 2026-05-09 11:03 | 82.61778 | -105.99020 | 31214 ft | 473 kts | 323° |
| 2026-05-09 11:04 | 82.67147 | -106.28671 | 31210 ft | 473 kts | 323° |
| 2026-05-09 11:04 | 82.72499 | -106.58753 | 31220 ft | 473 kts | 322° |
| 2026-05-09 11:05 | 82.77830 | -106.89319 | 31220 ft | 472 kts | 322° |
| 2026-05-09 11:05 | 82.83139 | -107.20303 | 31220 ft | 472 kts | 322° |
| 2026-05-09 11:06 | 82.88413 | -107.51670 | 31232 ft | 471 kts | 322° |
| 2026-05-09 11:06 | 82.93659 | -107.83438 | 31232 ft | 470 kts | 321° |
| 2026-05-09 11:07 | 82.98872 | -108.15613 | 31241 ft | 470 kts | 321° |
| 2026-05-09 11:07 | 83.04071 | -108.48326 | 31247 ft | 470 kts | 321° |
| 2026-05-09 11:08 | 83.09247 | -108.81513 | 31245 ft | 470 kts | 321° |
| 2026-05-09 11:08 | 83.14396 | -109.15209 | 31251 ft | 470 kts | 320° |
| 2026-05-09 11:09 | 83.19510 | -109.49338 | 31255 ft | 469 kts | 320° |
| 2026-05-09 11:09 | 83.24599 | -109.83974 | 31266 ft | 469 kts | 320° |
| 2026-05-09 11:10 | 83.29660 | -110.19067 | 31267 ft | 469 kts | 320° |
| 2026-05-09 11:10 | 83.34699 | -110.54716 | 31276 ft | 469 kts | 319° |
| 2026-05-09 11:11 | 83.39706 | -110.90894 | 31278 ft | 469 kts | 319° |
| 2026-05-09 11:11 | 83.44720 | -111.27832 | 31277 ft | 468 kts | 319° |
| 2026-05-09 11:12 | 83.49669 | -111.65141 | 31280 ft | 468 kts | 319° |
| 2026-05-09 11:12 | 83.54558 | -112.02660 | 31282 ft | 468 kts | 319° |
| 2026-05-09 11:13 | 83.59489 | -112.41301 | 31287 ft | 468 kts | 318° |
| 2026-05-09 11:13 | 83.64355 | -112.80267 | 31291 ft | 468 kts | 317° |
| 2026-05-09 11:14 | 83.69153 | -113.19532 | 31287 ft | 468 kts | 317° |
| 2026-05-09 11:14 | 83.73970 | -113.59802 | 31301 ft | 468 kts | 317° |
| 2026-05-09 11:15 | 83.78732 | -114.00567 | 31298 ft | 467 kts | 317° |
| 2026-05-09 11:15 | 83.83458 | -114.41839 | 31302 ft | 466 kts | 317° |
| 2026-05-09 11:16 | 83.88147 | -114.83669 | 31304 ft | 466 kts | 316° |
| 2026-05-09 11:16 | 83.92825 | -115.26358 | 31303 ft | 466 kts | 316° |
| 2026-05-09 11:17 | 83.97448 | -115.69530 | 31316 ft | 466 kts | 316° |
| 2026-05-09 11:17 | 84.02035 | -116.13356 | 31318 ft | 466 kts | 315° |
| 2026-05-09 11:18 | 84.06584 | -116.57873 | 31317 ft | 466 kts | 315° |
| 2026-05-09 11:18 | 84.11102 | -117.03179 | 31320 ft | 464 kts | 315° |
| 2026-05-09 11:19 | 84.15564 | -117.48877 | 31317 ft | 464 kts | 315° |
| 2026-05-09 11:19 | 84.19984 | -117.95219 | 31335 ft | 464 kts | 314° |
| 2026-05-09 11:20 | 84.24373 | -118.42343 | 31324 ft | 464 kts | 314° |
| 2026-05-09 11:20 | 84.28717 | -118.90133 | 31332 ft | 464 kts | 313° |
| 2026-05-09 11:21 | 84.33028 | -119.38749 | 31330 ft | 464 kts | 313° |
| 2026-05-09 11:21 | 84.37277 | -119.87860 | 31336 ft | 461 kts | 313° |
| 2026-05-09 11:22 | 84.41477 | -120.37514 | 31347 ft | 461 kts | 313° |
| 2026-05-09 11:22 | 84.45634 | -120.87950 | 31347 ft | 461 kts | 312° |
| 2026-05-09 11:23 | 84.49749 | -121.39191 | 31351 ft | 461 kts | 311° |
| 2026-05-09 11:23 | 84.53820 | -121.91220 | 31350 ft | 462 kts | 311° |
| 2026-05-09 11:24 | 84.57846 | -122.44022 | 31352 ft | 462 kts | 310° |
| 2026-05-09 11:24 | 84.61809 | -122.97481 | 31353 ft | 459 kts | 310° |
| 2026-05-09 11:25 | 84.65720 | -123.51522 | 31359 ft | 459 kts | 310° |
| 2026-05-09 11:25 | 84.69580 | -124.06318 | 31365 ft | 459 kts | 309° |
| 2026-05-09 11:26 | 84.73392 | -124.61957 | 31365 ft | 459 kts | 309° |
| 2026-05-09 11:26 | 84.77156 | -125.18394 | 31364 ft | 459 kts | 308° |
| 2026-05-09 11:27 | 84.80870 | -125.75666 | 31370 ft | 459 kts | 308° |
| 2026-05-09 11:27 | 84.84530 | -126.33762 | 31365 ft | 458 kts | 307° |
| 2026-05-09 11:28 | 84.88129 | -126.92515 | 31378 ft | 458 kts | 307° |
| 2026-05-09 11:28 | 84.91670 | -127.52019 | 31378 ft | 458 kts | 306° |
| 2026-05-09 11:29 | 84.94593 | -128.02520 | 31379 ft | 458 kts | 306° |
| 2026-05-09 11:29 | 84.98021 | -128.63675 | 31379 ft | 458 kts | 305° |
| 2026-05-09 11:30 | 85.01504 | -129.24806 | 31376 ft | 457 kts | 307° |
| 2026-05-09 11:30 | 85.05103 | -129.85484 | 31359 ft | 456 kts | 307° |
| 2026-05-09 11:31 | 85.08629 | -130.46598 | 31377 ft | 454 kts | 306° |
| 2026-05-09 11:31 | 85.12104 | -131.08774 | 31382 ft | 454 kts | 306° |
| 2026-05-09 11:32 | 85.15507 | -131.71676 | 31384 ft | 455 kts | 305° |
| 2026-05-09 11:32 | 85.18855 | -132.35576 | 31384 ft | 455 kts | 304° |
| 2026-05-09 11:33 | 85.22137 | -133.00280 | 31389 ft | 455 kts | 304° |
| 2026-05-09 11:33 | 85.26944 | -133.99010 | 31379 ft | 453 kts | 303° |
| 2026-05-09 11:34 | 85.30057 | -134.65658 | 31391 ft | 452 kts | 302° |
| 2026-05-09 11:34 | 85.33086 | -135.32698 | 31392 ft | 453 kts | 302° |
| 2026-05-09 11:35 | 85.36077 | -136.01225 | 31390 ft | 453 kts | 301° |
| 2026-05-09 11:35 | 85.38994 | -136.70479 | 31392 ft | 453 kts | 300° |
| 2026-05-09 11:36 | 85.41844 | -137.40623 | 31392 ft | 453 kts | 300° |
| 2026-05-09 11:36 | 85.44626 | -138.11706 | 31368 ft | 453 kts | 300° |
| 2026-05-09 11:37 | 85.47316 | -138.83191 | 31388 ft | 449 kts | 299° |
| 2026-05-09 11:37 | 85.49942 | -139.55475 | 31391 ft | 449 kts | 298° |
| 2026-05-09 11:38 | 85.52505 | -140.28875 | 31392 ft | 449 kts | 297° |
| 2026-05-09 11:38 | 85.54962 | -141.02198 | 31388 ft | 450 kts | 297° |
| 2026-05-09 11:39 | 85.57382 | -141.77492 | 31392 ft | 450 kts | 296° |
| 2026-05-09 11:40 | 85.60848 | -142.91322 | 31371 ft | 448 kts | 295° |
| 2026-05-09 11:40 | 85.63044 | -143.67591 | 31387 ft | 447 kts | 294° |
| 2026-05-09 11:41 | 85.65150 | -144.44113 | 31384 ft | 447 kts | 294° |
| 2026-05-09 11:41 | 85.67188 | -145.22074 | 31385 ft | 448 kts | 292° |
| 2026-05-09 11:42 | 85.69131 | -146.00779 | 31386 ft | 448 kts | 292° |
| 2026-05-09 11:42 | 85.70998 | -146.80226 | 31389 ft | 448 kts | 291° |
| 2026-05-09 11:43 | 85.72789 | -147.60317 | 31388 ft | 449 kts | 290° |
| 2026-05-09 11:43 | 85.74511 | -148.41242 | 31384 ft | 448 kts | 289° |
| 2026-05-09 11:44 | 85.76134 | -149.22641 | 31387 ft | 449 kts | 288° |
| 2026-05-09 11:44 | 85.77676 | -150.04658 | 31387 ft | 449 kts | 287° |
| 2026-05-09 11:45 | 85.79134 | -150.87306 | 31384 ft | 449 kts | 286° |
| 2026-05-09 11:45 | 85.80506 | -151.70569 | 31384 ft | 449 kts | 285° |
| 2026-05-09 11:46 | 85.81790 | -152.54375 | 31380 ft | 450 kts | 285° |
| 2026-05-09 11:46 | 85.82991 | -153.38673 | 31375 ft | 449 kts | 283° |
| 2026-05-09 11:47 | 85.84097 | -154.23666 | 31375 ft | 450 kts | 282° |
| 2026-05-09 11:47 | 85.85108 | -155.08930 | 31376 ft | 450 kts | 281° |
| 2026-05-09 11:48 | 85.86028 | -155.94639 | 31376 ft | 450 kts | 281° |
| 2026-05-09 11:48 | 85.86856 | -156.80649 | 31371 ft | 450 kts | 279° |
| 2026-05-09 11:49 | 85.87594 | -157.67119 | 31362 ft | 451 kts | 278° |
| 2026-05-09 11:49 | 85.88240 | -158.54012 | 31358 ft | 451 kts | 277° |
| 2026-05-09 11:50 | 85.88788 | -159.41430 | 31364 ft | 451 kts | 276° |
| 2026-05-09 11:50 | 85.89239 | -160.29140 | 31365 ft | 452 kts | 275° |
| 2026-05-09 11:51 | 85.89596 | -161.16871 | 31358 ft | 452 kts | 275° |
| 2026-05-09 11:51 | 85.89856 | -162.04062 | 31357 ft | 452 kts | 274° |
| 2026-05-09 11:52 | 85.90022 | -162.92090 | 31355 ft | 452 kts | 273° |
| 2026-05-09 11:52 | 85.90092 | -163.80133 | 31341 ft | 452 kts | 272° |
| 2026-05-09 11:53 | 85.90072 | -164.68174 | 31349 ft | 453 kts | 270° |
| 2026-05-09 11:53 | 85.89946 | -165.56373 | 31343 ft | 453 kts | 270° |
| 2026-05-09 11:54 | 85.89724 | -166.44602 | 31344 ft | 453 kts | 269° |
| 2026-05-09 11:54 | 85.89406 | -167.32575 | 31336 ft | 453 kts | 268° |
| 2026-05-09 11:55 | 85.88993 | -168.20401 | 31336 ft | 453 kts | 267° |
| 2026-05-09 11:56 | 85.87184 | -170.82392 | 31324 ft | 452 kts | 264° |
| 2026-05-09 11:57 | 85.86393 | -171.69003 | 31317 ft | 452 kts | 263° |
| 2026-05-09 11:57 | 85.85503 | -172.55565 | 31316 ft | 452 kts | 262° |
| 2026-05-09 11:58 | 85.84522 | -173.41454 | 31313 ft | 452 kts | 261° |
| 2026-05-09 11:58 | 85.83448 | -174.27218 | 31306 ft | 452 kts | 261° |
| 2026-05-09 11:59 | 85.82286 | -175.12176 | 31301 ft | 453 kts | 259° |
| 2026-05-09 11:59 | 85.81026 | -175.96825 | 31294 ft | 452 kts | 259° |
| 2026-05-09 12:00 | 85.79675 | -176.81071 | 31281 ft | 453 kts | 258° |
| 2026-05-09 12:00 | 85.78236 | -177.64716 | 31289 ft | 453 kts | 257° |
| 2026-05-09 12:01 | 85.76709 | -178.47582 | 31292 ft | 452 kts | 256° |
| 2026-05-09 12:01 | 85.75094 | -179.29870 | 31292 ft | 453 kts | 255° |
| 2026-05-09 12:02 | 85.73459 | 179.91295 | 31282 ft | 453 kts | 253° |
| 2026-05-09 12:02 | 85.71747 | 179.13270 | 31281 ft | 457 kts | 253° |
| 2026-05-09 12:03 | 85.69862 | 178.32188 | 31283 ft | 456 kts | 252° |
| 2026-05-09 12:03 | 85.67888 | 177.51597 | 31270 ft | 456 kts | 251° |
| 2026-05-09 12:04 | 85.65839 | 176.72041 | 31270 ft | 456 kts | 251° |
| 2026-05-09 12:04 | 85.63706 | 175.93213 | 31258 ft | 456 kts | 250° |
| 2026-05-09 12:05 | 85.61486 | 175.14972 | 31258 ft | 456 kts | 249° |
| 2026-05-09 12:05 | 85.59192 | 174.37633 | 31259 ft | 457 kts | 248° |
| 2026-05-09 12:06 | 85.56807 | 173.61083 | 31244 ft | 457 kts | 247° |
| 2026-05-09 12:06 | 85.54355 | 172.85444 | 31244 ft | 454 kts | 246° |
| 2026-05-09 12:07 | 85.51837 | 172.11064 | 31222 ft | 455 kts | 245° |
| 2026-05-09 12:07 | 85.49678 | 171.49565 | 31226 ft | 455 kts | 245° |
| 2026-05-09 12:08 | 85.47028 | 170.76626 | 31228 ft | 453 kts | 244° |
| 2026-05-09 12:08 | 85.44319 | 170.04846 | 31214 ft | 453 kts | 242° |
| 2026-05-09 12:09 | 85.41515 | 169.33539 | 31212 ft | 456 kts | 242° |
| 2026-05-09 12:09 | 85.38644 | 168.63088 | 31208 ft | 456 kts | 241° |
| 2026-05-09 12:10 | 85.32675 | 167.24265 | 31197 ft | 454 kts | 240° |
| 2026-05-09 12:11 | 85.29602 | 166.56513 | 31175 ft | 455 kts | 238° |
| 2026-05-09 12:11 | 85.26466 | 165.89613 | 31191 ft | 457 kts | 238° |
| 2026-05-09 12:12 | 85.23234 | 165.23011 | 31180 ft | 459 kts | 236° |
| 2026-05-09 12:12 | 85.19920 | 164.57040 | 31164 ft | 460 kts | 236° |
| 2026-05-09 12:13 | 85.16551 | 163.91932 | 31160 ft | 460 kts | 236° |
| 2026-05-09 12:13 | 85.13136 | 163.28062 | 31147 ft | 459 kts | 234° |
| 2026-05-09 12:14 | 85.09660 | 162.65151 | 31147 ft | 459 kts | 234° |
| 2026-05-09 12:14 | 85.06127 | 162.03075 | 31151 ft | 459 kts | 234° |
| 2026-05-09 12:15 | 85.02520 | 161.41797 | 31133 ft | 461 kts | 232° |
| 2026-05-09 12:15 | 84.99022 | 160.79998 | 31123 ft | 463 kts | 236° |
| 2026-05-09 12:16 | 84.95984 | 160.15006 | 31110 ft | 463 kts | 240° |
| 2026-05-09 12:16 | 84.92712 | 159.52080 | 31115 ft | 462 kts | 236° |
| 2026-05-09 12:17 | 84.89343 | 158.90287 | 31093 ft | 462 kts | 235° |
| 2026-05-09 12:17 | 84.85958 | 158.29101 | 31093 ft | 462 kts | 235° |
| 2026-05-09 12:18 | 84.82519 | 157.68458 | 31098 ft | 464 kts | 235° |
| 2026-05-09 12:18 | 84.79030 | 157.08401 | 31079 ft | 464 kts | 234° |
| 2026-05-09 12:19 | 84.75493 | 156.49105 | 31078 ft | 464 kts | 233° |
| 2026-05-09 12:19 | 84.71904 | 155.90712 | 31061 ft | 463 kts | 233° |
| 2026-05-09 12:20 | 84.68252 | 155.33102 | 31061 ft | 463 kts | 232° |
| 2026-05-09 12:20 | 84.64555 | 154.76353 | 31062 ft | 463 kts | 232° |
| 2026-05-09 12:21 | 84.60803 | 154.20232 | 31058 ft | 464 kts | 231° |
| 2026-05-09 12:21 | 84.56994 | 153.64812 | 31043 ft | 464 kts | 230° |
| 2026-05-09 12:22 | 84.53136 | 153.10251 | 31032 ft | 464 kts | 230° |
| 2026-05-09 12:22 | 84.49228 | 152.56404 | 31031 ft | 464 kts | 230° |
| 2026-05-09 12:23 | 84.45272 | 152.03276 | 31011 ft | 464 kts | 229° |
| 2026-05-09 12:23 | 84.41272 | 151.51061 | 31017 ft | 464 kts | 228° |
| 2026-05-09 12:24 | 84.37224 | 150.99512 | 31020 ft | 464 kts | 228° |
| 2026-05-09 12:24 | 84.33135 | 150.48626 | 30999 ft | 464 kts | 227° |
| 2026-05-09 12:25 | 84.28996 | 149.98518 | 31002 ft | 464 kts | 227° |
| 2026-05-09 12:25 | 84.24817 | 149.49151 | 30989 ft | 465 kts | 227° |
| 2026-05-09 12:26 | 84.20589 | 149.00316 | 30985 ft | 466 kts | 226° |
| 2026-05-09 12:26 | 84.16329 | 148.52394 | 30989 ft | 466 kts | 226° |
| 2026-05-09 12:27 | 84.12012 | 148.04992 | 30977 ft | 466 kts | 225° |
| 2026-05-09 12:27 | 84.07661 | 147.58226 | 30972 ft | 466 kts | 225° |
| 2026-05-09 12:28 | 84.03263 | 147.12207 | 30954 ft | 466 kts | 225° |
| 2026-05-09 12:28 | 83.98838 | 146.66870 | 30956 ft | 466 kts | 224° |
| 2026-05-09 12:29 | 83.94373 | 146.22203 | 30937 ft | 465 kts | 224° |
| 2026-05-09 12:29 | 83.89874 | 145.78254 | 30936 ft | 465 kts | 223° |
| 2026-05-09 12:30 | 83.85342 | 145.34891 | 30937 ft | 465 kts | 223° |
| 2026-05-09 12:30 | 83.78478 | 144.71076 | 30925 ft | 465 kts | 222° |
| 2026-05-09 12:31 | 83.71541 | 144.08593 | 30925 ft | 465 kts | 221° |
| 2026-05-09 12:32 | 83.66878 | 143.67810 | 30922 ft | 464 kts | 221° |
| 2026-05-09 12:32 | 83.62189 | 143.27618 | 30919 ft | 465 kts | 220° |
| 2026-05-09 12:33 | 83.57466 | 142.88010 | 30913 ft | 464 kts | 221° |
| 2026-05-09 12:33 | 83.52719 | 142.48931 | 30912 ft | 464 kts | 220° |
| 2026-05-09 12:34 | 83.47971 | 142.10738 | 30898 ft | 464 kts | 220° |
| 2026-05-09 12:34 | 83.43171 | 141.72868 | 30898 ft | 464 kts | 219° |
| 2026-05-09 12:35 | 83.38325 | 141.35399 | 30883 ft | 464 kts | 219° |
| 2026-05-09 12:35 | 83.33471 | 140.98654 | 30892 ft | 464 kts | 218° |
| 2026-05-09 12:36 | 83.28597 | 140.62447 | 30873 ft | 463 kts | 218° |
| 2026-05-09 12:36 | 83.23694 | 140.26815 | 30870 ft | 463 kts | 218° |
| 2026-05-09 12:37 | 83.18769 | 139.91608 | 30872 ft | 463 kts | 218° |
| 2026-05-09 12:37 | 83.13819 | 139.57034 | 30861 ft | 463 kts | 217° |
| 2026-05-09 12:38 | 83.08844 | 139.22893 | 30859 ft | 463 kts | 217° |
| 2026-05-09 12:38 | 83.03843 | 138.89261 | 30861 ft | 463 kts | 217° |
| 2026-05-09 12:39 | 82.98827 | 138.56161 | 30852 ft | 462 kts | 217° |
| 2026-05-09 12:39 | 82.93790 | 138.23489 | 30850 ft | 462 kts | 216° |
| 2026-05-09 12:40 | 82.88731 | 137.91288 | 30838 ft | 462 kts | 216° |
| 2026-05-09 12:40 | 82.83649 | 137.59521 | 30838 ft | 462 kts | 216° |
| 2026-05-09 12:41 | 82.78538 | 137.28194 | 30827 ft | 462 kts | 215° |
| 2026-05-09 12:41 | 82.73413 | 136.97358 | 30836 ft | 461 kts | 215° |
| 2026-05-09 12:42 | 82.68312 | 136.67214 | 30812 ft | 461 kts | 215° |
| 2026-05-09 12:42 | 82.63154 | 136.37216 | 30812 ft | 462 kts | 215° |
| 2026-05-09 12:43 | 82.57925 | 136.07372 | 30814 ft | 462 kts | 215° |
| 2026-05-09 12:43 | 82.52729 | 135.78220 | 30806 ft | 462 kts | 214° |
| 2026-05-09 12:44 | 82.47510 | 135.49476 | 30808 ft | 462 kts | 214° |
| 2026-05-09 12:44 | 82.42275 | 135.21137 | 30800 ft | 461 kts | 213° |
| 2026-05-09 12:45 | 82.37037 | 134.93280 | 30797 ft | 460 kts | 213° |
| 2026-05-09 12:45 | 82.31789 | 134.65795 | 30795 ft | 460 kts | 213° |
| 2026-05-09 12:46 | 82.26522 | 134.38689 | 30786 ft | 460 kts | 213° |
| 2026-05-09 12:46 | 82.21217 | 134.11858 | 30787 ft | 459 kts | 212° |
| 2026-05-09 12:47 | 82.15917 | 133.85495 | 30774 ft | 460 kts | 212° |
| 2026-05-09 12:47 | 82.10606 | 133.59504 | 30785 ft | 460 kts | 212° |
| 2026-05-09 12:48 | 82.06170 | 133.38125 | 30766 ft | 461 kts | 212° |
| 2026-05-09 12:48 | 82.00802 | 133.12626 | 30763 ft | 460 kts | 211° |
| 2026-05-09 12:49 | 81.95435 | 132.87564 | 30763 ft | 460 kts | 211° |
| 2026-05-09 12:49 | 81.90054 | 132.62794 | 30751 ft | 460 kts | 211° |
| 2026-05-09 12:50 | 81.84654 | 132.38372 | 30753 ft | 460 kts | 211° |
| 2026-05-09 12:50 | 81.79247 | 132.14288 | 30747 ft | 462 kts | 211° |
| 2026-05-09 12:51 | 81.73776 | 131.90292 | 30747 ft | 466 kts | 211° |
| 2026-05-09 12:51 | 81.68264 | 131.66509 | 30744 ft | 466 kts | 211° |
| 2026-05-09 12:52 | 81.62749 | 131.43049 | 30734 ft | 466 kts | 210° |
| 2026-05-09 12:52 | 81.57214 | 131.19903 | 30737 ft | 466 kts | 210° |
| 2026-05-09 12:53 | 81.51679 | 130.97046 | 30726 ft | 466 kts | 210° |
| 2026-05-09 12:53 | 81.46099 | 130.74510 | 30729 ft | 468 kts | 210° |
| 2026-05-09 12:54 | 81.40470 | 130.51994 | 30718 ft | 472 kts | 210° |
| 2026-05-09 12:54 | 81.34827 | 130.29737 | 30715 ft | 470 kts | 210° |
| 2026-05-09 12:55 | 81.29171 | 130.07799 | 30716 ft | 471 kts | 210° |
| 2026-05-09 12:55 | 81.23484 | 129.86098 | 30704 ft | 471 kts | 210° |
| 2026-05-09 12:56 | 81.17795 | 129.64717 | 30703 ft | 472 kts | 209° |
| 2026-05-09 12:56 | 81.12095 | 129.43666 | 30697 ft | 472 kts | 210° |
| 2026-05-09 12:57 | 81.06371 | 129.22774 | 30695 ft | 472 kts | 210° |
| 2026-05-09 12:57 | 81.00634 | 129.02166 | 30690 ft | 472 kts | 210° |
| 2026-05-09 12:58 | 80.94948 | 128.81191 | 30689 ft | 472 kts | 211° |
| 2026-05-09 12:58 | 80.89286 | 128.60121 | 30699 ft | 472 kts | 210° |
| 2026-05-09 12:59 | 80.83605 | 128.39346 | 30688 ft | 471 kts | 209° |
| 2026-05-09 12:59 | 80.77903 | 128.18927 | 30684 ft | 472 kts | 209° |
| 2026-05-09 13:00 | 80.72187 | 127.98754 | 30674 ft | 471 kts | 209° |
| 2026-05-09 13:00 | 80.66460 | 127.78807 | 30676 ft | 472 kts | 208° |
| 2026-05-09 13:01 | 80.60734 | 127.59142 | 30674 ft | 472 kts | 208° |
| 2026-05-09 13:01 | 80.54990 | 127.39684 | 30674 ft | 472 kts | 208° |
| 2026-05-09 13:02 | 80.49237 | 127.20476 | 30665 ft | 472 kts | 208° |
| 2026-05-09 13:02 | 80.43459 | 127.01464 | 30660 ft | 473 kts | 208° |
| 2026-05-09 13:03 | 80.37707 | 126.82749 | 30664 ft | 473 kts | 208° |
| 2026-05-09 13:03 | 80.31909 | 126.64151 | 30658 ft | 473 kts | 208° |
| 2026-05-09 13:04 | 80.26056 | 126.45639 | 30657 ft | 473 kts | 208° |
| 2026-05-09 13:04 | 80.20224 | 126.27443 | 30648 ft | 473 kts | 208° |
| 2026-05-09 13:05 | 80.14394 | 126.09508 | 30646 ft | 474 kts | 208° |
| 2026-05-09 13:05 | 80.08543 | 125.91741 | 30639 ft | 474 kts | 208° |
| 2026-05-09 13:06 | 80.02677 | 125.74146 | 30639 ft | 474 kts | 207° |
| 2026-05-09 13:06 | 79.96845 | 125.56877 | 30639 ft | 474 kts | 207° |
| 2026-05-09 13:07 | 79.90963 | 125.39677 | 30631 ft | 474 kts | 207° |
| 2026-05-09 13:07 | 79.85072 | 125.22689 | 30632 ft | 474 kts | 207° |
| 2026-05-09 13:08 | 79.79167 | 125.05888 | 30622 ft | 474 kts | 207° |
| 2026-05-09 13:08 | 79.73268 | 124.89321 | 30622 ft | 474 kts | 206° |
| 2026-05-09 13:09 | 79.67351 | 124.72917 | 30616 ft | 474 kts | 206° |
| 2026-05-09 13:09 | 79.61427 | 124.56700 | 30617 ft | 474 kts | 206° |
| 2026-05-09 13:10 | 79.55499 | 124.40677 | 30603 ft | 474 kts | 206° |
| 2026-05-09 13:10 | 79.49563 | 124.24834 | 30603 ft | 474 kts | 206° |
| 2026-05-09 13:11 | 79.43627 | 124.09172 | 30606 ft | 473 kts | 205° |
| 2026-05-09 13:11 | 79.37688 | 123.93718 | 30598 ft | 473 kts | 205° |
| 2026-05-09 13:12 | 79.31743 | 123.78435 | 30599 ft | 473 kts | 205° |
| 2026-05-09 13:12 | 79.25783 | 123.63300 | 30590 ft | 473 kts | 205° |
| 2026-05-09 13:13 | 79.19824 | 123.48349 | 30588 ft | 473 kts | 205° |
| 2026-05-09 13:13 | 79.13852 | 123.33545 | 30578 ft | 473 kts | 204° |
| 2026-05-09 13:14 | 79.07886 | 123.18944 | 30579 ft | 472 kts | 204° |
| 2026-05-09 13:16 | 78.83453 | 122.68479 | 30561 ft | 472 kts | 200° |
| 2026-05-09 13:16 | 78.77271 | 122.56760 | 30567 ft | 472 kts | 199° |
| 2026-05-09 13:17 | 78.71085 | 122.45291 | 30547 ft | 472 kts | 199° |
| 2026-05-09 13:17 | 78.64907 | 122.34009 | 30548 ft | 472 kts | 198° |
| 2026-05-09 13:18 | 78.58726 | 122.22853 | 30535 ft | 472 kts | 198° |
| 2026-05-09 13:18 | 78.52536 | 122.11806 | 30537 ft | 472 kts | 198° |
| 2026-05-09 13:19 | 78.46341 | 122.00875 | 30539 ft | 472 kts | 198° |
| 2026-05-09 13:19 | 78.40152 | 121.90040 | 30528 ft | 471 kts | 197° |
| 2026-05-09 13:20 | 78.33954 | 121.79369 | 30528 ft | 471 kts | 197° |
| 2026-05-09 13:20 | 78.27758 | 121.68799 | 30514 ft | 471 kts | 197° |
| 2026-05-09 13:21 | 78.21558 | 121.58338 | 30517 ft | 471 kts | 197° |
| 2026-05-09 13:21 | 78.15351 | 121.47992 | 30495 ft | 471 kts | 197° |
| 2026-05-09 13:22 | 78.09142 | 121.37740 | 30514 ft | 471 kts | 197° |
| 2026-05-09 13:22 | 78.02943 | 121.27589 | 30509 ft | 470 kts | 196° |
| 2026-05-09 13:23 | 77.87439 | 121.02768 | 30473 ft | 470 kts | 196° |
| 2026-05-09 13:24 | 77.81228 | 120.92985 | 30478 ft | 470 kts | 196° |
| 2026-05-09 13:24 | 77.75025 | 120.83337 | 30482 ft | 469 kts | 195° |
| 2026-05-09 13:25 | 77.68814 | 120.73756 | 30464 ft | 469 kts | 195° |
| 2026-05-09 13:26 | 77.59499 | 120.59631 | 30462 ft | 469 kts | 195° |
| 2026-05-09 13:26 | 77.53328 | 120.50382 | 30442 ft | 469 kts | 195° |
| 2026-05-09 13:27 | 77.47116 | 120.41155 | 30440 ft | 469 kts | 194° |
| 2026-05-09 13:27 | 77.41913 | 120.33497 | 30428 ft | 469 kts | 194° |
| 2026-05-09 13:28 | 77.35694 | 120.24434 | 30431 ft | 469 kts | 194° |
| 2026-05-09 13:28 | 77.29469 | 120.15450 | 30415 ft | 469 kts | 194° |
| 2026-05-09 13:29 | 77.23253 | 120.06572 | 30416 ft | 468 kts | 194° |
| 2026-05-09 13:29 | 77.17037 | 119.97761 | 30413 ft | 468 kts | 194° |
| 2026-05-09 13:30 | 77.10812 | 119.89018 | 30412 ft | 468 kts | 194° |
| 2026-05-09 13:30 | 77.04588 | 119.80390 | 30412 ft | 468 kts | 194° |
| 2026-05-09 13:31 | 76.98370 | 119.71841 | 30407 ft | 468 kts | 193° |
| 2026-05-09 13:31 | 76.92127 | 119.63385 | 30395 ft | 468 kts | 193° |
| 2026-05-09 13:32 | 76.85891 | 119.55008 | 30382 ft | 468 kts | 193° |
| 2026-05-09 13:32 | 76.76531 | 119.42571 | 30383 ft | 468 kts | 193° |
| 2026-05-09 13:33 | 76.70336 | 119.34434 | 30370 ft | 468 kts | 193° |
| 2026-05-09 13:33 | 76.64053 | 119.26233 | 30390 ft | 469 kts | 192° |
| 2026-05-09 13:34 | 76.57843 | 119.18232 | 30358 ft | 469 kts | 192° |
| 2026-05-09 13:34 | 76.51592 | 119.10272 | 30354 ft | 469 kts | 192° |
| 2026-05-09 13:35 | 76.45335 | 119.02369 | 30340 ft | 469 kts | 192° |
| 2026-05-09 13:35 | 76.39085 | 118.94545 | 30340 ft | 469 kts | 192° |
| 2026-05-09 13:36 | 76.32825 | 118.86781 | 30332 ft | 469 kts | 192° |
| 2026-05-09 13:36 | 76.26565 | 118.79056 | 30331 ft | 469 kts | 191° |
| 2026-05-09 13:37 | 76.20284 | 118.71430 | 30325 ft | 469 kts | 191° |
| 2026-05-09 13:37 | 76.14004 | 118.63873 | 30308 ft | 469 kts | 190° |
| 2026-05-09 13:38 | 76.07730 | 118.56389 | 30309 ft | 469 kts | 190° |
| 2026-05-09 13:38 | 76.01456 | 118.48750 | 30294 ft | 471 kts | 193° |
| 2026-05-09 13:39 | 75.95243 | 118.39795 | 30350 ft | 470 kts | 192° |
| 2026-05-09 13:39 | 75.89027 | 118.31453 | 30306 ft | 470 kts | 192° |
| 2026-05-09 13:40 | 75.82761 | 118.23089 | 30286 ft | 471 kts | 192° |
| 2026-05-09 13:40 | 75.76557 | 118.14797 | 30280 ft | 471 kts | 192° |
| 2026-05-09 13:41 | 75.70337 | 118.06525 | 30275 ft | 471 kts | 192° |
| 2026-05-09 13:41 | 75.64124 | 117.98331 | 30279 ft | 470 kts | 192° |
| 2026-05-09 13:42 | 75.57900 | 117.90186 | 30283 ft | 471 kts | 192° |
| 2026-05-09 13:42 | 75.51622 | 117.82053 | 30258 ft | 471 kts | 192° |
| 2026-05-09 13:43 | 75.45380 | 117.74044 | 30246 ft | 471 kts | 192° |
| 2026-05-09 13:43 | 75.39137 | 117.66106 | 30243 ft | 471 kts | 191° |
| 2026-05-09 13:44 | 75.32894 | 117.58180 | 30236 ft | 471 kts | 192° |
| 2026-05-09 13:44 | 75.26655 | 117.50248 | 30243 ft | 471 kts | 192° |
| 2026-05-09 13:45 | 75.20423 | 117.42407 | 30251 ft | 473 kts | 191° |
| 2026-05-09 13:45 | 75.14146 | 117.34587 | 30233 ft | 473 kts | 191° |
| 2026-05-09 13:46 | 75.07859 | 117.26825 | 30231 ft | 474 kts | 191° |
| 2026-05-09 13:46 | 75.01576 | 117.19137 | 30226 ft | 473 kts | 191° |
| 2026-05-09 13:47 | 74.95294 | 117.11517 | 30226 ft | 473 kts | 191° |
| 2026-05-09 13:47 | 74.88997 | 117.03961 | 30240 ft | 472 kts | 192° |
| 2026-05-09 13:48 | 74.82729 | 116.96465 | 30219 ft | 472 kts | 192° |
| 2026-05-09 13:48 | 74.76461 | 116.89025 | 30215 ft | 472 kts | 192° |
| 2026-05-09 13:49 | 74.70185 | 116.81655 | 30214 ft | 472 kts | 192° |
| 2026-05-09 13:49 | 74.63907 | 116.74354 | 30214 ft | 472 kts | 192° |
| 2026-05-09 13:50 | 74.57628 | 116.67114 | 30211 ft | 472 kts | 192° |
| 2026-05-09 13:50 | 74.51331 | 116.59945 | 30221 ft | 472 kts | 193° |
| 2026-05-09 13:51 | 74.45042 | 116.52783 | 30213 ft | 472 kts | 193° |
| 2026-05-09 13:51 | 74.38754 | 116.45693 | 30212 ft | 472 kts | 192° |
| 2026-05-09 13:52 | 74.32466 | 116.38676 | 30200 ft | 472 kts | 192° |
| 2026-05-09 13:52 | 74.26152 | 116.31691 | 30207 ft | 472 kts | 192° |
| 2026-05-09 13:53 | 74.19860 | 116.24810 | 30230 ft | 472 kts | 193° |
| 2026-05-09 13:53 | 74.13565 | 116.17963 | 30212 ft | 472 kts | 193° |
| 2026-05-09 13:54 | 74.07274 | 116.11162 | 30204 ft | 472 kts | 193° |
| 2026-05-09 13:54 | 74.00931 | 116.04377 | 30204 ft | 472 kts | 193° |
| 2026-05-09 13:55 | 73.94635 | 115.97703 | 30204 ft | 472 kts | 193° |
| 2026-05-09 13:55 | 73.88330 | 115.91041 | 30213 ft | 472 kts | 193° |
| 2026-05-09 13:56 | 73.82022 | 115.84421 | 30207 ft | 472 kts | 193° |
| 2026-05-09 13:56 | 73.75716 | 115.77874 | 30205 ft | 472 kts | 193° |
| 2026-05-09 13:57 | 73.69405 | 115.71383 | 30207 ft | 472 kts | 192° |
| 2026-05-09 13:57 | 73.63096 | 115.64945 | 30209 ft | 472 kts | 192° |
| 2026-05-09 13:58 | 73.56785 | 115.58557 | 30208 ft | 472 kts | 192° |
| 2026-05-09 13:58 | 73.50451 | 115.52221 | 30223 ft | 472 kts | 193° |
| 2026-05-09 13:59 | 73.44132 | 115.45917 | 30211 ft | 472 kts | 193° |
| 2026-05-09 13:59 | 73.37802 | 115.39646 | 30215 ft | 472 kts | 193° |
| 2026-05-09 14:00 | 73.33615 | 115.35528 | 30214 ft | 472 kts | 193° |
| 2026-05-09 14:00 | 73.25150 | 115.27272 | 30215 ft | 472 kts | 193° |
| 2026-05-09 14:01 | 73.18809 | 115.21144 | 30240 ft | 471 kts | 193° |
| 2026-05-09 14:01 | 73.12494 | 115.15108 | 30223 ft | 471 kts | 193° |
| 2026-05-09 14:02 | 73.06170 | 115.09078 | 30217 ft | 471 kts | 193° |
| 2026-05-09 14:02 | 72.99863 | 115.03112 | 30214 ft | 471 kts | 193° |
| 2026-05-09 14:03 | 72.93551 | 114.97190 | 30212 ft | 470 kts | 193° |
| 2026-05-09 14:03 | 72.87232 | 114.91310 | 30213 ft | 470 kts | 193° |
| 2026-05-09 14:04 | 72.80915 | 114.85487 | 30207 ft | 471 kts | 193° |
| 2026-05-09 14:04 | 72.75622 | 114.80628 | 30209 ft | 470 kts | 193° |
| 2026-05-09 14:05 | 72.69304 | 114.74864 | 30208 ft | 470 kts | 193° |
| 2026-05-09 14:05 | 72.62983 | 114.69143 | 30209 ft | 470 kts | 193° |
| 2026-05-09 14:06 | 72.56702 | 114.63501 | 30201 ft | 470 kts | 193° |
| 2026-05-09 14:06 | 72.50343 | 114.57832 | 30207 ft | 470 kts | 193° |
| 2026-05-09 14:07 | 72.44035 | 114.52259 | 30205 ft | 470 kts | 193° |
| 2026-05-09 14:07 | 72.37705 | 114.46693 | 30202 ft | 470 kts | 193° |
| 2026-05-09 14:08 | 72.31379 | 114.41172 | 30203 ft | 470 kts | 193° |
| 2026-05-09 14:08 | 72.25052 | 114.35694 | 30205 ft | 470 kts | 193° |
| 2026-05-09 14:09 | 72.18722 | 114.30255 | 30201 ft | 470 kts | 193° |
| 2026-05-09 14:09 | 72.12378 | 114.24843 | 30210 ft | 471 kts | 193° |
| 2026-05-09 14:10 | 72.02856 | 114.16818 | 30211 ft | 471 kts | 193° |
| 2026-05-09 14:11 | 71.96502 | 114.11689 | 30213 ft | 471 kts | 190° |
| 2026-05-09 14:11 | 71.90040 | 114.08089 | 30209 ft | 470 kts | 188° |
| 2026-05-09 14:12 | 71.83601 | 114.04394 | 30214 ft | 470 kts | 189° |
| 2026-05-09 14:12 | 71.77168 | 114.00716 | 30217 ft | 469 kts | 189° |
| 2026-05-09 14:13 | 71.70744 | 113.97118 | 30223 ft | 469 kts | 189° |
| 2026-05-09 14:15 | 71.44984 | 113.83107 | 30241 ft | 469 kts | 189° |
| 2026-05-09 14:15 | 71.38540 | 113.79664 | 30239 ft | 469 kts | 189° |
| 2026-05-09 14:16 | 71.32107 | 113.76230 | 30242 ft | 469 kts | 189° |
| 2026-05-09 14:16 | 71.25719 | 113.72852 | 30242 ft | 469 kts | 189° |
| 2026-05-09 14:17 | 71.19244 | 113.69455 | 30245 ft | 469 kts | 189° |
| 2026-05-09 14:17 | 71.12812 | 113.66104 | 30253 ft | 469 kts | 189° |
| 2026-05-09 14:18 | 71.06363 | 113.62777 | 30254 ft | 470 kts | 189° |
| 2026-05-09 14:18 | 70.99946 | 113.59476 | 30261 ft | 471 kts | 189° |
| 2026-05-09 14:19 | 70.93434 | 113.56147 | 30264 ft | 471 kts | 189° |
| 2026-05-09 14:19 | 70.87009 | 113.52888 | 30275 ft | 471 kts | 189° |
| 2026-05-09 14:20 | 70.80491 | 113.49604 | 30270 ft | 472 kts | 189° |
| 2026-05-09 14:20 | 70.74062 | 113.46389 | 30282 ft | 471 kts | 189° |
| 2026-05-09 14:21 | 70.64341 | 113.41562 | 30286 ft | 472 kts | 189° |
| 2026-05-09 14:21 | 70.57861 | 113.38369 | 30304 ft | 472 kts | 189° |
| 2026-05-09 14:22 | 70.51387 | 113.35201 | 30304 ft | 470 kts | 189° |
| 2026-05-09 14:22 | 70.44931 | 113.32061 | 30324 ft | 470 kts | 189° |
| 2026-05-09 14:23 | 70.38471 | 113.28943 | 30326 ft | 470 kts | 189° |
| 2026-05-09 14:23 | 70.32010 | 113.25843 | 30342 ft | 470 kts | 189° |
| 2026-05-09 14:24 | 70.25554 | 113.22763 | 30337 ft | 470 kts | 189° |
| 2026-05-09 14:24 | 70.19095 | 113.19706 | 30337 ft | 470 kts | 189° |
| 2026-05-09 14:25 | 70.12616 | 113.16654 | 30336 ft | 470 kts | 189° |
| 2026-05-09 14:25 | 70.06158 | 113.13641 | 30351 ft | 471 kts | 189° |
| 2026-05-09 14:26 | 69.99691 | 113.10646 | 30354 ft | 471 kts | 189° |
| 2026-05-09 14:26 | 69.93218 | 113.07652 | 30373 ft | 470 kts | 189° |
| 2026-05-09 14:27 | 69.86755 | 113.04687 | 30373 ft | 470 kts | 189° |
| 2026-05-09 14:27 | 69.80292 | 113.01739 | 30375 ft | 470 kts | 189° |
| 2026-05-09 14:28 | 69.73830 | 112.98806 | 30390 ft | 470 kts | 189° |
| 2026-05-09 14:28 | 69.67363 | 112.95897 | 30387 ft | 471 kts | 190° |
| 2026-05-09 14:29 | 69.60896 | 112.92985 | 30411 ft | 470 kts | 189° |
| 2026-05-09 14:29 | 69.54428 | 112.90108 | 30409 ft | 471 kts | 189° |
| 2026-05-09 14:30 | 69.47941 | 112.87238 | 30428 ft | 470 kts | 189° |
| 2026-05-09 14:30 | 69.41471 | 112.84396 | 30431 ft | 470 kts | 189° |
| 2026-05-09 14:31 | 69.35007 | 112.81594 | 30438 ft | 469 kts | 189° |
| 2026-05-09 14:31 | 69.28561 | 112.78782 | 30442 ft | 469 kts | 190° |
| 2026-05-09 14:32 | 69.22108 | 112.75991 | 30458 ft | 467 kts | 190° |
| 2026-05-09 14:32 | 69.15678 | 112.73243 | 30460 ft | 466 kts | 191° |
| 2026-05-09 14:33 | 69.09270 | 112.70502 | 30478 ft | 466 kts | 190° |
| 2026-05-09 14:33 | 69.02860 | 112.67791 | 30463 ft | 466 kts | 191° |
| 2026-05-09 14:34 | 68.96455 | 112.65084 | 30486 ft | 466 kts | 191° |
| 2026-05-09 14:34 | 68.90047 | 112.62380 | 30492 ft | 466 kts | 190° |
| 2026-05-09 14:35 | 68.83640 | 112.59726 | 30510 ft | 465 kts | 190° |
| 2026-05-09 14:35 | 68.77238 | 112.57075 | 30504 ft | 466 kts | 190° |
| 2026-05-09 14:36 | 68.70833 | 112.54444 | 30500 ft | 465 kts | 190° |
| 2026-05-09 14:36 | 68.64427 | 112.51835 | 30509 ft | 465 kts | 191° |
| 2026-05-09 14:37 | 68.58022 | 112.49218 | 30510 ft | 465 kts | 189° |
| 2026-05-09 14:37 | 68.51620 | 112.46732 | 30536 ft | 465 kts | 188° |
| 2026-05-09 14:38 | 68.45163 | 112.45274 | 30533 ft | 465 kts | 186° |
| 2026-05-09 14:38 | 68.38714 | 112.43763 | 30542 ft | 465 kts | 187° |
| 2026-05-09 14:39 | 68.32262 | 112.42295 | 30538 ft | 464 kts | 187° |
| 2026-05-09 14:39 | 68.25831 | 112.40826 | 30558 ft | 463 kts | 186° |
| 2026-05-09 14:40 | 68.19407 | 112.39385 | 30560 ft | 463 kts | 186° |
| 2026-05-09 14:40 | 68.12977 | 112.37966 | 30570 ft | 463 kts | 188° |
| 2026-05-09 14:41 | 68.06531 | 112.36542 | 30575 ft | 464 kts | 187° |
| 2026-05-09 14:41 | 68.00103 | 112.35147 | 30573 ft | 460 kts | 187° |
| 2026-05-09 14:42 | 67.94769 | 112.33987 | 30583 ft | 458 kts | 188° |
| 2026-05-09 14:42 | 67.88416 | 112.32600 | 30588 ft | 458 kts | 187° |
| 2026-05-09 14:43 | 67.82057 | 112.31234 | 30597 ft | 458 kts | 187° |
| 2026-05-09 14:43 | 67.75700 | 112.29876 | 30599 ft | 458 kts | 187° |
| 2026-05-09 14:44 | 67.69345 | 112.28525 | 30609 ft | 458 kts | 188° |
| 2026-05-09 14:44 | 67.62993 | 112.27187 | 30593 ft | 457 kts | 188° |
| 2026-05-09 14:45 | 67.56650 | 112.25839 | 30607 ft | 457 kts | 188° |
| 2026-05-09 14:45 | 67.50312 | 112.24513 | 30614 ft | 457 kts | 188° |
| 2026-05-09 14:46 | 67.43966 | 112.23197 | 30627 ft | 457 kts | 188° |
| 2026-05-09 14:46 | 67.37628 | 112.21878 | 30621 ft | 457 kts | 188° |
| 2026-05-09 14:47 | 67.31281 | 112.20562 | 30607 ft | 458 kts | 188° |
| 2026-05-09 14:47 | 67.24921 | 112.19252 | 30631 ft | 459 kts | 187° |
| 2026-05-09 14:48 | 67.18557 | 112.17961 | 30642 ft | 459 kts | 187° |
| 2026-05-09 14:48 | 67.12189 | 112.16683 | 30643 ft | 459 kts | 187° |
| 2026-05-09 14:49 | 67.05816 | 112.15395 | 30650 ft | 459 kts | 188° |
| 2026-05-09 14:49 | 66.99454 | 112.14107 | 30643 ft | 459 kts | 188° |
| 2026-05-09 14:50 | 66.93104 | 112.12840 | 30644 ft | 457 kts | 187° |
| 2026-05-09 14:50 | 66.86762 | 112.11584 | 30653 ft | 457 kts | 187° |
| 2026-05-09 14:51 | 66.80423 | 112.10335 | 30652 ft | 457 kts | 187° |
| 2026-05-09 14:51 | 66.74082 | 112.09087 | 30652 ft | 457 kts | 188° |
| 2026-05-09 14:52 | 66.67747 | 112.07842 | 30653 ft | 457 kts | 188° |
| 2026-05-09 14:52 | 66.61409 | 112.06622 | 30649 ft | 457 kts | 188° |
| 2026-05-09 14:53 | 66.55058 | 112.05406 | 30650 ft | 457 kts | 188° |
| 2026-05-09 14:53 | 66.48758 | 112.04188 | 30658 ft | 457 kts | 187° |
| 2026-05-09 14:54 | 66.42438 | 112.02470 | 30721 ft | 461 kts | 192° |
| 2026-05-09 14:54 | 66.39271 | 112.00940 | 30871 ft | 467 kts | 195° |
| 2026-05-09 14:54 | 66.36107 | 111.98951 | 31073 ft | 471 kts | 199° |
| 2026-05-09 14:55 | 66.32972 | 111.96529 | 31419 ft | 472 kts | 201° |
| 2026-05-09 14:55 | 66.29834 | 111.94089 | 31858 ft | 472 kts | 200° |
| 2026-05-09 14:55 | 66.26658 | 111.91670 | 32359 ft | 471 kts | 200° |
| 2026-05-09 14:55 | 66.23525 | 111.89293 | 32750 ft | 472 kts | 199° |
| 2026-05-09 14:56 | 66.20414 | 111.86944 | 33126 ft | 473 kts | 200° |
| 2026-05-09 14:56 | 66.17223 | 111.84540 | 33550 ft | 474 kts | 200° |
| 2026-05-09 14:56 | 66.14071 | 111.82158 | 33914 ft | 474 kts | 199° |
| 2026-05-09 14:56 | 66.10962 | 111.79802 | 34220 ft | 474 kts | 199° |
| 2026-05-09 14:57 | 66.07754 | 111.77396 | 34490 ft | 475 kts | 199° |
| 2026-05-09 14:57 | 66.04596 | 111.75030 | 34772 ft | 475 kts | 200° |
| 2026-05-09 14:57 | 66.01472 | 111.72683 | 35041 ft | 475 kts | 200° |
| 2026-05-09 14:57 | 65.98273 | 111.70281 | 35276 ft | 476 kts | 200° |
| 2026-05-09 14:58 | 65.95100 | 111.67912 | 35484 ft | 477 kts | 199° |
| 2026-05-09 14:58 | 65.91925 | 111.65549 | 35656 ft | 477 kts | 200° |
| 2026-05-09 14:58 | 65.85565 | 111.60829 | 35676 ft | 478 kts | 199° |
| 2026-05-09 14:59 | 65.79235 | 111.56181 | 35682 ft | 478 kts | 199° |
| 2026-05-09 14:59 | 65.72860 | 111.51508 | 35683 ft | 478 kts | 199° |
| 2026-05-09 15:00 | 65.66489 | 111.46849 | 35677 ft | 478 kts | 199° |
| 2026-05-09 15:00 | 65.60104 | 111.42211 | 35682 ft | 478 kts | 199° |
| 2026-05-09 15:01 | 65.50538 | 111.35310 | 35692 ft | 478 kts | 199° |
| 2026-05-09 15:02 | 65.44155 | 111.30729 | 35689 ft | 479 kts | 199° |
| 2026-05-09 15:02 | 65.37772 | 111.26183 | 35685 ft | 479 kts | 199° |
| 2026-05-09 15:03 | 65.31378 | 111.21645 | 35696 ft | 479 kts | 199° |
| 2026-05-09 15:03 | 65.24982 | 111.17132 | 35704 ft | 479 kts | 199° |
| 2026-05-09 15:04 | 65.18579 | 111.12637 | 35696 ft | 479 kts | 199° |
| 2026-05-09 15:06 | 64.92968 | 110.94897 | 35712 ft | 480 kts | 199° |
| 2026-05-09 15:06 | 64.86566 | 110.90457 | 35718 ft | 479 kts | 199° |
| 2026-05-09 15:07 | 64.80168 | 110.86023 | 35710 ft | 479 kts | 199° |
| 2026-05-09 15:07 | 64.73757 | 110.81614 | 35728 ft | 480 kts | 199° |
| 2026-05-09 15:08 | 64.67376 | 110.77250 | 35727 ft | 480 kts | 199° |
| 2026-05-09 15:08 | 64.57739 | 110.70704 | 35733 ft | 480 kts | 199° |
| 2026-05-09 15:10 | 64.32020 | 110.53474 | 35745 ft | 481 kts | 199° |
| 2026-05-09 15:11 | 64.25579 | 110.49211 | 35751 ft | 481 kts | 199° |
| 2026-05-09 15:11 | 64.19140 | 110.44970 | 35749 ft | 481 kts | 199° |
| 2026-05-09 15:12 | 64.12692 | 110.40749 | 35752 ft | 482 kts | 199° |
| 2026-05-09 15:12 | 64.06236 | 110.36536 | 35757 ft | 482 kts | 199° |
| 2026-05-09 15:13 | 63.99785 | 110.32347 | 35768 ft | 482 kts | 199° |
| 2026-05-09 15:13 | 63.93330 | 110.28176 | 35767 ft | 482 kts | 199° |
| 2026-05-09 15:14 | 63.86869 | 110.24023 | 35768 ft | 482 kts | 199° |
| 2026-05-09 15:14 | 63.80415 | 110.19894 | 35772 ft | 482 kts | 199° |
| 2026-05-09 15:15 | 63.75045 | 110.16474 | 35774 ft | 482 kts | 199° |
| 2026-05-09 15:15 | 63.67490 | 110.11685 | 35776 ft | 482 kts | 199° |
| 2026-05-09 15:16 | 63.61027 | 110.07609 | 35777 ft | 482 kts | 198° |
| 2026-05-09 15:16 | 63.54560 | 110.03558 | 35776 ft | 483 kts | 199° |
| 2026-05-09 15:17 | 63.48089 | 109.99514 | 35779 ft | 483 kts | 199° |
| 2026-05-09 15:17 | 63.41613 | 109.95490 | 35782 ft | 483 kts | 199° |
| 2026-05-09 15:18 | 63.35130 | 109.91485 | 35782 ft | 483 kts | 199° |
| 2026-05-09 15:18 | 63.28655 | 109.87493 | 35783 ft | 483 kts | 199° |
| 2026-05-09 15:19 | 63.22174 | 109.83506 | 35783 ft | 483 kts | 199° |
| 2026-05-09 15:19 | 63.15695 | 109.79539 | 35793 ft | 483 kts | 199° |
| 2026-05-09 15:20 | 63.05969 | 109.73630 | 35796 ft | 483 kts | 199° |
| 2026-05-09 15:21 | 62.99486 | 109.69717 | 35799 ft | 483 kts | 199° |
| 2026-05-09 15:21 | 62.94089 | 109.66480 | 35790 ft | 483 kts | 199° |
| 2026-05-09 15:22 | 62.87597 | 109.62593 | 35799 ft | 484 kts | 199° |
| 2026-05-09 15:22 | 62.81103 | 109.58723 | 35806 ft | 484 kts | 199° |
| 2026-05-09 15:23 | 62.74610 | 109.54872 | 35813 ft | 484 kts | 199° |
| 2026-05-09 15:23 | 62.68113 | 109.51038 | 35788 ft | 484 kts | 199° |
| 2026-05-09 15:24 | 62.61599 | 109.47216 | 35813 ft | 484 kts | 199° |
| 2026-05-09 15:24 | 62.55101 | 109.43413 | 35819 ft | 484 kts | 199° |
| 2026-05-09 15:25 | 62.48601 | 109.39627 | 35828 ft | 484 kts | 199° |
| 2026-05-09 15:25 | 62.42092 | 109.35854 | 35829 ft | 484 kts | 199° |
| 2026-05-09 15:26 | 62.32334 | 109.30235 | 35828 ft | 484 kts | 199° |
| 2026-05-09 15:26 | 62.25838 | 109.26509 | 35837 ft | 483 kts | 199° |
| 2026-05-09 15:27 | 62.19341 | 109.22801 | 35839 ft | 483 kts | 199° |
| 2026-05-09 15:27 | 62.12851 | 109.19115 | 35852 ft | 483 kts | 199° |
| 2026-05-09 15:28 | 62.06360 | 109.15450 | 35834 ft | 482 kts | 199° |
| 2026-05-09 15:28 | 61.99864 | 109.11791 | 35853 ft | 482 kts | 199° |
| 2026-05-09 15:29 | 61.93370 | 109.08149 | 35856 ft | 483 kts | 199° |
| 2026-05-09 15:29 | 61.86878 | 109.04526 | 35867 ft | 483 kts | 199° |
| 2026-05-09 15:30 | 61.80383 | 109.00919 | 35844 ft | 483 kts | 199° |
| 2026-05-09 15:30 | 61.73888 | 108.97332 | 35869 ft | 482 kts | 199° |
| 2026-05-09 15:31 | 61.67390 | 108.93752 | 35883 ft | 482 kts | 199° |
| 2026-05-09 15:31 | 61.60893 | 108.90191 | 35886 ft | 482 kts | 199° |
| 2026-05-09 15:32 | 61.54386 | 108.86644 | 35891 ft | 482 kts | 199° |
| 2026-05-09 15:32 | 61.47886 | 108.83124 | 35870 ft | 482 kts | 200° |
| 2026-05-09 15:33 | 61.41389 | 108.79596 | 35895 ft | 482 kts | 200° |
| 2026-05-09 15:33 | 61.34932 | 108.76100 | 35905 ft | 482 kts | 200° |
| 2026-05-09 15:34 | 61.28434 | 108.72605 | 35902 ft | 482 kts | 199° |
| 2026-05-09 15:34 | 61.21934 | 108.69133 | 35873 ft | 482 kts | 200° |
| 2026-05-09 15:35 | 61.15427 | 108.65675 | 35895 ft | 483 kts | 200° |
| 2026-05-09 15:35 | 61.08909 | 108.62218 | 35913 ft | 483 kts | 200° |
| 2026-05-09 15:36 | 61.02403 | 108.58788 | 35914 ft | 483 kts | 200° |
| 2026-05-09 15:36 | 60.95901 | 108.55378 | 35915 ft | 483 kts | 200° |
| 2026-05-09 15:37 | 60.89391 | 108.51972 | 35912 ft | 483 kts | 200° |
| 2026-05-09 15:37 | 60.82877 | 108.48567 | 35926 ft | 483 kts | 200° |
| 2026-05-09 15:38 | 60.76345 | 108.45174 | 35925 ft | 483 kts | 200° |
| 2026-05-09 15:38 | 60.69830 | 108.41809 | 35923 ft | 483 kts | 200° |
| 2026-05-09 15:39 | 60.63313 | 108.38467 | 35913 ft | 483 kts | 200° |
| 2026-05-09 15:39 | 60.56838 | 108.35152 | 35930 ft | 482 kts | 200° |
| 2026-05-09 15:40 | 60.50321 | 108.31828 | 35938 ft | 482 kts | 200° |
| 2026-05-09 15:40 | 60.43809 | 108.28523 | 35939 ft | 482 kts | 200° |
| 2026-05-09 15:41 | 60.37290 | 108.25229 | 35897 ft | 483 kts | 200° |
| 2026-05-09 15:41 | 60.30774 | 108.21958 | 35940 ft | 482 kts | 200° |
| 2026-05-09 15:42 | 60.24180 | 108.18650 | 35947 ft | 483 kts | 200° |
| 2026-05-09 15:42 | 60.17666 | 108.15402 | 35955 ft | 483 kts | 200° |
| 2026-05-09 15:43 | 60.11147 | 108.12168 | 35952 ft | 483 kts | 200° |
| 2026-05-09 15:43 | 60.04644 | 108.08820 | 35943 ft | 480 kts | 203° |
| 2026-05-09 15:44 | 59.98394 | 108.04398 | 35950 ft | 475 kts | 208° |
| 2026-05-09 15:44 | 59.92233 | 107.99545 | 35960 ft | 476 kts | 208° |
| 2026-05-09 15:45 | 59.86060 | 107.94764 | 35969 ft | 476 kts | 208° |
| 2026-05-09 15:45 | 59.79879 | 107.89996 | 35933 ft | 476 kts | 208° |
| 2026-05-09 15:46 | 59.73708 | 107.85244 | 35955 ft | 475 kts | 208° |
| 2026-05-09 15:46 | 59.67543 | 107.80503 | 35967 ft | 475 kts | 208° |
| 2026-05-09 15:47 | 59.61374 | 107.75780 | 35967 ft | 475 kts | 208° |
| 2026-05-09 15:47 | 59.55177 | 107.71057 | 35965 ft | 475 kts | 208° |
| 2026-05-09 15:48 | 59.49010 | 107.66389 | 35956 ft | 474 kts | 209° |
| 2026-05-09 15:48 | 59.42856 | 107.61730 | 35972 ft | 474 kts | 209° |
| 2026-05-09 15:49 | 59.36695 | 107.57084 | 35967 ft | 474 kts | 209° |
| 2026-05-09 15:49 | 59.30524 | 107.52453 | 35970 ft | 474 kts | 209° |
| 2026-05-09 15:50 | 59.24389 | 107.47883 | 35943 ft | 474 kts | 210° |
| 2026-05-09 15:50 | 59.18234 | 107.43297 | 35968 ft | 474 kts | 210° |
| 2026-05-09 15:51 | 59.12014 | 107.38678 | 35976 ft | 474 kts | 210° |
| 2026-05-09 15:51 | 59.05855 | 107.34126 | 35975 ft | 474 kts | 210° |
| 2026-05-09 15:52 | 58.96608 | 107.27337 | 35968 ft | 474 kts | 210° |
| 2026-05-09 15:53 | 58.90439 | 107.22820 | 35982 ft | 474 kts | 210° |
| 2026-05-09 15:53 | 58.84237 | 107.18297 | 35984 ft | 474 kts | 210° |
| 2026-05-09 15:54 | 58.78066 | 107.13816 | 35987 ft | 474 kts | 210° |
| 2026-05-09 15:54 | 58.71888 | 107.09360 | 35961 ft | 474 kts | 210° |
| 2026-05-09 15:55 | 58.65750 | 107.04938 | 35984 ft | 473 kts | 210° |
| 2026-05-09 15:55 | 58.59544 | 107.00477 | 35989 ft | 473 kts | 210° |
| 2026-05-09 15:56 | 58.53379 | 106.96069 | 35992 ft | 473 kts | 210° |
| 2026-05-09 15:56 | 58.47205 | 106.91679 | 35925 ft | 473 kts | 211° |
| 2026-05-09 15:57 | 58.41038 | 106.87316 | 35981 ft | 472 kts | 211° |
| 2026-05-09 15:57 | 58.34896 | 106.82949 | 35992 ft | 472 kts | 212° |
| 2026-05-09 15:58 | 58.28733 | 106.78576 | 35988 ft | 472 kts | 211° |
| 2026-05-09 15:58 | 58.22597 | 106.74249 | 35990 ft | 472 kts | 211° |
| 2026-05-09 15:59 | 58.16400 | 106.69902 | 36000 ft | 472 kts | 211° |
| 2026-05-09 15:59 | 58.10237 | 106.65597 | 35995 ft | 472 kts | 211° |
| 2026-05-09 16:00 | 58.05114 | 106.62031 | 35993 ft | 472 kts | 211° |
| 2026-05-09 16:00 | 57.98947 | 106.57753 | 35996 ft | 472 kts | 211° |
| 2026-05-09 16:01 | 57.92778 | 106.53491 | 35963 ft | 472 kts | 211° |
| 2026-05-09 16:01 | 57.86601 | 106.49237 | 35988 ft | 472 kts | 211° |
| 2026-05-09 16:02 | 57.80407 | 106.44988 | 35993 ft | 472 kts | 211° |
| 2026-05-09 16:02 | 57.71140 | 106.38662 | 35995 ft | 472 kts | 211° |
| 2026-05-09 16:03 | 57.64968 | 106.34468 | 35978 ft | 472 kts | 211° |
| 2026-05-09 16:03 | 57.58793 | 106.30291 | 35994 ft | 472 kts | 211° |
| 2026-05-09 16:04 | 57.52615 | 106.26130 | 35994 ft | 472 kts | 211° |
| 2026-05-09 16:04 | 57.46412 | 106.21955 | 35996 ft | 472 kts | 211° |
| 2026-05-09 16:05 | 57.40230 | 106.17806 | 35974 ft | 470 kts | 211° |
| 2026-05-09 16:05 | 57.34079 | 106.13705 | 35990 ft | 469 kts | 211° |
| 2026-05-09 16:06 | 57.27918 | 106.09612 | 36003 ft | 474 kts | 210° |
| 2026-05-09 16:06 | 57.24813 | 106.07547 | 36189 ft | 477 kts | 210° |
| 2026-05-09 16:06 | 57.21683 | 106.05475 | 36512 ft | 477 kts | 210° |
| 2026-05-09 16:07 | 57.18557 | 106.03412 | 36847 ft | 477 kts | 210° |
| 2026-05-09 16:07 | 57.15435 | 106.01354 | 37102 ft | 477 kts | 209° |
| 2026-05-09 16:07 | 57.12312 | 105.99301 | 37399 ft | 477 kts | 208° |
| 2026-05-09 16:07 | 57.09184 | 105.97253 | 37684 ft | 477 kts | 208° |
| 2026-05-09 16:08 | 57.06054 | 105.95208 | 37936 ft | 478 kts | 208° |
| 2026-05-09 16:08 | 57.02914 | 105.93161 | 37976 ft | 479 kts | 208° |
| 2026-05-09 16:08 | 56.96644 | 105.89089 | 37987 ft | 479 kts | 208° |
| 2026-05-09 16:09 | 56.90364 | 105.85018 | 37942 ft | 478 kts | 208° |
| 2026-05-09 16:09 | 56.84023 | 105.81189 | 37984 ft | 483 kts | 203° |
| 2026-05-09 16:10 | 56.77419 | 105.78512 | 37983 ft | 489 kts | 198° |
| 2026-05-09 16:10 | 56.70740 | 105.76249 | 37991 ft | 488 kts | 198° |
| 2026-05-09 16:11 | 56.64065 | 105.73966 | 37947 ft | 488 kts | 198° |
| 2026-05-09 16:11 | 56.57400 | 105.71697 | 37971 ft | 487 kts | 198° |
| 2026-05-09 16:12 | 56.50735 | 105.69444 | 37983 ft | 487 kts | 198° |
| 2026-05-09 16:12 | 56.44070 | 105.67199 | 37986 ft | 487 kts | 198° |
| 2026-05-09 16:13 | 56.37406 | 105.64961 | 37950 ft | 487 kts | 198° |
| 2026-05-09 16:13 | 56.30734 | 105.62727 | 37968 ft | 488 kts | 198° |
| 2026-05-09 16:14 | 56.24062 | 105.60505 | 37978 ft | 488 kts | 198° |
| 2026-05-09 16:14 | 56.17386 | 105.58290 | 37991 ft | 488 kts | 198° |
| 2026-05-09 16:15 | 56.10702 | 105.56077 | 37937 ft | 488 kts | 198° |
| 2026-05-09 16:15 | 56.04005 | 105.53870 | 37957 ft | 489 kts | 198° |
| 2026-05-09 16:16 | 55.97316 | 105.51680 | 37957 ft | 489 kts | 198° |
| 2026-05-09 16:16 | 55.90617 | 105.49491 | 37959 ft | 489 kts | 198° |
| 2026-05-09 16:17 | 55.83923 | 105.47309 | 37929 ft | 489 kts | 197° |
| 2026-05-09 16:17 | 55.77217 | 105.45145 | 37955 ft | 490 kts | 197° |
| 2026-05-09 16:18 | 55.70510 | 105.42991 | 37941 ft | 490 kts | 197° |
| 2026-05-09 16:18 | 55.63803 | 105.40852 | 37936 ft | 490 kts | 197° |
| 2026-05-09 16:19 | 55.57083 | 105.38728 | 37936 ft | 490 kts | 197° |
| 2026-05-09 16:19 | 55.50375 | 105.36621 | 37934 ft | 490 kts | 197° |
| 2026-05-09 16:20 | 55.43664 | 105.34522 | 37933 ft | 490 kts | 197° |
| 2026-05-09 16:20 | 55.36951 | 105.32429 | 37933 ft | 490 kts | 197° |
| 2026-05-09 16:21 | 55.30226 | 105.30335 | 37916 ft | 488 kts | 197° |
| 2026-05-09 16:21 | 55.23530 | 105.28265 | 37929 ft | 488 kts | 197° |
| 2026-05-09 16:22 | 55.16839 | 105.26202 | 37934 ft | 488 kts | 197° |
| 2026-05-09 16:22 | 55.10158 | 105.24148 | 37932 ft | 488 kts | 197° |
| 2026-05-09 16:23 | 55.03458 | 105.22095 | 37924 ft | 487 kts | 197° |
| 2026-05-09 16:23 | 54.96795 | 105.20064 | 37936 ft | 486 kts | 196° |
| 2026-05-09 16:24 | 54.90129 | 105.18040 | 37927 ft | 486 kts | 196° |
| 2026-05-09 16:24 | 54.83448 | 105.16020 | 37894 ft | 486 kts | 196° |
| 2026-05-09 16:25 | 54.76803 | 105.13913 | 37923 ft | 484 kts | 198° |
| 2026-05-09 16:25 | 54.70198 | 105.11549 | 37934 ft | 483 kts | 198° |
| 2026-05-09 16:26 | 54.63609 | 105.09201 | 37937 ft | 483 kts | 198° |
| 2026-05-09 16:26 | 54.57006 | 105.06880 | 37901 ft | 484 kts | 198° |
| 2026-05-09 16:27 | 54.50416 | 105.04580 | 37937 ft | 483 kts | 197° |
| 2026-05-09 16:27 | 54.43829 | 105.02296 | 37936 ft | 483 kts | 197° |
| 2026-05-09 16:28 | 54.37205 | 105.00007 | 37939 ft | 483 kts | 197° |
| 2026-05-09 16:28 | 54.30622 | 104.97736 | 37932 ft | 483 kts | 197° |
| 2026-05-09 16:29 | 54.24017 | 104.95466 | 37947 ft | 484 kts | 197° |
| 2026-05-09 16:29 | 54.17412 | 104.93210 | 37947 ft | 484 kts | 197° |
| 2026-05-09 16:30 | 54.10808 | 104.90961 | 37951 ft | 484 kts | 197° |
| 2026-05-09 16:30 | 54.04200 | 104.88715 | 37944 ft | 485 kts | 197° |
| 2026-05-09 16:31 | 53.97587 | 104.86468 | 37952 ft | 485 kts | 197° |
| 2026-05-09 16:31 | 53.90971 | 104.84225 | 37970 ft | 485 kts | 197° |
| 2026-05-09 16:32 | 53.85439 | 104.82362 | 37961 ft | 485 kts | 197° |
| 2026-05-09 16:32 | 53.77696 | 104.79764 | 37951 ft | 485 kts | 196° |
| 2026-05-09 16:33 | 53.71069 | 104.77556 | 37951 ft | 485 kts | 197° |
| 2026-05-09 16:33 | 53.64431 | 104.75380 | 37952 ft | 486 kts | 196° |
| 2026-05-09 16:34 | 53.57791 | 104.73285 | 37924 ft | 486 kts | 195° |
| 2026-05-09 16:34 | 53.51144 | 104.71199 | 37943 ft | 486 kts | 195° |
| 2026-05-09 16:35 | 53.44490 | 104.69120 | 37948 ft | 486 kts | 195° |
| 2026-05-09 16:35 | 53.37842 | 104.67047 | 37952 ft | 486 kts | 195° |
| 2026-05-09 16:36 | 53.24493 | 104.62904 | 37947 ft | 487 kts | 195° |
| 2026-05-09 16:37 | 53.18948 | 104.61196 | 37951 ft | 488 kts | 195° |
| 2026-05-09 16:37 | 53.12278 | 104.59129 | 37950 ft | 487 kts | 195° |
| 2026-05-09 16:38 | 53.05610 | 104.57030 | 37949 ft | 487 kts | 195° |
| 2026-05-09 16:38 | 52.99010 | 104.54617 | 37949 ft | 486 kts | 198° |
| 2026-05-09 16:39 | 52.92399 | 104.52096 | 37951 ft | 486 kts | 198° |
| 2026-05-09 16:39 | 52.85789 | 104.49593 | 37921 ft | 486 kts | 198° |
| 2026-05-09 16:40 | 52.79140 | 104.47092 | 37938 ft | 486 kts | 196° |
| 2026-05-09 16:42 | 52.51899 | 104.44174 | 37939 ft | 491 kts | 186° |
| 2026-05-09 16:42 | 52.45062 | 104.43808 | 37937 ft | 491 kts | 186° |
| 2026-05-09 16:43 | 52.38221 | 104.43444 | 37937 ft | 491 kts | 186° |
| 2026-05-09 16:43 | 52.31397 | 104.43075 | 37928 ft | 491 kts | 185° |
| 2026-05-09 16:44 | 52.24546 | 104.43192 | 37933 ft | 494 kts | 179° |
| 2026-05-09 16:44 | 52.17702 | 104.44471 | 37937 ft | 495 kts | 175° |
| 2026-05-09 16:45 | 52.10871 | 104.45948 | 37914 ft | 495 kts | 175° |
| 2026-05-09 16:45 | 52.04036 | 104.47404 | 37937 ft | 495 kts | 175° |
| 2026-05-09 16:46 | 51.97211 | 104.48855 | 37941 ft | 495 kts | 175° |
| 2026-05-09 16:46 | 51.90379 | 104.50302 | 37944 ft | 495 kts | 175° |
| 2026-05-09 16:47 | 51.83522 | 104.51746 | 37941 ft | 495 kts | 175° |
| 2026-05-09 16:47 | 51.76691 | 104.53184 | 37950 ft | 495 kts | 175° |
| 2026-05-09 16:48 | 51.69855 | 104.54623 | 37952 ft | 495 kts | 175° |
| 2026-05-09 16:48 | 51.63019 | 104.56058 | 37952 ft | 495 kts | 175° |
| 2026-05-09 16:49 | 51.56181 | 104.57506 | 37956 ft | 495 kts | 174° |
| 2026-05-09 16:50 | 51.45964 | 104.57706 | 37975 ft | 488 kts | 192° |
| 2026-05-09 16:50 | 51.39469 | 104.54846 | 37977 ft | 481 kts | 206° |
| 2026-05-09 16:51 | 51.33534 | 104.50009 | 37987 ft | 478 kts | 213° |
| 2026-05-09 16:51 | 51.27737 | 104.44761 | 38006 ft | 479 kts | 213° |
| 2026-05-09 16:52 | 51.21927 | 104.39552 | 38007 ft | 479 kts | 213° |
| 2026-05-09 16:52 | 51.16106 | 104.34386 | 37993 ft | 478 kts | 213° |
| 2026-05-09 16:53 | 51.10289 | 104.29232 | 38026 ft | 478 kts | 213° |
| 2026-05-09 16:53 | 51.04463 | 104.24075 | 38025 ft | 478 kts | 213° |
| 2026-05-09 16:54 | 50.98607 | 104.18913 | 38031 ft | 478 kts | 213° |
| 2026-05-09 16:54 | 50.92782 | 104.13798 | 38026 ft | 479 kts | 213° |
| 2026-05-09 16:55 | 50.86945 | 104.08693 | 38041 ft | 479 kts | 213° |
| 2026-05-09 16:55 | 50.81083 | 104.03580 | 38049 ft | 479 kts | 213° |
| 2026-05-09 16:56 | 50.75278 | 103.98524 | 38060 ft | 479 kts | 213° |
| 2026-05-09 16:56 | 50.69400 | 103.93409 | 38060 ft | 479 kts | 213° |
| 2026-05-09 16:57 | 50.63595 | 103.88374 | 38067 ft | 479 kts | 212° |
| 2026-05-09 16:57 | 50.57748 | 103.83324 | 38068 ft | 479 kts | 212° |
| 2026-05-09 16:58 | 50.51896 | 103.78289 | 38052 ft | 479 kts | 212° |
| 2026-05-09 16:58 | 50.46042 | 103.73267 | 38067 ft | 480 kts | 212° |
| 2026-05-09 16:59 | 50.40176 | 103.68253 | 38060 ft | 480 kts | 212° |
| 2026-05-09 16:59 | 50.34310 | 103.63256 | 38054 ft | 479 kts | 212° |
| 2026-05-09 17:00 | 50.28445 | 103.58279 | 38042 ft | 480 kts | 211° |
| 2026-05-09 17:00 | 50.22314 | 103.54064 | 38046 ft | 483 kts | 202° |
| 2026-05-09 17:01 | 50.15821 | 103.51227 | 38036 ft | 486 kts | 194° |
| 2026-05-09 17:01 | 50.09083 | 103.49852 | 38035 ft | 489 kts | 186° |
| 2026-05-09 17:02 | 50.02292 | 103.49212 | 38023 ft | 489 kts | 186° |
| 2026-05-09 17:02 | 49.95507 | 103.48568 | 38016 ft | 489 kts | 186° |
| 2026-05-09 17:03 | 49.88726 | 103.47911 | 38012 ft | 488 kts | 186° |
| 2026-05-09 17:05 | 49.61579 | 103.45267 | 38007 ft | 489 kts | 186° |
| 2026-05-09 17:05 | 49.54786 | 103.44611 | 38013 ft | 489 kts | 186° |
| 2026-05-09 17:06 | 49.47995 | 103.43955 | 38015 ft | 489 kts | 186° |
| 2026-05-09 17:06 | 49.41190 | 103.43303 | 38016 ft | 489 kts | 186° |
| 2026-05-09 17:07 | 49.34402 | 103.42654 | 38015 ft | 489 kts | 186° |
| 2026-05-09 17:07 | 49.27605 | 103.42007 | 38024 ft | 489 kts | 186° |
| 2026-05-09 17:08 | 49.20811 | 103.41365 | 38023 ft | 489 kts | 186° |
| 2026-05-09 17:08 | 49.10627 | 103.40394 | 38010 ft | 489 kts | 186° |
| 2026-05-09 17:09 | 49.03788 | 103.39748 | 38014 ft | 489 kts | 186° |
| 2026-05-09 17:09 | 48.97000 | 103.39116 | 38018 ft | 489 kts | 186° |
| 2026-05-09 17:10 | 48.90201 | 103.38486 | 38011 ft | 489 kts | 186° |
| 2026-05-09 17:10 | 48.83400 | 103.37844 | 38014 ft | 489 kts | 186° |
| 2026-05-09 17:11 | 48.76604 | 103.37202 | 38021 ft | 489 kts | 186° |
| 2026-05-09 17:11 | 48.69799 | 103.36569 | 38017 ft | 490 kts | 186° |
| 2026-05-09 17:12 | 48.62993 | 103.35942 | 38023 ft | 490 kts | 186° |
| 2026-05-09 17:12 | 48.56187 | 103.35308 | 38023 ft | 490 kts | 186° |
| 2026-05-09 17:13 | 48.50531 | 103.34777 | 38024 ft | 490 kts | 186° |
| 2026-05-09 17:13 | 48.43726 | 103.34146 | 38024 ft | 490 kts | 186° |
| 2026-05-09 17:14 | 48.36920 | 103.33522 | 38021 ft | 490 kts | 186° |
| 2026-05-09 17:14 | 48.30112 | 103.32901 | 38003 ft | 490 kts | 186° |
| 2026-05-09 17:15 | 48.23293 | 103.32281 | 38015 ft | 491 kts | 186° |
| 2026-05-09 17:15 | 48.16475 | 103.31663 | 38018 ft | 491 kts | 186° |
| 2026-05-09 17:17 | 47.89144 | 103.29208 | 38018 ft | 492 kts | 186° |
| 2026-05-09 17:18 | 47.82320 | 103.28583 | 38015 ft | 491 kts | 186° |
| 2026-05-09 17:18 | 47.75505 | 103.27962 | 38028 ft | 490 kts | 186° |
| 2026-05-09 17:19 | 47.68653 | 103.27346 | 38031 ft | 490 kts | 186° |
| 2026-05-09 17:19 | 47.61842 | 103.26739 | 38032 ft | 490 kts | 186° |
| 2026-05-09 17:20 | 47.55037 | 103.26133 | 38037 ft | 490 kts | 186° |
| 2026-05-09 17:20 | 47.48229 | 103.25529 | 38033 ft | 490 kts | 186° |
| 2026-05-09 17:21 | 47.41422 | 103.24932 | 38025 ft | 490 kts | 186° |
| 2026-05-09 17:21 | 47.34617 | 103.24332 | 38030 ft | 490 kts | 186° |
| 2026-05-09 17:22 | 47.27806 | 103.23723 | 38026 ft | 490 kts | 186° |
| 2026-05-09 17:22 | 47.21002 | 103.23120 | 38020 ft | 490 kts | 186° |
| 2026-05-09 17:23 | 47.14190 | 103.22521 | 38025 ft | 490 kts | 186° |
| 2026-05-09 17:23 | 47.07385 | 103.21927 | 38017 ft | 490 kts | 186° |
| 2026-05-09 17:25 | 46.86886 | 103.20154 | 38010 ft | 492 kts | 187° |
| 2026-05-09 17:25 | 46.80033 | 103.19570 | 37999 ft | 493 kts | 187° |
| 2026-05-09 17:26 | 46.73169 | 103.18980 | 38000 ft | 494 kts | 187° |
| 2026-05-09 17:26 | 46.66301 | 103.18378 | 37998 ft | 494 kts | 187° |
| 2026-05-09 17:27 | 46.59432 | 103.17784 | 37991 ft | 495 kts | 187° |
| 2026-05-09 17:27 | 46.52542 | 103.17193 | 37996 ft | 496 kts | 187° |
| 2026-05-09 17:28 | 46.45652 | 103.16606 | 37986 ft | 496 kts | 187° |
| 2026-05-09 17:28 | 46.38810 | 103.16026 | 38002 ft | 496 kts | 187° |
| 2026-05-09 17:29 | 46.31920 | 103.15444 | 37992 ft | 496 kts | 187° |
| 2026-05-09 17:29 | 46.25034 | 103.14867 | 37984 ft | 496 kts | 187° |
| 2026-05-09 17:30 | 46.18121 | 103.14288 | 37986 ft | 496 kts | 187° |
| 2026-05-09 17:30 | 46.11178 | 103.13689 | 37986 ft | 497 kts | 187° |
| 2026-05-09 17:31 | 46.04278 | 103.13098 | 37984 ft | 497 kts | 187° |
| 2026-05-09 17:32 | 45.87056 | 103.11648 | 37984 ft | 495 kts | 187° |
| 2026-05-09 17:33 | 45.80197 | 103.11076 | 37947 ft | 493 kts | 187° |
| 2026-05-09 17:33 | 45.73373 | 103.10510 | 37971 ft | 490 kts | 187° |
| 2026-05-09 17:34 | 45.66563 | 103.09946 | 37970 ft | 490 kts | 187° |
| 2026-05-09 17:35 | 45.42706 | 103.07986 | 37962 ft | 490 kts | 187° |
| 2026-05-09 17:36 | 45.35912 | 103.07426 | 37951 ft | 488 kts | 187° |
| 2026-05-09 17:36 | 45.29135 | 103.06857 | 37948 ft | 488 kts | 187° |
| 2026-05-09 17:37 | 45.22358 | 103.06296 | 37944 ft | 488 kts | 187° |
| 2026-05-09 17:37 | 45.15572 | 103.05744 | 37933 ft | 486 kts | 187° |
| 2026-05-09 17:38 | 45.08822 | 103.05193 | 37938 ft | 486 kts | 187° |
| 2026-05-09 17:39 | 44.98696 | 103.04373 | 37928 ft | 487 kts | 187° |
| 2026-05-09 17:39 | 44.91914 | 103.03824 | 37930 ft | 488 kts | 187° |
| 2026-05-09 17:40 | 44.85134 | 103.03276 | 37953 ft | 488 kts | 187° |
| 2026-05-09 17:40 | 44.78326 | 103.02726 | 37925 ft | 490 kts | 187° |
| 2026-05-09 17:41 | 44.71516 | 103.02179 | 37948 ft | 490 kts | 187° |
| 2026-05-09 17:41 | 44.64701 | 103.01634 | 37929 ft | 490 kts | 187° |
| 2026-05-09 17:42 | 44.57894 | 103.01088 | 37928 ft | 490 kts | 187° |
| 2026-05-09 17:42 | 44.51082 | 103.00547 | 37925 ft | 490 kts | 187° |
| 2026-05-09 17:43 | 44.44275 | 103.00006 | 37918 ft | 490 kts | 187° |
| 2026-05-09 17:43 | 44.37473 | 102.99466 | 37917 ft | 490 kts | 187° |
| 2026-05-09 17:44 | 44.30663 | 102.98928 | 37924 ft | 490 kts | 187° |
| 2026-05-09 17:44 | 44.23857 | 102.98390 | 37893 ft | 489 kts | 187° |
| 2026-05-09 17:45 | 44.17073 | 102.97857 | 37899 ft | 488 kts | 187° |
| 2026-05-09 17:45 | 44.10300 | 102.97324 | 37903 ft | 487 kts | 187° |
| 2026-05-09 17:46 | 44.03528 | 102.96794 | 37889 ft | 487 kts | 187° |
| 2026-05-09 17:46 | 43.96766 | 102.96265 | 37895 ft | 486 kts | 187° |
| 2026-05-09 17:47 | 43.90002 | 102.95736 | 37892 ft | 486 kts | 187° |
| 2026-05-09 17:47 | 43.83244 | 102.95211 | 37884 ft | 486 kts | 187° |
| 2026-05-09 17:48 | 43.76491 | 102.94685 | 37890 ft | 486 kts | 187° |
| 2026-05-09 17:48 | 43.69730 | 102.94160 | 37883 ft | 486 kts | 187° |
| 2026-05-09 17:49 | 43.62977 | 102.93641 | 37881 ft | 486 kts | 187° |
| 2026-05-09 17:49 | 43.56217 | 102.93118 | 37882 ft | 486 kts | 187° |
| 2026-05-09 17:50 | 43.49459 | 102.92596 | 37883 ft | 486 kts | 187° |
| 2026-05-09 17:50 | 43.40456 | 102.91907 | 37884 ft | 487 kts | 188° |
| 2026-05-09 17:51 | 43.33696 | 102.91388 | 37881 ft | 487 kts | 188° |
| 2026-05-09 17:51 | 43.26930 | 102.90870 | 37877 ft | 487 kts | 188° |
| 2026-05-09 17:52 | 43.20146 | 102.90353 | 37881 ft | 488 kts | 188° |
| 2026-05-09 17:52 | 43.13372 | 102.89837 | 37882 ft | 488 kts | 188° |
| 2026-05-09 17:53 | 43.06594 | 102.89321 | 37867 ft | 487 kts | 188° |
| 2026-05-09 17:53 | 42.99821 | 102.88808 | 37871 ft | 487 kts | 188° |
| 2026-05-09 17:54 | 42.93052 | 102.88297 | 37867 ft | 487 kts | 188° |
| 2026-05-09 17:54 | 42.86283 | 102.87786 | 37850 ft | 486 kts | 187° |
| 2026-05-09 17:55 | 42.79528 | 102.87279 | 37854 ft | 486 kts | 187° |
| 2026-05-09 17:55 | 42.72768 | 102.86772 | 37853 ft | 486 kts | 187° |
| 2026-05-09 17:56 | 42.66024 | 102.86266 | 37833 ft | 485 kts | 187° |
| 2026-05-09 17:57 | 42.55917 | 102.85513 | 37834 ft | 484 kts | 187° |
| 2026-05-09 17:57 | 42.49191 | 102.85013 | 37827 ft | 484 kts | 187° |
| 2026-05-09 17:58 | 42.42466 | 102.84514 | 37829 ft | 484 kts | 187° |
| 2026-05-09 17:58 | 42.35742 | 102.84017 | 37830 ft | 484 kts | 187° |
| 2026-05-09 17:59 | 42.29008 | 102.83521 | 37820 ft | 484 kts | 187° |
| 2026-05-09 17:59 | 42.22277 | 102.83028 | 37820 ft | 484 kts | 187° |
| 2026-05-09 18:00 | 42.15543 | 102.82537 | 37826 ft | 484 kts | 187° |
| 2026-05-09 18:00 | 42.08747 | 102.82298 | 38047 ft | 492 kts | 182° |
| 2026-05-09 18:00 | 42.05324 | 102.82542 | 38362 ft | 494 kts | 179° |
| 2026-05-09 18:01 | 42.01911 | 102.83055 | 38651 ft | 494 kts | 175° |
| 2026-05-09 18:01 | 41.98521 | 102.83835 | 38867 ft | 495 kts | 172° |
| 2026-05-09 18:01 | 41.95154 | 102.84882 | 38901 ft | 497 kts | 168° |
| 2026-05-09 18:02 | 41.88523 | 102.87525 | 38895 ft | 497 kts | 166° |
| 2026-05-09 18:02 | 41.81903 | 102.90206 | 38903 ft | 497 kts | 166° |
| 2026-05-09 18:03 | 41.75285 | 102.92856 | 38911 ft | 497 kts | 166° |
| 2026-05-09 18:03 | 41.68653 | 102.95495 | 38907 ft | 497 kts | 166° |
| 2026-05-09 18:04 | 41.61961 | 102.97673 | 38898 ft | 493 kts | 173° |
| 2026-05-09 18:04 | 41.55174 | 102.98797 | 38900 ft | 490 kts | 180° |
| 2026-05-09 18:05 | 41.48382 | 102.98927 | 38895 ft | 488 kts | 184° |
| 2026-05-09 18:05 | 41.41599 | 102.98855 | 38895 ft | 488 kts | 184° |
| 2026-05-09 18:06 | 41.34803 | 102.98801 | 38900 ft | 488 kts | 184° |
| 2026-05-09 18:06 | 41.28006 | 102.98807 | 38913 ft | 488 kts | 184° |
| 2026-05-09 18:07 | 41.21207 | 102.98837 | 38903 ft | 489 kts | 184° |
| 2026-05-09 18:07 | 41.14407 | 102.98864 | 38921 ft | 489 kts | 184° |
| 2026-05-09 18:08 | 41.07608 | 102.98890 | 38930 ft | 489 kts | 184° |
| 2026-05-09 18:08 | 41.00808 | 102.98916 | 38934 ft | 489 kts | 184° |
| 2026-05-09 18:09 | 40.94009 | 102.98941 | 38950 ft | 489 kts | 184° |
| 2026-05-09 18:09 | 40.87200 | 102.98967 | 38950 ft | 489 kts | 184° |
| 2026-05-09 18:10 | 40.80396 | 102.98992 | 38948 ft | 488 kts | 184° |
| 2026-05-09 18:10 | 40.73603 | 102.99018 | 38962 ft | 488 kts | 184° |
| 2026-05-09 18:11 | 40.66813 | 102.99044 | 38969 ft | 488 kts | 184° |
| 2026-05-09 18:11 | 40.60024 | 102.99069 | 38963 ft | 488 kts | 184° |
| 2026-05-09 18:12 | 40.53244 | 102.99094 | 38973 ft | 487 kts | 184° |
| 2026-05-09 18:12 | 40.46473 | 102.99119 | 38978 ft | 487 kts | 184° |
| 2026-05-09 18:13 | 40.39693 | 102.99145 | 38981 ft | 487 kts | 184° |
| 2026-05-09 18:13 | 40.32925 | 102.99170 | 38983 ft | 487 kts | 184° |
| 2026-05-09 18:14 | 40.26151 | 102.99195 | 38981 ft | 487 kts | 184° |
| 2026-05-09 18:14 | 40.19382 | 102.99220 | 38981 ft | 487 kts | 184° |
| 2026-05-09 18:15 | 40.12612 | 102.99248 | 38982 ft | 487 kts | 184° |
| 2026-05-09 18:15 | 40.05878 | 102.99272 | 38989 ft | 487 kts | 184° |
| 2026-05-09 18:16 | 39.99111 | 102.99296 | 38992 ft | 487 kts | 184° |
| 2026-05-09 18:16 | 39.92295 | 102.99323 | 38985 ft | 486 kts | 184° |
| 2026-05-09 18:17 | 39.85576 | 102.99347 | 38990 ft | 486 kts | 184° |
| 2026-05-09 18:17 | 39.78766 | 102.99373 | 38994 ft | 486 kts | 184° |
| 2026-05-09 18:18 | 39.72004 | 102.99400 | 38987 ft | 486 kts | 184° |
| 2026-05-09 18:18 | 39.65242 | 102.99428 | 38994 ft | 486 kts | 185° |
| 2026-05-09 18:19 | 39.58484 | 102.99455 | 38991 ft | 486 kts | 185° |
| 2026-05-09 18:19 | 39.48336 | 102.99499 | 38990 ft | 485 kts | 185° |
| 2026-05-09 18:20 | 39.41621 | 102.99790 | 38996 ft | 488 kts | 179° |
| 2026-05-09 18:20 | 39.34891 | 103.01205 | 39003 ft | 493 kts | 171° |
| 2026-05-09 18:21 | 39.28307 | 103.03837 | 38994 ft | 498 kts | 162° |
| 2026-05-09 18:21 | 39.21906 | 103.07448 | 39002 ft | 500 kts | 159° |
| 2026-05-09 18:22 | 39.15569 | 103.11133 | 39005 ft | 500 kts | 159° |
| 2026-05-09 18:22 | 39.09228 | 103.14797 | 39019 ft | 500 kts | 160° |
| 2026-05-09 18:23 | 39.02869 | 103.18453 | 39006 ft | 500 kts | 160° |
| 2026-05-09 18:23 | 38.96517 | 103.22092 | 39016 ft | 499 kts | 160° |
| 2026-05-09 18:24 | 38.90165 | 103.25721 | 39028 ft | 499 kts | 160° |
| 2026-05-09 18:25 | 38.80626 | 103.31161 | 39018 ft | 499 kts | 160° |
| 2026-05-09 18:25 | 38.74284 | 103.34774 | 39033 ft | 498 kts | 160° |
| 2026-05-09 18:26 | 38.67900 | 103.38395 | 39044 ft | 498 kts | 160° |
| 2026-05-09 18:26 | 38.61561 | 103.41986 | 39058 ft | 498 kts | 160° |
| 2026-05-09 18:27 | 38.55221 | 103.45574 | 39047 ft | 498 kts | 161° |
| 2026-05-09 18:27 | 38.49952 | 103.48551 | 39063 ft | 497 kts | 161° |
| 2026-05-09 18:28 | 38.43624 | 103.52118 | 39067 ft | 497 kts | 161° |
| 2026-05-09 18:28 | 38.37289 | 103.55679 | 39076 ft | 497 kts | 161° |
| 2026-05-09 18:29 | 38.30954 | 103.59236 | 39080 ft | 497 kts | 161° |
| 2026-05-09 18:29 | 38.24633 | 103.62779 | 39086 ft | 496 kts | 162° |
| 2026-05-09 18:30 | 38.18316 | 103.66309 | 39107 ft | 496 kts | 161° |
| 2026-05-09 18:30 | 38.11997 | 103.69835 | 39119 ft | 496 kts | 162° |
| 2026-05-09 18:31 | 38.05682 | 103.73355 | 39118 ft | 496 kts | 162° |
| 2026-05-09 18:31 | 37.99369 | 103.76866 | 39133 ft | 496 kts | 162° |
| 2026-05-09 18:32 | 37.93051 | 103.80374 | 39134 ft | 496 kts | 162° |
| 2026-05-09 18:32 | 37.86731 | 103.83876 | 39135 ft | 496 kts | 162° |
| 2026-05-09 18:33 | 37.80415 | 103.87377 | 39137 ft | 495 kts | 162° |
| 2026-05-09 18:33 | 37.74097 | 103.90864 | 39144 ft | 495 kts | 162° |
| 2026-05-09 18:34 | 37.67778 | 103.94348 | 39159 ft | 495 kts | 162° |
| 2026-05-09 18:34 | 37.61454 | 103.97828 | 39165 ft | 495 kts | 162° |
| 2026-05-09 18:35 | 37.55132 | 104.01291 | 39156 ft | 496 kts | 162° |
| 2026-05-09 18:35 | 37.48801 | 104.04758 | 39176 ft | 496 kts | 162° |
| 2026-05-09 18:36 | 37.42445 | 104.08239 | 39183 ft | 496 kts | 162° |
| 2026-05-09 18:36 | 37.36109 | 104.11704 | 39183 ft | 496 kts | 162° |
| 2026-05-09 18:37 | 37.29787 | 104.15088 | 39177 ft | 493 kts | 165° |
| 2026-05-09 18:37 | 37.23269 | 104.17731 | 39204 ft | 486 kts | 172° |
| 2026-05-09 18:38 | 37.16699 | 104.19410 | 39207 ft | 481 kts | 177° |
| 2026-05-09 18:38 | 37.10093 | 104.20826 | 39218 ft | 481 kts | 177° |
| 2026-05-09 18:40 | 36.83625 | 104.26539 | 39211 ft | 481 kts | 178° |
| 2026-05-09 18:41 | 36.77045 | 104.27960 | 39217 ft | 479 kts | 178° |
| 2026-05-09 18:41 | 36.70516 | 104.29360 | 39225 ft | 479 kts | 178° |
| 2026-05-09 18:42 | 36.63909 | 104.30779 | 39226 ft | 479 kts | 178° |
| 2026-05-09 18:42 | 36.57334 | 104.32197 | 39216 ft | 479 kts | 179° |
| 2026-05-09 18:43 | 36.50772 | 104.33549 | 39230 ft | 476 kts | 181° |
| 2026-05-09 18:43 | 36.44257 | 104.34201 | 39243 ft | 468 kts | 187° |
| 2026-05-09 18:44 | 36.37741 | 104.34304 | 39239 ft | 469 kts | 188° |
| 2026-05-09 18:44 | 36.31203 | 104.34414 | 39238 ft | 472 kts | 188° |
| 2026-05-09 18:45 | 36.24644 | 104.34530 | 39249 ft | 472 kts | 188° |
| 2026-05-09 18:45 | 36.18071 | 104.34640 | 39251 ft | 472 kts | 188° |
| 2026-05-09 18:46 | 36.11509 | 104.34742 | 39231 ft | 472 kts | 188° |
| 2026-05-09 18:46 | 36.04936 | 104.34849 | 39260 ft | 472 kts | 188° |
| 2026-05-09 18:47 | 35.98371 | 104.34961 | 39266 ft | 473 kts | 188° |
| 2026-05-09 18:47 | 35.91786 | 104.35076 | 39262 ft | 473 kts | 188° |
| 2026-05-09 18:48 | 35.85216 | 104.35193 | 39254 ft | 470 kts | 188° |
| 2026-05-09 18:48 | 35.78693 | 104.35298 | 39261 ft | 466 kts | 188° |
| 2026-05-09 18:49 | 35.72206 | 104.35392 | 39264 ft | 466 kts | 188° |
| 2026-05-09 18:49 | 35.65719 | 104.35494 | 39265 ft | 466 kts | 188° |
| 2026-05-09 18:50 | 35.59229 | 104.35601 | 39264 ft | 466 kts | 188° |
| 2026-05-09 18:50 | 35.52743 | 104.35709 | 39268 ft | 466 kts | 188° |
| 2026-05-09 18:51 | 35.46255 | 104.35807 | 39267 ft | 466 kts | 188° |
| 2026-05-09 18:51 | 35.39759 | 104.35900 | 39258 ft | 466 kts | 188° |
| 2026-05-09 18:52 | 35.33323 | 104.36006 | 39242 ft | 460 kts | 188° |
| 2026-05-09 18:52 | 35.26932 | 104.36105 | 39236 ft | 459 kts | 188° |
| 2026-05-09 18:53 | 35.20552 | 104.36203 | 39244 ft | 459 kts | 188° |
| 2026-05-09 18:53 | 35.14175 | 104.36303 | 39221 ft | 459 kts | 188° |
| 2026-05-09 18:54 | 35.07800 | 104.36406 | 39221 ft | 457 kts | 188° |
| 2026-05-09 18:54 | 35.01433 | 104.36506 | 39226 ft | 457 kts | 188° |
| 2026-05-09 18:55 | 34.95070 | 104.36606 | 39229 ft | 458 kts | 188° |
| 2026-05-09 18:55 | 34.88699 | 104.36707 | 39192 ft | 458 kts | 188° |
| 2026-05-09 18:56 | 34.82326 | 104.36809 | 39220 ft | 459 kts | 189° |
| 2026-05-09 18:56 | 34.75935 | 104.36909 | 39222 ft | 458 kts | 188° |
| 2026-05-09 18:57 | 34.69549 | 104.37009 | 39223 ft | 459 kts | 189° |
| 2026-05-09 18:57 | 34.63166 | 104.37109 | 39202 ft | 458 kts | 188° |
| 2026-05-09 18:58 | 34.56799 | 104.37210 | 39223 ft | 457 kts | 188° |
| 2026-05-09 18:58 | 34.50428 | 104.37311 | 39229 ft | 458 kts | 189° |
| 2026-05-09 18:59 | 34.44050 | 104.37410 | 39229 ft | 458 kts | 188° |
| 2026-05-09 18:59 | 34.37687 | 104.37509 | 39200 ft | 457 kts | 188° |
| 2026-05-09 19:00 | 34.31319 | 104.37608 | 39224 ft | 458 kts | 188° |
| 2026-05-09 19:00 | 34.21761 | 104.37758 | 39230 ft | 458 kts | 188° |
| 2026-05-09 19:01 | 34.15386 | 104.37858 | 39209 ft | 458 kts | 188° |
| 2026-05-09 19:01 | 34.09024 | 104.37958 | 39204 ft | 458 kts | 188° |
| 2026-05-09 19:02 | 34.02650 | 104.38057 | 39210 ft | 458 kts | 188° |
| 2026-05-09 19:02 | 33.96276 | 104.38158 | 39204 ft | 458 kts | 188° |
| 2026-05-09 19:03 | 33.89890 | 104.38259 | 39210 ft | 459 kts | 188° |
| 2026-05-09 19:03 | 33.83513 | 104.38362 | 39198 ft | 457 kts | 188° |
| 2026-05-09 19:04 | 33.77163 | 104.38465 | 39208 ft | 456 kts | 188° |
| 2026-05-09 19:04 | 33.70838 | 104.38565 | 39212 ft | 457 kts | 188° |
| 2026-05-09 19:05 | 33.65429 | 104.39130 | 39209 ft | 467 kts | 180° |
| 2026-05-09 19:05 | 33.59037 | 104.40975 | 39204 ft | 479 kts | 171° |
| 2026-05-09 19:06 | 33.52814 | 104.44139 | 39219 ft | 493 kts | 161° |
| 2026-05-09 19:06 | 33.46874 | 104.48330 | 39213 ft | 495 kts | 158° |
| 2026-05-09 19:07 | 33.40795 | 104.51982 | 39198 ft | 483 kts | 168° |
| 2026-05-09 19:07 | 33.34477 | 104.54349 | 39174 ft | 471 kts | 178° |
| 2026-05-09 19:08 | 33.28077 | 104.55499 | 39176 ft | 458 kts | 187° |
| 2026-05-09 19:08 | 33.21742 | 104.55903 | 39193 ft | 456 kts | 188° |
| 2026-05-09 19:09 | 33.15398 | 104.56291 | 39188 ft | 456 kts | 188° |
| 2026-05-09 19:09 | 33.09057 | 104.56690 | 39206 ft | 457 kts | 188° |
| 2026-05-09 19:10 | 33.02712 | 104.57095 | 39168 ft | 456 kts | 188° |
| 2026-05-09 19:10 | 32.96379 | 104.57500 | 39188 ft | 456 kts | 188° |
| 2026-05-09 19:11 | 32.90024 | 104.57906 | 39255 ft | 458 kts | 188° |
| 2026-05-09 19:11 | 32.83734 | 104.58312 | 39168 ft | 456 kts | 188° |
| 2026-05-09 19:12 | 32.77409 | 104.58723 | 39196 ft | 452 kts | 189° |
| 2026-05-09 19:12 | 32.71162 | 104.59040 | 39194 ft | 449 kts | 190° |
| 2026-05-09 19:13 | 32.64935 | 104.59299 | 39179 ft | 448 kts | 189° |
| 2026-05-09 19:13 | 32.58663 | 104.59570 | 39188 ft | 453 kts | 189° |
| 2026-05-09 19:14 | 32.52369 | 104.59864 | 39174 ft | 452 kts | 190° |
| 2026-05-09 19:14 | 32.46086 | 104.60152 | 39186 ft | 451 kts | 190° |
| 2026-05-09 19:15 | 32.39810 | 104.60440 | 39176 ft | 451 kts | 190° |
| 2026-05-09 19:15 | 32.33526 | 104.60774 | 39192 ft | 452 kts | 189° |
| 2026-05-09 19:16 | 32.27240 | 104.61125 | 39162 ft | 452 kts | 190° |
| 2026-05-09 19:16 | 32.20959 | 104.61468 | 39168 ft | 451 kts | 189° |
| 2026-05-09 19:17 | 32.14660 | 104.61806 | 39186 ft | 452 kts | 190° |
| 2026-05-09 19:17 | 32.08379 | 104.62154 | 39185 ft | 451 kts | 190° |
| 2026-05-09 19:18 | 32.02101 | 104.62497 | 39152 ft | 452 kts | 190° |
| 2026-05-09 19:18 | 31.95818 | 104.62846 | 39177 ft | 451 kts | 191° |
| 2026-05-09 19:19 | 31.89557 | 104.63185 | 39180 ft | 450 kts | 191° |
| 2026-05-09 19:19 | 31.83297 | 104.63527 | 39168 ft | 450 kts | 191° |
| 2026-05-09 19:20 | 31.77035 | 104.63863 | 39168 ft | 449 kts | 191° |
| 2026-05-09 19:20 | 31.70796 | 104.64113 | 39153 ft | 448 kts | 192° |
| 2026-05-09 19:21 | 31.64565 | 104.64346 | 39150 ft | 448 kts | 192° |
| 2026-05-09 19:21 | 31.58334 | 104.64587 | 39146 ft | 448 kts | 192° |
| 2026-05-09 19:22 | 31.52093 | 104.64833 | 39141 ft | 448 kts | 192° |
| 2026-05-09 19:22 | 31.45855 | 104.65080 | 39128 ft | 449 kts | 192° |
| 2026-05-09 19:23 | 31.39597 | 104.65328 | 39140 ft | 449 kts | 192° |
| 2026-05-09 19:23 | 31.33350 | 104.65576 | 39141 ft | 449 kts | 192° |
| 2026-05-09 19:24 | 31.27102 | 104.65825 | 39141 ft | 449 kts | 192° |
| 2026-05-09 19:24 | 31.20859 | 104.66073 | 39118 ft | 449 kts | 192° |
| 2026-05-09 19:25 | 31.14627 | 104.66172 | 39133 ft | 439 kts | 198° |
| 2026-05-09 19:25 | 31.11651 | 104.65682 | 39140 ft | 426 kts | 205° |
| 2026-05-09 19:25 | 31.08841 | 104.64775 | 39147 ft | 414 kts | 212° |
| 2026-05-09 19:26 | 31.06184 | 104.63485 | 39144 ft | 403 kts | 218° |
| 2026-05-09 19:26 | 31.03775 | 104.61893 | 39143 ft | 394 kts | 224° |
| 2026-05-09 19:26 | 30.99630 | 104.57920 | 38842 ft | 379 kts | 234° |
| 2026-05-09 19:27 | 30.97933 | 104.55628 | 38605 ft | 377 kts | 239° |
| 2026-05-09 19:27 | 30.96322 | 104.53170 | 38284 ft | 377 kts | 239° |
| 2026-05-09 19:27 | 30.94745 | 104.50758 | 38161 ft | 380 kts | 239° |
| 2026-05-09 19:27 | 30.93112 | 104.48267 | 38148 ft | 382 kts | 238° |
| 2026-05-09 19:28 | 30.89516 | 104.43629 | 38148 ft | 389 kts | 232° |
| 2026-05-09 19:28 | 30.85374 | 104.39474 | 38149 ft | 397 kts | 226° |
| 2026-05-09 19:29 | 30.80712 | 104.35906 | 38144 ft | 406 kts | 219° |
| 2026-05-09 19:29 | 30.75599 | 104.32978 | 38146 ft | 411 kts | 216° |
| 2026-05-09 19:30 | 30.70393 | 104.30220 | 38123 ft | 411 kts | 215° |
| 2026-05-09 19:30 | 30.65185 | 104.27490 | 38137 ft | 411 kts | 215° |
| 2026-05-09 19:31 | 30.59973 | 104.24769 | 38146 ft | 411 kts | 215° |
| 2026-05-09 19:31 | 30.54694 | 104.22227 | 38147 ft | 416 kts | 211° |
| 2026-05-09 19:32 | 30.49074 | 104.20210 | 38144 ft | 424 kts | 206° |
| 2026-05-09 19:32 | 30.43287 | 104.18813 | 38145 ft | 432 kts | 201° |
| 2026-05-09 19:33 | 30.37305 | 104.17884 | 38146 ft | 433 kts | 200° |
| 2026-05-09 19:33 | 30.31330 | 104.16981 | 38140 ft | 432 kts | 199° |
| 2026-05-09 19:34 | 30.25359 | 104.16083 | 38146 ft | 433 kts | 199° |
| 2026-05-09 19:34 | 30.19387 | 104.15189 | 38125 ft | 433 kts | 199° |
| 2026-05-09 19:35 | 30.13406 | 104.14296 | 38143 ft | 433 kts | 199° |
| 2026-05-09 19:35 | 30.07428 | 104.13408 | 38141 ft | 433 kts | 199° |
| 2026-05-09 19:36 | 30.01441 | 104.12518 | 38142 ft | 433 kts | 199° |
| 2026-05-09 19:36 | 29.95468 | 104.11632 | 38145 ft | 433 kts | 199° |
| 2026-05-09 19:37 | 29.89484 | 104.10744 | 38120 ft | 434 kts | 199° |
| 2026-05-09 19:37 | 29.83477 | 104.09854 | 38138 ft | 435 kts | 199° |
| 2026-05-09 19:38 | 29.77468 | 104.08966 | 38142 ft | 435 kts | 199° |
| 2026-05-09 19:38 | 29.71458 | 104.08080 | 38142 ft | 436 kts | 199° |
| 2026-05-09 19:39 | 29.65485 | 104.07201 | 38133 ft | 435 kts | 199° |
| 2026-05-09 19:39 | 29.59462 | 104.06313 | 38124 ft | 436 kts | 199° |
| 2026-05-09 19:40 | 29.53430 | 104.05429 | 38133 ft | 437 kts | 199° |
| 2026-05-09 19:40 | 29.47398 | 104.04547 | 38131 ft | 436 kts | 199° |
| 2026-05-09 19:41 | 29.41365 | 104.03698 | 38133 ft | 439 kts | 197° |
| 2026-05-09 19:41 | 29.35197 | 104.03361 | 38105 ft | 449 kts | 192° |
| 2026-05-09 19:42 | 29.28940 | 104.03439 | 38132 ft | 450 kts | 191° |
| 2026-05-09 19:42 | 29.22684 | 104.03525 | 38132 ft | 450 kts | 191° |
| 2026-05-09 19:43 | 29.16426 | 104.03613 | 38139 ft | 450 kts | 191° |
| 2026-05-09 19:43 | 29.10169 | 104.03702 | 38139 ft | 450 kts | 191° |
| 2026-05-09 19:44 | 29.03910 | 104.03786 | 38130 ft | 451 kts | 191° |
| 2026-05-09 19:44 | 28.98657 | 104.03862 | 38139 ft | 451 kts | 191° |
| 2026-05-09 19:45 | 28.92384 | 104.03950 | 38156 ft | 450 kts | 190° |
| 2026-05-09 19:45 | 28.86119 | 104.04045 | 38151 ft | 450 kts | 191° |
| 2026-05-09 19:46 | 28.79851 | 104.04138 | 38120 ft | 451 kts | 191° |
| 2026-05-09 19:46 | 28.73574 | 104.04223 | 38167 ft | 451 kts | 191° |
| 2026-05-09 19:47 | 28.67309 | 104.04285 | 38152 ft | 447 kts | 193° |
| 2026-05-09 19:47 | 28.61242 | 104.03549 | 38187 ft | 434 kts | 201° |
| 2026-05-09 19:48 | 28.55491 | 104.01760 | 38174 ft | 424 kts | 210° |
| 2026-05-09 19:48 | 28.50182 | 103.99041 | 38149 ft | 416 kts | 218° |
| 2026-05-09 19:49 | 28.45250 | 103.95659 | 38170 ft | 414 kts | 220° |
| 2026-05-09 19:49 | 28.40328 | 103.92208 | 38190 ft | 416 kts | 220° |
| 2026-05-09 19:50 | 28.35400 | 103.88748 | 38181 ft | 416 kts | 220° |
| 2026-05-09 19:50 | 28.30506 | 103.85308 | 38192 ft | 416 kts | 220° |
| 2026-05-09 19:51 | 28.25582 | 103.81848 | 38182 ft | 416 kts | 220° |
| 2026-05-09 19:51 | 28.20655 | 103.78389 | 38177 ft | 417 kts | 220° |
| 2026-05-09 19:52 | 28.15717 | 103.74929 | 38190 ft | 417 kts | 220° |
| 2026-05-09 19:52 | 28.10785 | 103.71475 | 38195 ft | 417 kts | 220° |
| 2026-05-09 19:53 | 28.05851 | 103.68023 | 38198 ft | 417 kts | 220° |
| 2026-05-09 19:53 | 28.00893 | 103.64559 | 38187 ft | 417 kts | 220° |
| 2026-05-09 19:54 | 27.95962 | 103.61114 | 38175 ft | 417 kts | 219° |
| 2026-05-09 19:54 | 27.91021 | 103.57669 | 38195 ft | 416 kts | 219° |
| 2026-05-09 19:55 | 27.86065 | 103.54220 | 38226 ft | 417 kts | 219° |
| 2026-05-09 19:56 | 27.78640 | 103.49058 | 38248 ft | 418 kts | 220° |
| 2026-05-09 19:56 | 27.73678 | 103.45616 | 38232 ft | 417 kts | 220° |
| 2026-05-09 19:57 | 27.68734 | 103.42184 | 38231 ft | 417 kts | 220° |
| 2026-05-09 19:57 | 27.63784 | 103.38756 | 38237 ft | 417 kts | 220° |
| 2026-05-09 19:58 | 27.58829 | 103.35322 | 38237 ft | 417 kts | 220° |
| 2026-05-09 19:58 | 27.53866 | 103.31895 | 38241 ft | 417 kts | 220° |
| 2026-05-09 19:59 | 27.48909 | 103.28480 | 38238 ft | 418 kts | 219° |
| 2026-05-09 19:59 | 27.43742 | 103.25369 | 38222 ft | 424 kts | 214° |
| 2026-05-09 20:00 | 27.38273 | 103.22756 | 38246 ft | 429 kts | 210° |
| 2026-05-09 20:00 | 27.32723 | 103.20291 | 38264 ft | 427 kts | 210° |
| 2026-05-09 20:01 | 27.27196 | 103.17850 | 38244 ft | 427 kts | 210° |
| 2026-05-09 20:01 | 27.21653 | 103.15395 | 38254 ft | 427 kts | 210° |
| 2026-05-09 20:02 | 27.16120 | 103.12948 | 38283 ft | 428 kts | 211° |
| 2026-05-09 20:02 | 27.10579 | 103.10495 | 38246 ft | 428 kts | 210° |
| 2026-05-09 20:03 | 27.02249 | 103.06819 | 38264 ft | 429 kts | 210° |
| 2026-05-09 20:03 | 26.96690 | 103.04372 | 38265 ft | 429 kts | 210° |
| 2026-05-09 20:04 | 26.91118 | 103.01920 | 38271 ft | 430 kts | 210° |
| 2026-05-09 20:04 | 26.85543 | 102.99472 | 38247 ft | 430 kts | 210° |